Provisional Data: Chemung River at West Elmira, NY


Please select a monitoring station.
Please select start date.
Please select start date.

Toggle Unit: C/F Toggle Unit: C/F
Sample Time Temperature (C) Temperature (F) Specific Conductivity (mS/cm) pH   Turbidity (NTU+) DO (mg/L)
5/4/2021 12:00:00 AM 12.41 54.338 0.22 7.79 30.03 10.45
5/4/2021 12:15:00 AM 12.41 54.338 0.219 7.79 30.6 10.44
5/4/2021 12:30:00 AM 12.42 54.356 0.219 7.79 24.12 10.44
5/4/2021 12:45:00 AM 12.43 54.374 0.219 7.8 26.95 10.44
5/4/2021 1:00:00 AM 12.43 54.374 0.219 7.79 23.76 10.43
5/4/2021 1:15:00 AM 12.44 54.392 0.219 7.79 29.65 10.42
5/4/2021 1:30:00 AM 12.44 54.392 0.219 7.78 28.17 10.42
5/4/2021 1:45:00 AM 12.44 54.392 0.219 7.79 31.68 10.4
5/4/2021 2:00:00 AM 12.45 54.41 0.219 7.8 30.32 10.4
5/4/2021 2:15:00 AM 12.45 54.41 0.22 7.79 28.48 10.38
5/4/2021 2:30:00 AM 12.45 54.41 0.219 7.79 26.42 10.38
5/4/2021 2:45:00 AM 12.45 54.41 0.219 7.8 25.08 10.38
5/4/2021 3:00:00 AM 12.45 54.41 0.219 7.79 33.28 10.37
5/4/2021 3:15:00 AM 12.45 54.41 0.219 7.79 29.82 10.35
5/4/2021 3:30:00 AM 12.45 54.41 0.22 7.79 28.9 10.35
5/4/2021 3:45:00 AM 12.45 54.41 0.22 7.79 26.68 10.34
5/4/2021 4:00:00 AM 12.44 54.392 0.22 7.78 30.52 10.33
5/4/2021 4:15:00 AM 12.44 54.392 0.22 7.79 28.47 10.32
5/4/2021 4:30:00 AM 12.44 54.392 0.22 7.78 24.21 10.31
5/4/2021 4:45:00 AM 12.44 54.392 0.22 7.77 27.08 10.3
5/4/2021 5:00:00 AM 12.44 54.392 0.221 7.77 26.01 10.29
5/4/2021 5:15:00 AM 12.44 54.392 0.221 7.78 28.47 10.29
5/4/2021 5:30:00 AM 12.44 54.392 0.22 7.77 30.66 10.27
5/4/2021 5:45:00 AM 12.43 54.374 0.221 7.77 28.48 10.28
5/4/2021 6:00:00 AM 12.43 54.374 0.221 7.77 26.92 10.27
5/4/2021 6:15:00 AM 12.43 54.374 0.221 7.77 26.38 10.26
5/4/2021 6:30:00 AM 12.42 54.356 0.221 7.76 28.42 10.25
5/4/2021 6:45:00 AM 12.42 54.356 0.221 7.77 25.71 10.24
5/4/2021 7:00:00 AM 12.42 54.356 0.221 7.77 25.54 10.25
5/4/2021 7:15:00 AM 12.42 54.356 0.222 7.77 27.64 10.24
5/4/2021 7:30:00 AM 12.42 54.356 0.222 7.77 26.53 10.23
5/4/2021 7:45:00 AM 12.43 54.374 0.222 7.77 25.28 10.23
5/4/2021 8:00:00 AM 12.43 54.374 0.222 7.76 30.57 10.23
5/4/2021 8:15:00 AM 12.44 54.392 0.222 7.77 23.68 10.24
5/4/2021 8:30:00 AM 12.44 54.392 0.222 7.77 24.77 10.24
5/4/2021 8:45:00 AM 12.46 54.428 0.222 7.77 28.19 10.25
5/4/2021 9:00:00 AM 12.46 54.428 0.222 7.77 23.98 10.24
5/4/2021 9:15:00 AM 12.47 54.446 0.222 7.78 26.74 10.25
5/4/2021 9:30:00 AM 12.5 54.5 0.222 7.78 33.38 10.26
5/4/2021 9:45:00 AM 12.53 54.554 0.222 7.77 22.77 10.28
5/4/2021 10:00:00 AM 12.58 54.644 0.223 7.78 25.81 10.28
5/4/2021 10:15:00 AM 12.63 54.734 0.222 7.77 33.74 10.3
5/4/2021 10:30:00 AM 12.66 54.788 0.222 7.78 25.31 10.3
5/4/2021 10:45:00 AM 12.69 54.842 0.222 7.79 23.06 10.32
5/4/2021 11:00:00 AM 12.75 54.95 0.223 7.79 23.47 10.34
5/4/2021 11:15:00 AM 12.81 55.058 0.223 7.8 29.01 10.37
5/4/2021 11:30:00 AM 12.86 55.148 0.223 7.8 25.54 10.38
5/4/2021 11:45:00 AM 12.9 55.22 0.223 7.8 33.17 10.41
5/4/2021 12:00:00 PM 13 55.4 0.223 7.8 22.7 10.42
5/4/2021 12:15:00 PM 13.13 55.634 0.223 7.8 22.27 10.4
5/4/2021 12:30:00 PM 13.21 55.778 0.223 7.81 23.35 10.4
5/4/2021 12:45:00 PM 13.28 55.904 0.223 7.81 20.23 10.41
5/4/2021 1:00:00 PM 13.33 55.994 0.223 7.82 23.48 10.42
5/4/2021 1:15:00 PM 13.4 56.12 0.224 7.82 20.72 10.44
5/4/2021 1:30:00 PM 13.48 56.264 0.224 7.83 21.03 10.47
5/4/2021 1:45:00 PM 13.58 56.444 0.224 7.83 26.27 10.48
5/4/2021 2:00:00 PM 13.65 56.57 0.224 7.84 23.74 10.48
5/4/2021 2:15:00 PM 13.71 56.678 0.224 7.84 24.75 10.47
5/4/2021 2:30:00 PM 13.82 56.876 0.224 7.83 22.32 10.46
5/4/2021 2:45:00 PM 13.93 57.074 0.224 7.84 21.37 10.47
5/4/2021 3:00:00 PM 14.04 57.272 0.224 7.84 25.49 10.5
5/4/2021 3:15:00 PM 14.14 57.452 0.224 7.86 23.84 10.53
5/4/2021 3:30:00 PM 14.22 57.596 0.225 7.86 23.94 10.51
5/4/2021 3:45:00 PM 14.27 57.686 0.225 7.87 22.39 10.5
5/4/2021 4:00:00 PM 14.32 57.776 0.228 7.86 24.17 10.47
5/4/2021 4:15:00 PM 14.37 57.866 0.232 7.85 26.27 10.48
5/4/2021 4:30:00 PM 14.38 57.884 0.237 7.87 30.94 10.47
5/4/2021 4:45:00 PM 14.36 57.848 0.244 7.86 22.38 10.46
5/4/2021 5:00:00 PM 14.34 57.812 0.252 7.87 26.48 10.45
5/4/2021 5:15:00 PM 14.31 57.758 0.26 7.86 27.28 10.44
5/4/2021 5:30:00 PM 14.3 57.74 0.271 7.87 18.49 10.44
5/4/2021 5:45:00 PM 14.3 57.74 0.28 7.86 22.86 10.43
5/4/2021 6:00:00 PM 14.29 57.722 0.288 7.85 19.44 10.42
5/4/2021 6:15:00 PM 14.3 57.74 0.294 7.87 23.62 10.42
5/4/2021 6:30:00 PM 14.31 57.758 0.3 7.87 23.02 10.41
5/4/2021 6:45:00 PM 14.32 57.776 0.306 7.86 22.94 10.4
5/4/2021 7:00:00 PM 14.33 57.794 0.309 7.87 21.57 10.39
5/4/2021 7:15:00 PM 14.35 57.83 0.312 7.87 21.68 10.39
5/4/2021 7:30:00 PM 14.37 57.866 0.315 7.87 21.1 10.38
5/4/2021 7:45:00 PM 14.38 57.884 0.316 7.86 23.87 10.38
5/4/2021 8:00:00 PM 14.4 57.92 0.318 7.87 21.9 10.36
5/4/2021 8:15:00 PM 14.41 57.938 0.319 7.86 26.46 10.35
5/4/2021 8:30:00 PM 14.41 57.938 0.319 7.86 23 10.34
5/4/2021 8:45:00 PM 14.41 57.938 0.32 7.86 25.11 10.33
5/4/2021 9:00:00 PM 14.4 57.92 0.32 7.86 25.31 10.31
5/4/2021 9:15:00 PM 14.4 57.92 0.32 7.86 32 10.3
5/4/2021 9:30:00 PM 14.39 57.902 0.32 7.86 58.05 10.28
5/4/2021 9:45:00 PM 14.39 57.902 0.32 7.85 23.29 10.28
5/4/2021 10:00:00 PM 14.38 57.884 0.32 7.85 52.27 10.27
5/4/2021 10:15:00 PM 14.37 57.866 0.32 7.85 22.99 10.25
5/4/2021 10:30:00 PM 14.36 57.848 0.319 7.85 23.34 10.24
5/4/2021 10:45:00 PM 14.35 57.83 0.319 7.85 24.04 10.23
5/4/2021 11:00:00 PM 14.34 57.812 0.318 7.85 45.07 10.22
5/4/2021 11:15:00 PM 14.33 57.794 0.318 7.85 23.93 10.21
5/4/2021 11:30:00 PM 14.33 57.794 0.317 7.84 24.8 10.2
5/4/2021 11:45:00 PM 14.33 57.794 0.317 7.84 28.35 10.19
5/5/2021 12:00:00 AM 14.33 57.794 0.316 7.85 29.35 10.17
5/5/2021 12:15:00 AM 14.33 57.794 0.316 7.84 47.73 10.16
5/5/2021 12:30:00 AM 14.32 57.776 0.3 7.84 10.43 10.15
5/5/2021 12:45:00 AM 14.32 57.776 0.291 7.84 18.67 10.14
5/5/2021 1:00:00 AM 14.31 57.758 0.287 7.84 31.47 10.13
5/5/2021 1:15:00 AM 14.32 57.776 0.283 7.84 40.54 10.11
5/5/2021 1:30:00 AM 14.32 57.776 0.278 7.84 146.21 10.1
5/5/2021 1:45:00 AM 14.33 57.794 0.276 7.84 60.29 10.09
5/5/2021 2:00:00 AM 14.34 57.812 0.274 7.84 59.45 10.07
5/5/2021 2:15:00 AM 14.34 57.812 0.272 7.83 72.98 10.05
5/5/2021 2:30:00 AM 14.35 57.83 0.269 7.82 78.52 10.04
5/5/2021 2:45:00 AM 14.36 57.848 0.268 7.83 84.54 10.02
5/5/2021 3:00:00 AM 14.36 57.848 0.267 7.83 106.59 9.99
5/5/2021 3:15:00 AM 14.37 57.866 0.266 7.82 121.94 9.99
5/5/2021 3:30:00 AM 14.38 57.884 0.264 7.82 116.81 9.97
5/5/2021 3:45:00 AM 14.38 57.884 0.263 7.82 132.35 9.96
5/5/2021 4:00:00 AM 14.39 57.902 0.262 7.82 149.57 9.94
5/5/2021 4:15:00 AM 14.39 57.902 0.261 7.82 157.74 9.92
5/5/2021 4:30:00 AM 14.39 57.902 0.26 7.82 159.05 9.9
5/5/2021 4:45:00 AM 14.4 57.92 0.259 7.81 168.82 9.9
5/5/2021 5:00:00 AM 14.4 57.92 0.259 7.82 177.14 9.88
5/5/2021 5:15:00 AM 14.39 57.902 0.259 7.81 171.31 9.86
5/5/2021 5:30:00 AM 14.4 57.92 0.259 7.81 186.71 9.86
5/5/2021 5:45:00 AM 14.39 57.902 0.257 7.8 179.38 9.85
5/5/2021 6:00:00 AM 14.37 57.866 0.256 7.8 176.31 9.84
5/5/2021 6:15:00 AM 14.36 57.848 0.255 7.8 202.01 9.83
5/5/2021 6:30:00 AM 14.35 57.83 0.254 7.8 235.29 9.82
5/5/2021 6:45:00 AM 14.34 57.812 0.254 7.8 257.45 9.82
5/5/2021 7:00:00 AM 14.33 57.794 0.254 7.79 292.39 9.82
5/5/2021 7:15:00 AM 14.32 57.776 0.254 7.79 319.89 9.82
5/5/2021 7:30:00 AM 14.31 57.758 0.254 7.79 340.18 9.81
5/5/2021 7:45:00 AM 14.3 57.74 0.253 7.79 334.72 9.82
5/5/2021 8:00:00 AM 14.3 57.74 0.253 7.79 332.13 9.82
5/5/2021 8:15:00 AM 14.29 57.722 0.252 7.79 390.2 9.82
5/5/2021 8:30:00 AM 14.28 57.704 0.251 7.79 383.77 9.82
5/5/2021 8:45:00 AM 14.26 57.668 0.251 7.78 396.7 9.83
5/5/2021 9:00:00 AM 14.25 57.65 0.25 7.79 313.33 9.83
5/5/2021 9:15:00 AM 14.23 57.614 0.25 7.78 265.66 9.83
5/5/2021 9:30:00 AM 14.21 57.578 0.25 7.78 322.91 9.84
5/5/2021 9:45:00 AM 14.19 57.542 0.249 7.79 288.55 9.85
5/5/2021 10:00:00 AM 14.17 57.506 0.249 7.78 271.43 9.85
5/5/2021 10:15:00 AM 14.16 57.488 0.248 7.78 297.6 9.86
5/5/2021 10:30:00 AM 14.14 57.452 0.248 7.79 308.29 9.87
5/5/2021 10:45:00 AM 14.13 57.434 0.247 7.79 290.26 9.88
5/5/2021 11:00:00 AM 14.11 57.398 0.247 7.79 293.56 9.9
5/5/2021 11:15:00 AM 14.09 57.362 0.246 7.79 288.64 9.9
5/5/2021 11:30:00 AM 14.07 57.326 0.245 7.79 279.34 9.91
5/5/2021 11:45:00 AM 14.05 57.29 0.245 7.77 293.18 9.92
5/5/2021 12:00:00 PM 14.03 57.254 0.245 7.79 311.15 9.93
5/5/2021 12:15:00 PM 14.01 57.218 0.245 7.79 278.74 9.95
5/5/2021 12:30:00 PM 14 57.2 0.245 7.79 199.24 9.96
5/5/2021 12:45:00 PM 14 57.2 0.244 7.78 189.87 9.98
5/5/2021 1:00:00 PM 13.98 57.164 0.244 7.8 212.36 10
5/5/2021 1:15:00 PM 13.97 57.146 0.243 7.8 251.43 10.01
5/5/2021 1:30:00 PM 13.97 57.146 0.243 7.8 271.03 10.03
5/5/2021 1:45:00 PM 13.98 57.164 0.243 7.81 285.18 10.06
5/5/2021 2:00:00 PM 14 57.2 0.243 7.81 244.66 10.08
5/5/2021 2:15:00 PM 13.99 57.182 0.243 7.81 184.97 10.1
5/5/2021 2:30:00 PM 13.97 57.146 0.243 7.82 150.55 10.13
5/5/2021 2:45:00 PM 13.94 57.092 0.242 7.82 147.17 10.13
5/5/2021 3:00:00 PM 13.93 57.074 0.242 7.82 171.94 10.14
5/5/2021 3:15:00 PM 13.91 57.038 0.241 7.82 135.06 10.17
5/5/2021 3:30:00 PM 13.89 57.002 0.239 7.83 133.77 10.18
5/5/2021 3:45:00 PM 13.88 56.984 0.236 7.83 157.31 10.2
5/5/2021 4:00:00 PM 13.86 56.948 0.233 7.83 151.28 10.22
5/5/2021 4:15:00 PM 13.84 56.912 0.226 7.84 144.73 10.22
5/5/2021 4:30:00 PM 13.83 56.894 0.221 7.83 151.17 10.23
5/5/2021 4:45:00 PM 13.81 56.858 0.215 7.84 162.92 10.24
5/5/2021 5:00:00 PM 13.79 56.822 0.208 7.84 191.63 10.25
5/5/2021 5:15:00 PM 13.76 56.768 0.202 7.84 181.68 10.25
5/5/2021 5:30:00 PM 13.72 56.696 0.197 7.84 212.05 10.24
5/5/2021 5:45:00 PM 13.69 56.642 0.193 7.84 239.5 10.23
5/5/2021 6:00:00 PM 13.65 56.57 0.189 7.84 265.23 10.22
5/5/2021 6:15:00 PM 13.61 56.498 0.185 7.83 367.3 10.22
5/5/2021 6:30:00 PM 13.58 56.444 0.183 7.84 277.93 10.22
5/5/2021 6:45:00 PM 13.55 56.39 0.182 7.84 260.99 10.23
5/5/2021 7:00:00 PM 13.52 56.336 0.18 7.84 162.23 10.24
5/5/2021 7:15:00 PM 13.48 56.264 0.22 7.84 40.99 10.25
5/5/2021 7:30:00 PM 13.46 56.228 0.213 7.85 21.9 10.25
5/5/2021 7:45:00 PM 13.43 56.174 0.209 7.85 14.69 10.27
5/5/2021 8:00:00 PM 13.39 56.102 0.206 7.85 16.79 10.27
5/5/2021 8:15:00 PM 13.35 56.03 0.203 7.85 14.49 10.29
5/5/2021 8:30:00 PM 13.31 55.958 0.201 7.84 16.34 10.29
5/5/2021 8:45:00 PM 13.27 55.886 0.199 7.84 18.56 10.3
5/5/2021 9:00:00 PM 13.22 55.796 0.198 7.85 19.62 10.3
5/5/2021 9:15:00 PM 13.18 55.724 0.197 7.85 22.22 10.3
5/5/2021 9:30:00 PM 13.14 55.652 0.196 7.85 29.14 10.31
5/5/2021 9:45:00 PM 13.1 55.58 0.195 7.84 30.56 10.31
5/5/2021 10:00:00 PM 13.06 55.508 0.194 7.84 33.27 10.31
5/5/2021 10:15:00 PM 13.03 55.454 0.194 7.85 34.15 10.3
5/5/2021 10:30:00 PM 12.99 55.382 0.194 7.84 39.77 10.3
5/5/2021 10:45:00 PM 12.96 55.328 0.193 7.84 43.71 10.29
5/5/2021 11:00:00 PM 12.93 55.274 0.193 7.83 47.47 10.29
5/5/2021 11:15:00 PM 12.91 55.238 0.193 7.85 50.57 10.28
5/5/2021 11:30:00 PM 12.88 55.184 0.193 7.84 54.19 10.28
5/5/2021 11:45:00 PM 12.85 55.13 0.193 7.84 62.95 10.28
5/6/2021 12:00:00 AM 12.82 55.076 0.193 7.85 80.04 10.27
5/6/2021 12:15:00 AM 12.79 55.022 0.193 7.84 82.54 10.27
5/6/2021 12:30:00 AM 12.77 54.986 0.193 7.84 108.63 10.26
5/6/2021 12:45:00 AM 12.74 54.932 0.193 7.84 94.39 10.27
5/6/2021 1:00:00 AM 12.71 54.878 0.192 7.83 97.76 10.27
5/6/2021 1:15:00 AM 12.68 54.824 0.192 7.85 112.73 10.26
5/6/2021 1:30:00 AM 12.65 54.77 0.192 7.85 107.51 10.27
5/6/2021 1:45:00 AM 12.63 54.734 0.191 7.84 112.13 10.28
5/6/2021 2:00:00 AM 12.61 54.698 0.191 7.84 130.04 10.29
5/6/2021 2:15:00 AM 12.59 54.662 0.192 7.84 137.46 10.28
5/6/2021 2:30:00 AM 12.56 54.608 0.191 7.84 151.9 10.3
5/6/2021 2:45:00 AM 12.53 54.554 0.191 7.82 158.86 10.3
5/6/2021 3:00:00 AM 12.5 54.5 0.191 7.83 169.83 10.3
5/6/2021 3:15:00 AM 12.47 54.446 0.19 7.84 177.96 10.31
5/6/2021 3:30:00 AM 12.44 54.392 0.19 7.84 185.26 10.31
5/6/2021 3:45:00 AM 12.42 54.356 0.189 7.84 197.43 10.32
5/6/2021 4:00:00 AM 12.39 54.302 0.189 7.84 203.09 10.33
5/6/2021 4:15:00 AM 12.35 54.23 0.188 7.84 214.22 10.33
5/6/2021 4:30:00 AM 12.32 54.176 0.188 7.84 225.22 10.34
5/6/2021 4:45:00 AM 12.29 54.122 0.188 7.84 196.28 10.34
5/6/2021 5:00:00 AM 12.25 54.05 0.188 7.84 215.86 10.34
5/6/2021 5:15:00 AM 12.21 53.978 0.187 7.84 179.12 10.34
5/6/2021 5:30:00 AM 12.18 53.924 0.186 7.84 168.38 10.35
5/6/2021 5:45:00 AM 12.14 53.852 0.186 7.84 177.86 10.35
5/6/2021 6:00:00 AM 12.11 53.798 0.185 7.84 166.94 10.35
5/6/2021 6:15:00 AM 12.07 53.726 0.185 7.84 150.85 10.35
5/6/2021 6:30:00 AM 12.03 53.654 0.184 7.83 172.98 10.35
5/6/2021 6:45:00 AM 12 53.6 0.184 7.83 169.34 10.34
5/6/2021 7:00:00 AM 11.96 53.528 0.184 7.84 179.31 10.35
5/6/2021 7:15:00 AM 11.93 53.474 0.183 7.84 160.88 10.36
5/6/2021 7:30:00 AM 11.91 53.438 0.182 7.84 156.73 10.37
5/6/2021 7:45:00 AM 11.9 53.42 0.181 7.84 146.63 10.39
5/6/2021 8:00:00 AM 11.87 53.366 0.18 7.84 147.77 10.41
5/6/2021 8:15:00 AM 11.87 53.366 0.179 7.84 143.82 10.43
5/6/2021 8:30:00 AM 11.88 53.384 0.178 7.84 148.96 10.44
5/6/2021 8:45:00 AM 11.86 53.348 0.178 7.85 123.6 10.46
5/6/2021 9:00:00 AM 11.84 53.312 0.177 7.83 137.84 10.49
5/6/2021 9:15:00 AM 11.93 53.474 0.176 7.84 104.33 10.51
5/6/2021 9:30:00 AM 12 53.6 0.175 7.85 97.3 10.55
5/6/2021 9:45:00 AM 11.99 53.582 0.173 7.86 120.3 10.58
5/6/2021 10:00:00 AM 11.99 53.582 0.172 7.86 123.89 10.59
5/6/2021 10:15:00 AM 12.08 53.744 0.171 7.86 163.63 10.62
5/6/2021 10:30:00 AM 12.14 53.852 0.17 7.86 232.06 10.66
5/6/2021 10:45:00 AM 12.16 53.888 0.168 7.85 254.97 10.68
5/6/2021 11:00:00 AM 12.14 53.852 0.166 7.86 306.57 10.68
5/6/2021 11:15:00 AM 12.19 53.942 0.165 7.86 199.63 10.71
5/6/2021 11:30:00 AM 12.28 54.104 0.161 7.87 152.19 10.72
5/6/2021 11:45:00 AM 12.32 54.176 0.156 7.87 82.84 10.73
5/6/2021 12:00:00 PM 12.32 54.176 0.223 7.85 31.06 10.74
5/6/2021 12:15:00 PM 12.41 54.338 0.223 7.87 33.82 10.73
5/6/2021 12:30:00 PM 12.5 54.5 0.223 7.87 36.25 10.75
5/6/2021 12:45:00 PM 12.54 54.572 0.222 7.86 33.93 10.76
5/6/2021 1:00:00 PM 12.57 54.626 0.222 7.88 35.26 10.77
5/6/2021 1:15:00 PM 12.58 54.644 0.222 7.87 34 10.78
5/6/2021 1:30:00 PM 12.57 54.626 0.222 7.88 33.86 10.79
5/6/2021 1:45:00 PM 12.61 54.698 0.222 7.88 29.98 10.81
5/6/2021 2:00:00 PM 12.64 54.752 0.222 7.88 32.35 10.83
5/6/2021 2:15:00 PM 12.7 54.86 0.222 7.88 33.24 10.86
5/6/2021 2:30:00 PM 12.72 54.896 0.222 7.88 35.73 10.88
5/6/2021 2:45:00 PM 12.72 54.896 0.222 7.88 35.05 10.87
5/6/2021 3:00:00 PM 12.77 54.986 0.222 7.89 32.94 10.91
5/6/2021 3:15:00 PM 12.87 55.166 0.222 7.89 34.18 10.91
5/6/2021 3:30:00 PM 13.01 55.418 0.222 7.91 31.73 10.9
5/6/2021 3:45:00 PM 13.07 55.526 0.222 7.9 35.05 10.9
5/6/2021 4:00:00 PM 13.06 55.508 0.222 7.92 31.27 10.9
5/6/2021 4:15:00 PM 13.05 55.49 0.222 7.92 31.76 10.92
5/6/2021 4:30:00 PM 13.03 55.454 0.222 7.92 29.48 10.91
5/6/2021 4:45:00 PM 13.03 55.454 0.222 7.93 32.6 10.92
5/6/2021 5:00:00 PM 13.01 55.418 0.223 7.92 30.96 10.93
5/6/2021 5:15:00 PM 12.98 55.364 0.223 7.92 29.56 10.94
5/6/2021 5:30:00 PM 12.94 55.292 0.223 7.92 51.23 10.95
5/6/2021 5:45:00 PM 12.9 55.22 0.223 7.93 30.54 10.96
5/6/2021 6:00:00 PM 12.86 55.148 0.224 7.93 34.22 10.96
5/6/2021 6:15:00 PM 12.83 55.094 0.224 7.93 29.37 10.97
5/6/2021 6:30:00 PM 12.81 55.058 0.224 7.94 30.91 10.97
5/6/2021 6:45:00 PM 12.82 55.076 0.224 7.92 26.92 10.96
5/6/2021 7:00:00 PM 12.85 55.13 0.224 7.94 28.71 10.96
5/6/2021 7:15:00 PM 12.9 55.22 0.224 7.94 26.74 10.93
5/6/2021 7:30:00 PM 12.95 55.31 0.225 7.93 26.73 10.9
5/6/2021 7:45:00 PM 12.98 55.364 0.225 7.93 29.61 10.9
5/6/2021 8:00:00 PM 13 55.4 0.225 7.94 25.81 10.88
5/6/2021 8:15:00 PM 13.01 55.418 0.225 7.94 28.32 10.87
5/6/2021 8:30:00 PM 13.02 55.436 0.225 7.94 26.22 10.86
5/6/2021 8:45:00 PM 13.03 55.454 0.225 7.93 28.15 10.84
5/6/2021 9:00:00 PM 13.03 55.454 0.225 7.93 28.23 10.82
5/6/2021 9:15:00 PM 13.05 55.49 0.225 7.93 29.64 10.81
5/6/2021 9:30:00 PM 13.06 55.508 0.225 7.93 29.86 10.8
5/6/2021 9:45:00 PM 13.07 55.526 0.226 7.93 27.73 10.79
5/6/2021 10:00:00 PM 13.06 55.508 0.226 7.93 27.46 10.77
5/6/2021 10:15:00 PM 13.05 55.49 0.226 7.93 28.66 10.75
5/6/2021 10:30:00 PM 13.04 55.472 0.226 7.93 29.42 10.74
5/6/2021 10:45:00 PM 13.01 55.418 0.193 7.91 14.1 10.73
5/6/2021 11:00:00 PM 12.98 55.364 0.178 7.93 33.56 10.71
5/6/2021 11:15:00 PM 12.94 55.292 0.226 7.93 7.58 10.7
5/6/2021 11:30:00 PM 12.9 55.22 0.226 7.92 28.96 10.68
5/6/2021 11:45:00 PM 12.87 55.166 0.226 7.92 28.34 10.67
5/7/2021 12:00:00 AM 12.83 55.094 0.227 7.92 32.94 10.66
5/7/2021 12:15:00 AM 12.79 55.022 0.227 7.92 27.97 10.66
5/7/2021 12:30:00 AM 12.74 54.932 0.227 7.92 27.43 10.66
5/7/2021 12:45:00 AM 12.7 54.86 0.227 7.93 27.57 10.66
5/7/2021 1:00:00 AM 12.65 54.77 0.227 7.92 26.73 10.66
5/7/2021 1:15:00 AM 12.61 54.698 0.227 7.92 26.96 10.66
5/7/2021 1:30:00 AM 12.56 54.608 0.227 7.92 26.61 10.67
5/7/2021 1:45:00 AM 12.51 54.518 0.226 7.91 28.58 10.67
5/7/2021 2:00:00 AM 12.46 54.428 0.226 7.92 26.26 10.67
5/7/2021 2:15:00 AM 12.41 54.338 0.226 7.92 26.14 10.67
5/7/2021 2:30:00 AM 12.37 54.266 0.226 7.9 27.94 10.67
5/7/2021 2:45:00 AM 12.32 54.176 0.226 7.91 26.82 10.66
5/7/2021 3:00:00 AM 12.28 54.104 0.226 7.91 25.99 10.65
5/7/2021 3:15:00 AM 12.23 54.014 0.227 7.9 25.93 10.64
5/7/2021 3:30:00 AM 12.19 53.942 0.227 7.89 25.91 10.62
5/7/2021 3:45:00 AM 12.15 53.87 0.227 7.9 26.36 10.61
5/7/2021 4:00:00 AM 12.11 53.798 0.227 7.89 32.09 10.61
5/7/2021 4:15:00 AM 12.08 53.744 0.226 7.89 29.68 10.59
5/7/2021 4:30:00 AM 12.04 53.672 0.227 7.9 25.58 10.58
5/7/2021 4:45:00 AM 12 53.6 0.227 7.89 26.33 10.57
5/7/2021 5:00:00 AM 11.96 53.528 0.227 7.89 27.79 10.56
5/7/2021 5:15:00 AM 11.92 53.456 0.227 7.88 23.81 10.54
5/7/2021 5:30:00 AM 11.89 53.402 0.227 7.89 25.62 10.55
5/7/2021 5:45:00 AM 11.84 53.312 0.227 7.87 24.03 10.55
5/7/2021 6:00:00 AM 11.81 53.258 0.227 7.88 26.61 10.54
5/7/2021 6:15:00 AM 11.77 53.186 0.227 7.88 28.22 10.54
5/7/2021 6:30:00 AM 11.73 53.114 0.227 7.87 25.01 10.54
5/7/2021 6:45:00 AM 11.69 53.042 0.227 7.87 25.76 10.55
5/7/2021 7:00:00 AM 11.66 52.988 0.227 7.87 25.23 10.56
5/7/2021 7:15:00 AM 11.64 52.952 0.227 7.87 26.33 10.56
5/7/2021 7:30:00 AM 11.62 52.916 0.227 7.87 23.64 10.58
5/7/2021 7:45:00 AM 11.62 52.916 0.227 7.87 24.52 10.59
5/7/2021 8:00:00 AM 11.63 52.934 0.228 7.87 26.77 10.6
5/7/2021 8:15:00 AM 11.64 52.952 0.228 7.88 25.03 10.62
5/7/2021 8:30:00 AM 11.69 53.042 0.228 7.88 24.55 10.64
5/7/2021 8:45:00 AM 11.71 53.078 0.228 7.88 23.5 10.65
5/7/2021 9:00:00 AM 11.73 53.114 0.228 7.87 23.25 10.67
5/7/2021 9:15:00 AM 11.73 53.114 0.228 7.89 23.99 10.69
5/7/2021 9:30:00 AM 11.74 53.132 0.229 7.89 24.85 10.7
5/7/2021 9:45:00 AM 11.76 53.168 0.229 7.9 22.18 10.72
5/7/2021 10:00:00 AM 11.76 53.168 0.23 7.9 24.02 10.75
5/7/2021 10:15:00 AM 11.75 53.15 0.23 7.9 24.03 10.76
5/7/2021 10:30:00 AM 11.74 53.132 0.23 7.91 23.11 10.78
5/7/2021 10:45:00 AM 11.73 53.114 0.23 7.91 22.91 10.79
5/7/2021 11:00:00 AM 11.73 53.114 0.23 7.91 23.98 10.8
5/7/2021 11:15:00 AM 11.73 53.114 0.231 7.91 22.38 10.82
5/7/2021 11:30:00 AM 11.73 53.114 0.231 7.92 22.41 10.85
5/7/2021 11:45:00 AM 11.73 53.114 0.231 7.92 22.57 10.87
5/7/2021 12:00:00 PM 11.74 53.132 0.231 7.92 23.7 10.88
5/7/2021 12:15:00 PM 11.77 53.186 0.231 7.92 23.23 10.9
5/7/2021 12:30:00 PM 11.82 53.276 0.231 7.93 21.6 10.94
5/7/2021 12:45:00 PM 11.86 53.348 0.231 7.94 21.47 10.97
5/7/2021 1:00:00 PM 11.9 53.42 0.232 7.94 22.71 11
5/7/2021 1:15:00 PM 11.91 53.438 0.232 7.95 20.27 11.02
5/7/2021 1:30:00 PM 11.91 53.438 0.232 7.95 24.98 11.05
5/7/2021 1:45:00 PM 11.91 53.438 0.232 7.96 21.09 11.06
5/7/2021 2:00:00 PM 11.9 53.42 0.232 7.95 21.39 11.09
5/7/2021 2:15:00 PM 11.9 53.42 0.232 7.96 20.37 11.1
5/7/2021 2:30:00 PM 11.88 53.384 0.232 7.96 21.85 11.11
5/7/2021 2:45:00 PM 11.85 53.33 0.233 7.97 26.42 11.11
5/7/2021 3:00:00 PM 11.83 53.294 0.233 7.97 20.03 11.11
5/7/2021 3:15:00 PM 11.8 53.24 0.233 7.97 29.93 11.11
5/7/2021 3:30:00 PM 11.78 53.204 0.233 7.97 24.18 11.11
5/7/2021 3:45:00 PM 11.76 53.168 0.233 7.96 22.46 11.11
5/7/2021 4:00:00 PM 11.74 53.132 0.233 7.96 23.3 11.12
5/7/2021 4:15:00 PM 11.73 53.114 0.233 7.97 24.26 11.13
5/7/2021 4:30:00 PM 11.71 53.078 0.233 7.96 22.99 11.12
5/7/2021 4:45:00 PM 11.69 53.042 0.234 7.97 22 11.14
5/7/2021 5:00:00 PM 11.67 53.006 0.234 7.97 22.19 11.13
5/7/2021 5:15:00 PM 11.65 52.97 0.233 7.97 21.17 11.14
5/7/2021 5:30:00 PM 11.62 52.916 0.233 7.97 22.69 11.13
5/7/2021 5:45:00 PM 11.59 52.862 0.234 7.96 21.28 11.13
5/7/2021 6:00:00 PM 11.57 52.826 0.234 7.97 26.66 11.13
5/7/2021 6:15:00 PM 11.55 52.79 0.234 7.97 21.39 11.13
5/7/2021 6:30:00 PM 11.52 52.736 0.234 7.96 23.15 11.13
5/7/2021 6:45:00 PM 11.5 52.7 0.234 7.97 22.88 11.13
5/7/2021 7:00:00 PM 11.48 52.664 0.234 7.96 22.04 11.14
5/7/2021 7:15:00 PM 11.45 52.61 0.234 7.96 22.15 11.12
5/7/2021 7:30:00 PM 11.42 52.556 0.234 7.96 19.91 11.12
5/7/2021 7:45:00 PM 11.4 52.52 0.234 7.95 22.01 11.11
5/7/2021 8:00:00 PM 11.37 52.466 0.234 7.95 22.68 11.11
5/7/2021 8:15:00 PM 11.34 52.412 0.235 7.94 22.63 11.1
5/7/2021 8:30:00 PM 11.32 52.376 0.235 7.94 22.83 11.09
5/7/2021 8:45:00 PM 11.3 52.34 0.235 7.95 24.67 11.09
5/7/2021 9:00:00 PM 11.28 52.304 0.235 7.94 23.82 11.08
5/7/2021 9:15:00 PM 11.26 52.268 0.235 7.93 23.39 11.08
5/7/2021 9:30:00 PM 11.25 52.25 0.235 7.94 28.09 11.06
5/7/2021 9:45:00 PM 11.24 52.232 0.236 7.94 23.2 11.05
5/7/2021 10:00:00 PM 11.22 52.196 0.236 7.93 21.22 11.05
5/7/2021 10:15:00 PM 11.22 52.196 0.236 7.93 22.01 11.04
5/7/2021 10:30:00 PM 11.21 52.178 0.237 7.93 19.77 11.03
5/7/2021 10:45:00 PM 11.2 52.16 0.237 7.93 23.14 11.03
5/7/2021 11:00:00 PM 11.2 52.16 0.238 7.93 19.92 11.02
5/7/2021 11:15:00 PM 11.19 52.142 0.238 7.93 22.22 11.02
5/7/2021 11:30:00 PM 11.18 52.124 0.238 7.93 20.6 11.02
5/7/2021 11:45:00 PM 11.17 52.106 0.238 7.93 22.82 11.01
5/8/2021 12:00:00 AM 11.17 52.106 0.238 7.92 26.85 11
5/8/2021 12:15:00 AM 11.16 52.088 0.238 7.92 27.27 10.99
5/8/2021 12:30:00 AM 11.15 52.07 0.239 7.93 20.93 11
5/8/2021 12:45:00 AM 11.12 52.016 0.239 7.92 21.83 10.99
5/8/2021 1:00:00 AM 11.11 51.998 0.239 7.93 24.12 10.98
5/8/2021 1:15:00 AM 11.08 51.944 0.239 7.92 22.41 10.98
5/8/2021 1:30:00 AM 11.05 51.89 0.239 7.92 24.03 10.98
5/8/2021 1:45:00 AM 11.01 51.818 0.239 7.92 27.18 10.97
5/8/2021 2:00:00 AM 10.96 51.728 0.239 7.91 28.86 10.97
5/8/2021 2:15:00 AM 10.92 51.656 0.239 7.91 26 10.96
5/8/2021 2:30:00 AM 10.88 51.584 0.239 7.9 31.57 10.96
5/8/2021 2:45:00 AM 10.85 51.53 0.238 7.91 30.84 10.95
5/8/2021 3:00:00 AM 10.82 51.476 0.238 7.91 25.83 10.94
5/8/2021 3:15:00 AM 10.8 51.44 0.237 7.9 28.07 10.93
5/8/2021 3:30:00 AM 10.76 51.368 0.238 7.89 28.41 10.92
5/8/2021 3:45:00 AM 10.73 51.314 0.237 7.9 26.81 10.9
5/8/2021 4:00:00 AM 10.71 51.278 0.237 7.89 24.9 10.89
5/8/2021 4:15:00 AM 10.67 51.206 0.236 7.89 31.89 10.88
5/8/2021 4:30:00 AM 10.64 51.152 0.236 7.88 33.14 10.87
5/8/2021 4:45:00 AM 10.61 51.098 0.236 7.88 28.5 10.87
5/8/2021 5:00:00 AM 10.59 51.062 0.236 7.86 26.21 10.86
5/8/2021 5:15:00 AM 10.58 51.044 0.236 7.87 26.59 10.85
5/8/2021 5:30:00 AM 10.56 51.008 0.235 7.86 26.01 10.85
5/8/2021 5:45:00 AM 10.54 50.972 0.235 7.87 25.71 10.84
5/8/2021 6:00:00 AM 10.52 50.936 0.234 7.86 25.31 10.84
5/8/2021 6:15:00 AM 10.51 50.918 0.234 7.85 25.82 10.84
5/8/2021 6:30:00 AM 10.49 50.882 0.234 7.85 24.9 10.84
5/8/2021 6:45:00 AM 10.48 50.864 0.233 7.85 22.95 10.84
5/8/2021 7:00:00 AM 10.47 50.846 0.233 7.85 25.7 10.84
5/8/2021 7:15:00 AM 10.47 50.846 0.234 7.84 29.84 10.84
5/8/2021 7:30:00 AM 10.46 50.828 0.234 7.85 24.82 10.84
5/8/2021 7:45:00 AM 10.46 50.828 0.234 7.84 23.41 10.84
5/8/2021 8:00:00 AM 10.45 50.81 0.235 7.84 26.88 10.85
5/8/2021 8:15:00 AM 10.44 50.792 0.235 7.84 24.91 10.86
5/8/2021 8:30:00 AM 10.43 50.774 0.235 7.84 24.83 10.87
5/8/2021 8:45:00 AM 10.42 50.756 0.235 7.84 27.05 10.88
5/8/2021 9:00:00 AM 10.4 50.72 0.235 7.84 29.75 10.88
5/8/2021 9:15:00 AM 10.39 50.702 0.234 7.84 26.43 10.89
5/8/2021 9:30:00 AM 10.37 50.666 0.234 7.84 23.45 10.9
5/8/2021 9:45:00 AM 10.35 50.63 0.234 7.84 25.82 10.91
5/8/2021 10:00:00 AM 10.34 50.612 0.233 7.84 20.68 10.93
5/8/2021 10:15:00 AM 10.32 50.576 0.232 7.83 24.99 10.93
5/8/2021 10:30:00 AM 10.3 50.54 0.231 7.83 25.98 10.94
5/8/2021 10:45:00 AM 10.29 50.522 0.231 7.83 24.69 10.95
5/8/2021 11:00:00 AM 10.27 50.486 0.23 7.83 25.12 10.96
5/8/2021 11:15:00 AM 10.27 50.486 0.229 7.84 26.83 10.97
5/8/2021 11:30:00 AM 10.28 50.504 0.228 7.84 31.47 10.99
5/8/2021 11:45:00 AM 10.3 50.54 0.228 7.84 22.72 11.01
5/8/2021 12:00:00 PM 10.3 50.54 0.227 7.85 21.42 11.03
5/8/2021 12:15:00 PM 10.3 50.54 0.227 7.85 22.77 11.05
5/8/2021 12:30:00 PM 10.31 50.558 0.227 7.85 22.52 11.06
5/8/2021 12:45:00 PM 10.31 50.558 0.226 7.84 20.17 11.08
5/8/2021 1:00:00 PM 10.33 50.594 0.225 7.85 25.16 11.11
5/8/2021 1:15:00 PM 10.35 50.63 0.225 7.85 20.84 11.12
5/8/2021 1:30:00 PM 10.35 50.63 0.224 7.84 22.11 11.14
5/8/2021 1:45:00 PM 10.35 50.63 0.223 7.86 21.79 11.16
5/8/2021 2:00:00 PM 10.35 50.63 0.223 7.85 20.42 11.17
5/8/2021 2:15:00 PM 10.35 50.63 0.222 7.86 21.56 11.18
5/8/2021 2:30:00 PM 10.36 50.648 0.222 7.86 20.46 11.2
5/8/2021 2:45:00 PM 10.38 50.684 0.222 7.86 21.44 11.22
5/8/2021 3:00:00 PM 10.4 50.72 0.221 7.86 18.24 11.25
5/8/2021 3:15:00 PM 10.39 50.702 0.221 7.86 25.24 11.25
5/8/2021 3:30:00 PM 10.41 50.738 0.22 7.86 21.48 11.27
5/8/2021 3:45:00 PM 10.43 50.774 0.22 7.87 19.52 11.28
5/8/2021 4:00:00 PM 10.48 50.864 0.22 7.86 22.54 11.3
5/8/2021 4:15:00 PM 10.52 50.936 0.22 7.88 20.78 11.31
5/8/2021 4:30:00 PM 10.51 50.918 0.22 7.88 23.41 11.32
5/8/2021 4:45:00 PM 10.53 50.954 0.219 7.88 21.3 11.34
5/8/2021 5:00:00 PM 10.54 50.972 0.219 7.89 20.32 11.35
5/8/2021 5:15:00 PM 10.54 50.972 0.219 7.9 19.65 11.37
5/8/2021 5:30:00 PM 10.56 51.008 0.219 7.89 26.27 11.37
5/8/2021 5:45:00 PM 10.57 51.026 0.219 7.89 20.99 11.39
5/8/2021 6:00:00 PM 10.56 51.008 0.218 7.9 19.05 11.4
5/8/2021 6:15:00 PM 10.57 51.026 0.218 7.9 19.83 11.41
5/8/2021 6:30:00 PM 10.6 51.08 0.218 7.92 24.18 11.43
5/8/2021 6:45:00 PM 10.61 51.098 0.218 7.91 26.43 11.43
5/8/2021 7:00:00 PM 10.63 51.134 0.218 7.92 23.41 11.45
5/8/2021 7:15:00 PM 10.63 51.134 0.218 7.91 20.55 11.44
5/8/2021 7:30:00 PM 10.62 51.116 0.218 7.91 23.55 11.45
5/8/2021 7:45:00 PM 10.61 51.098 0.218 7.92 24.41 11.44
5/8/2021 8:00:00 PM 10.6 51.08 0.218 7.93 19.9 11.44
5/8/2021 8:15:00 PM 10.6 51.08 0.218 7.93 23.37 11.43
5/8/2021 8:30:00 PM 10.6 51.08 0.218 7.92 27.24 11.43
5/8/2021 8:45:00 PM 10.59 51.062 0.218 7.93 20.15 11.42
5/8/2021 9:00:00 PM 10.58 51.044 0.218 7.92 20.67 11.41
5/8/2021 9:15:00 PM 10.57 51.026 0.218 7.92 21.14 11.4
5/8/2021 9:30:00 PM 10.56 51.008 0.218 7.92 23.34 11.39
5/8/2021 9:45:00 PM 10.56 51.008 0.218 7.92 23.07 11.39
5/8/2021 10:00:00 PM 10.55 50.99 0.217 7.91 28.59 11.38
5/8/2021 10:15:00 PM 10.55 50.99 0.216 7.92 23.38 11.37
5/8/2021 10:30:00 PM 10.56 51.008 0.215 7.92 24.07 11.36
5/8/2021 10:45:00 PM 10.56 51.008 0.215 7.91 22.58 11.35
5/8/2021 11:00:00 PM 10.56 51.008 0.214 7.9 23.85 11.34
5/8/2021 11:15:00 PM 10.56 51.008 0.212 7.9 26.15 11.33
5/8/2021 11:30:00 PM 10.56 51.008 0.212 7.9 23.79 11.32
5/8/2021 11:45:00 PM 10.54 50.972 0.21 7.9 22.89 11.31
5/9/2021 12:00:00 AM 10.53 50.954 0.209 7.9 24.37 11.3
5/9/2021 12:15:00 AM 10.51 50.918 0.208 7.89 23.72 11.3
5/9/2021 12:30:00 AM 10.49 50.882 0.207 7.9 24.6 11.29
5/9/2021 12:45:00 AM 10.48 50.864 0.206 7.89 22.79 11.28
5/9/2021 1:00:00 AM 10.47 50.846 0.206 7.88 23.9 11.27
5/9/2021 1:15:00 AM 10.48 50.864 0.205 7.88 23.68 11.27
5/9/2021 1:30:00 AM 10.47 50.846 0.205 7.88 25.58 11.25
5/9/2021 1:45:00 AM 10.46 50.828 0.205 7.87 24.32 11.24
5/9/2021 2:00:00 AM 10.45 50.81 0.204 7.87 23.07 11.23
5/9/2021 2:15:00 AM 10.44 50.792 0.204 7.86 22.82 11.22
5/9/2021 2:30:00 AM 10.43 50.774 0.203 7.85 23.89 11.22
5/9/2021 2:45:00 AM 10.41 50.738 0.203 7.86 23.19 11.2
5/9/2021 3:00:00 AM 10.39 50.702 0.203 7.85 25.83 11.2
5/9/2021 3:15:00 AM 10.38 50.684 0.203 7.85 22.25 11.19
5/9/2021 3:30:00 AM 10.35 50.63 0.203 7.84 25.22 11.17
5/9/2021 3:45:00 AM 10.33 50.594 0.203 7.84 23.13 11.16
5/9/2021 4:00:00 AM 10.31 50.558 0.203 7.83 23.91 11.16
5/9/2021 4:15:00 AM 10.29 50.522 0.202 7.83 21.41 11.15
5/9/2021 4:30:00 AM 10.26 50.468 0.202 7.82 22.85 11.14
5/9/2021 4:45:00 AM 10.24 50.432 0.202 7.83 21.59 11.14
5/9/2021 5:00:00 AM 10.21 50.378 0.202 7.81 21.49 11.12
5/9/2021 5:15:00 AM 10.18 50.324 0.202 7.82 20.22 11.12
5/9/2021 5:30:00 AM 10.15 50.27 0.202 7.81 22.37 11.11
5/9/2021 5:45:00 AM 10.12 50.216 0.203 7.81 19.34 11.1
5/9/2021 6:00:00 AM 10.08 50.144 0.203 7.8 21.4 11.09
5/9/2021 6:15:00 AM 10.05 50.09 0.203 7.81 21.29 11.08
5/9/2021 6:30:00 AM 10.02 50.036 0.204 7.79 24.67 11.09
5/9/2021 6:45:00 AM 10 50 0.204 7.81 19.51 11.09
5/9/2021 7:00:00 AM 9.98 49.964 0.205 7.8 19.33 11.09
5/9/2021 7:15:00 AM 9.96 49.928 0.205 7.8 20.18 11.11
5/9/2021 7:30:00 AM 9.96 49.928 0.205 7.81 19.89 11.11
5/9/2021 7:45:00 AM 9.95 49.91 0.205 7.8 23.24 11.13
5/9/2021 8:00:00 AM 9.96 49.928 0.206 7.81 23.81 11.14
5/9/2021 8:15:00 AM 9.98 49.964 0.205 7.81 20.98 11.17
5/9/2021 8:30:00 AM 10 50 0.206 7.82 20.78 11.19
5/9/2021 8:45:00 AM 10.02 50.036 0.206 7.82 20.63 11.21
5/9/2021 9:00:00 AM 10.05 50.09 0.206 7.82 22.03 11.24
5/9/2021 9:15:00 AM 10.09 50.162 0.206 7.83 20.02 11.26
5/9/2021 9:30:00 AM 10.11 50.198 0.206 7.82 19.98 11.3
5/9/2021 9:45:00 AM 10.13 50.234 0.206 7.83 19.7 11.32
5/9/2021 10:00:00 AM 10.15 50.27 0.206 7.83 23.57 11.33
5/9/2021 10:15:00 AM 10.16 50.288 0.206 7.85 18.28 11.36
5/9/2021 10:30:00 AM 10.18 50.324 0.206 7.84 21.14 11.38
5/9/2021 10:45:00 AM 10.21 50.378 0.205 7.84 17.82 11.4
5/9/2021 11:00:00 AM 10.23 50.414 0.205 7.84 21.93 11.43
5/9/2021 11:15:00 AM 10.25 50.45 0.205 7.86 17.14 11.44
5/9/2021 11:30:00 AM 10.28 50.504 0.206 7.86 19.06 11.46
5/9/2021 11:45:00 AM 10.3 50.54 0.206 7.87 17.9 11.48
5/9/2021 12:00:00 PM 10.32 50.576 0.206 7.88 19.12 11.49
5/9/2021 12:15:00 PM 10.33 50.594 0.206 7.87 20.27 11.51
5/9/2021 12:30:00 PM 10.34 50.612 0.206 7.87 20.2 11.52
5/9/2021 12:45:00 PM 10.35 50.63 0.206 7.88 20.71 11.53
5/9/2021 1:00:00 PM 10.35 50.63 0.206 7.87 19.44 11.54
5/9/2021 1:15:00 PM 10.36 50.648 0.206 7.88 19 11.55
5/9/2021 1:30:00 PM 10.34 50.612 0.206 7.89 19.44 11.56
5/9/2021 1:45:00 PM 10.32 50.576 0.206 7.88 17.78 11.57
5/9/2021 2:00:00 PM 10.31 50.558 0.206 7.89 17.24 11.57
5/9/2021 2:15:00 PM 10.29 50.522 0.206 7.89 19.27 11.59
5/9/2021 2:30:00 PM 10.28 50.504 0.206 7.88 17.41 11.6
5/9/2021 2:45:00 PM 10.26 50.468 0.206 7.9 17.38 11.62
5/9/2021 3:00:00 PM 10.25 50.45 0.206 7.89 16.95 11.63
5/9/2021 3:15:00 PM 10.23 50.414 0.207 7.9 18.25 11.63
5/9/2021 3:30:00 PM 10.21 50.378 0.207 7.9 16.85 11.64
5/9/2021 3:45:00 PM 10.2 50.36 0.207 7.9 17.67 11.65
5/9/2021 4:00:00 PM 10.18 50.324 0.207 7.9 18.23 11.68
5/9/2021 4:15:00 PM 10.17 50.306 0.207 7.91 20.51 11.69
5/9/2021 4:30:00 PM 10.15 50.27 0.207 7.91 18.02 11.69
5/9/2021 4:45:00 PM 10.13 50.234 0.208 7.91 18.24 11.7
5/9/2021 5:00:00 PM 10.11 50.198 0.208 7.9 18.49 11.69
5/9/2021 5:15:00 PM 10.09 50.162 0.208 7.91 15.71 11.7
5/9/2021 5:30:00 PM 10.07 50.126 0.208 7.91 16.56 11.71
5/9/2021 5:45:00 PM 10.05 50.09 0.208 7.91 15.72 11.7
5/9/2021 6:00:00 PM 10.03 50.054 0.208 7.92 17.53 11.7
5/9/2021 6:15:00 PM 10.01 50.018 0.209 7.92 18.57 11.71
5/9/2021 6:30:00 PM 9.99 49.982 0.209 7.92 17.58 11.7
5/9/2021 6:45:00 PM 9.97 49.946 0.209 7.92 19.11 11.7
5/9/2021 7:00:00 PM 9.93 49.874 0.209 7.92 21.38 11.7
5/9/2021 7:15:00 PM 9.9 49.82 0.209 7.91 21.67 11.69
5/9/2021 7:30:00 PM 9.85 49.73 0.209 7.91 35.56 11.67
5/9/2021 7:45:00 PM 9.82 49.676 0.208 7.91 37.64 11.67
5/9/2021 8:00:00 PM 9.78 49.604 0.208 7.91 27.25 11.67
5/9/2021 8:15:00 PM 9.75 49.55 0.208 7.91 30.68 11.66
5/9/2021 8:30:00 PM 9.73 49.514 0.207 7.9 32.47 11.65
5/9/2021 8:45:00 PM 9.69 49.442 0.207 7.89 28.61 11.64
5/9/2021 9:00:00 PM 9.67 49.406 0.206 7.9 48.16 11.64
5/9/2021 9:15:00 PM 9.66 49.388 0.206 7.9 33.01 11.63
5/9/2021 9:30:00 PM 9.64 49.352 0.205 7.89 23.2 11.63
5/9/2021 9:45:00 PM 9.63 49.334 0.204 7.89 26.02 11.62
5/9/2021 10:00:00 PM 9.62 49.316 0.204 7.88 32.15 11.62
5/9/2021 10:15:00 PM 9.6 49.28 0.203 7.88 26.91 11.61
5/9/2021 10:30:00 PM 9.58 49.244 0.202 7.88 26.32 11.61
5/9/2021 10:45:00 PM 9.57 49.226 0.202 7.89 29.19 11.6
5/9/2021 11:00:00 PM 9.55 49.19 0.201 7.88 26.82 11.6
5/9/2021 11:15:00 PM 9.53 49.154 0.201 7.87 31.22 11.59
5/9/2021 11:30:00 PM 9.51 49.118 0.201 7.87 30.81 11.59
5/9/2021 11:45:00 PM 9.49 49.082 0.2 7.85 26.46 11.6
5/10/2021 12:00:00 AM 9.47 49.046 0.2 7.86 29.28 11.59
5/10/2021 12:15:00 AM 9.45 49.01 0.199 7.86 32.8 11.59
5/10/2021 12:30:00 AM 9.42 48.956 0.199 7.85 30.64 11.59
5/10/2021 12:45:00 AM 9.39 48.902 0.199 7.86 34.68 11.59
5/10/2021 1:00:00 AM 9.38 48.884 0.198 7.87 35.93 11.59
5/10/2021 1:15:00 AM 9.33 48.794 0.197 7.84 38.67 11.59
5/10/2021 1:30:00 AM 9.32 48.776 0.197 7.84 34.98 11.58
5/10/2021 1:45:00 AM 9.3 48.74 0.197 7.85 36.11 11.57
5/10/2021 2:00:00 AM 9.28 48.704 0.197 7.83 40.51 11.56
5/10/2021 2:15:00 AM 9.26 48.668 0.196 7.84 42.92 11.54
5/10/2021 2:30:00 AM 9.25 48.65 0.195 7.82 43.44 11.53
5/10/2021 2:45:00 AM 9.24 48.632 0.195 7.84 45.41 11.51
5/10/2021 3:00:00 AM 9.22 48.596 0.194 7.82 43.61 11.5
5/10/2021 3:15:00 AM 9.21 48.578 0.194 7.82 43.91 11.49
5/10/2021 3:30:00 AM 9.2 48.56 0.193 7.81 42.73 11.47
5/10/2021 3:45:00 AM 9.19 48.542 0.193 7.81 37.52 11.46
5/10/2021 4:00:00 AM 9.18 48.524 0.192 7.81 40.92 11.46
5/10/2021 4:15:00 AM 9.17 48.506 0.191 7.79 38.98 11.45
5/10/2021 4:30:00 AM 9.13 48.434 0.19 7.79 46.53 11.46
5/10/2021 4:45:00 AM 9.1 48.38 0.189 7.79 46.6 11.47
5/10/2021 5:00:00 AM 9.06 48.308 0.188 7.78 55.53 11.48
5/10/2021 5:15:00 AM 9.02 48.236 0.186 7.78 54.59 11.49
5/10/2021 5:30:00 AM 8.97 48.146 0.185 7.77 64.35 11.5
5/10/2021 5:45:00 AM 8.92 48.056 0.183 7.77 60.06 11.5
5/10/2021 6:00:00 AM 8.86 47.948 0.182 7.69 43.83 11.51
5/10/2021 6:15:00 AM 8.8 47.84 0.181 7.73 68.95 11.51
5/10/2021 6:30:00 AM 8.75 47.75 0.18 7.74 67.44 11.5
5/10/2021 6:45:00 AM 8.7 47.66 0.179 7.74 77.44 11.49
5/10/2021 7:00:00 AM 8.65 47.57 0.178 7.74 72.16 11.5
5/10/2021 7:15:00 AM 8.6 47.48 0.177 7.74 67.47 11.51
5/10/2021 7:30:00 AM 8.56 47.408 0.176 7.73 63.45 11.53
5/10/2021 7:45:00 AM 8.51 47.318 0.174 7.72 71.83 11.54
5/10/2021 8:00:00 AM 8.47 47.246 0.173 7.72 78.47 11.57
5/10/2021 8:15:00 AM 8.44 47.192 0.172 7.72 88.15 11.59
5/10/2021 8:30:00 AM 8.41 47.138 0.171 7.73 63.64 11.61
5/10/2021 8:45:00 AM 8.38 47.084 0.17 7.73 93.2 11.62
5/10/2021 9:00:00 AM 8.36 47.048 0.17 7.73 71.56 11.64
5/10/2021 9:15:00 AM 8.34 47.012 0.168 7.71 99.35 11.64
5/10/2021 9:30:00 AM 8.33 46.994 0.168 7.71 87.6 11.65
5/10/2021 9:45:00 AM 8.34 47.012 0.167 7.72 75.91 11.66
5/10/2021 10:00:00 AM 8.39 47.102 0.166 7.71 77.85 11.66
5/10/2021 10:15:00 AM 8.43 47.174 0.165 7.71 74.78 11.66
5/10/2021 10:30:00 AM 8.48 47.264 0.165 7.7 81.82 11.66
5/10/2021 10:45:00 AM 8.54 47.372 0.165 7.69 97.54 11.65
5/10/2021 11:00:00 AM 8.6 47.48 0.167 7.7 105.88 11.64
5/10/2021 11:15:00 AM 8.66 47.588 0.171 7.68 95.41 11.64
5/10/2021 11:30:00 AM 8.71 47.678 0.175 7.68 81.76 11.64
5/10/2021 11:45:00 AM 8.78 47.804 0.18 7.68 75.66 11.62
5/10/2021 12:00:00 PM 8.84 47.912 0.185 7.68 80.26 11.62
5/10/2021 12:15:00 PM 8.87 47.966 0.189 7.69 62.48 11.62
5/10/2021 12:30:00 PM 8.92 48.056 0.191 7.69 60.49 11.61
5/10/2021 12:45:00 PM 8.99 48.182 0.194 7.69 71.22 11.61
5/10/2021 1:00:00 PM 9.1 48.38 0.195 7.69 66.94 11.6
5/10/2021 1:15:00 PM 9.17 48.506 0.196 7.68 51.21 11.6
5/10/2021 1:30:00 PM 9.15 48.47 0.197 7.68 62.21 11.6
5/10/2021 1:45:00 PM 9.18 48.524 0.197 7.68 56.82 11.61
5/10/2021 2:00:00 PM 9.23 48.614 0.197 7.69 65.26 11.61
5/10/2021 2:15:00 PM 9.32 48.776 0.197 7.69 78.42 11.62
5/10/2021 2:30:00 PM 9.43 48.974 0.197 7.69 49.55 11.63
5/10/2021 2:45:00 PM 9.48 49.064 0.197 7.69 59.93 11.63
5/10/2021 3:00:00 PM 9.52 49.136 0.197 7.69 61.21 11.64
5/10/2021 3:15:00 PM 9.57 49.226 0.197 7.7 57.4 11.65
5/10/2021 3:30:00 PM 9.65 49.37 0.197 7.69 61.91 11.65
5/10/2021 3:45:00 PM 9.69 49.442 0.197 7.68 68.81 11.64
5/10/2021 4:00:00 PM 9.73 49.514 0.197 7.69 50.26 11.64
5/10/2021 4:15:00 PM 9.81 49.658 0.196 7.7 59.94 11.63
5/10/2021 4:30:00 PM 9.85 49.73 0.196 7.69 59.33 11.62
5/10/2021 4:45:00 PM 9.89 49.802 0.195 7.7 52.78 11.61
5/10/2021 5:00:00 PM 9.95 49.91 0.194 7.7 53.87 11.59
5/10/2021 5:15:00 PM 10 50 0.194 7.71 53.19 11.58
5/10/2021 5:30:00 PM 10.06 50.108 0.194 7.69 57.74 11.57
5/10/2021 5:45:00 PM 10.11 50.198 0.193 7.71 52.57 11.55
5/10/2021 6:00:00 PM 10.18 50.324 0.193 7.7 47.58 11.53
5/10/2021 6:15:00 PM 10.26 50.468 0.192 7.7 51.92 11.53
5/10/2021 6:30:00 PM 10.33 50.594 0.192 7.7 61.74 11.54
5/10/2021 6:45:00 PM 10.4 50.72 0.192 7.71 66.49 11.54
5/10/2021 7:00:00 PM 10.45 50.81 0.191 7.72 66.69 11.54
5/10/2021 7:15:00 PM 10.5 50.9 0.191 7.7 61.95 11.55
5/10/2021 7:30:00 PM 10.54 50.972 0.19 7.7 59 11.56
5/10/2021 7:45:00 PM 10.58 51.044 0.19 7.7 63.32 11.56
5/10/2021 8:00:00 PM 10.6 51.08 0.19 7.71 54.97 11.55
5/10/2021 8:15:00 PM 10.6 51.08 0.19 7.7 60.55 11.55
5/10/2021 8:30:00 PM 10.61 51.098 0.19 7.71 72.41 11.55
5/10/2021 8:45:00 PM 10.6 51.08 0.19 7.71 66.15 11.55
5/10/2021 9:00:00 PM 10.6 51.08 0.19 7.71 66.84 11.54
5/10/2021 9:15:00 PM 10.59 51.062 0.19 7.71 65.6 11.54
5/10/2021 9:30:00 PM 10.6 51.08 0.19 7.7 60.28 11.54
5/10/2021 9:45:00 PM 10.59 51.062 0.19 7.71 53.98 11.53
5/10/2021 10:00:00 PM 10.59 51.062 0.19 7.72 56.04 11.53
5/10/2021 10:15:00 PM 10.58 51.044 0.19 7.72 55.32 11.52
5/10/2021 10:30:00 PM 10.58 51.044 0.19 7.71 55.83 11.51
5/10/2021 10:45:00 PM 10.56 51.008 0.19 7.69 50.14 11.5
5/10/2021 11:00:00 PM 10.55 50.99 0.191 7.71 58.4 11.49
5/10/2021 11:15:00 PM 10.52 50.936 0.191 7.71 56.28 11.48
5/10/2021 11:30:00 PM 10.5 50.9 0.191 7.71 56.86 11.48
5/10/2021 11:45:00 PM 10.48 50.864 0.191 7.71 55.02 11.47
5/11/2021 12:00:00 AM 10.46 50.828 0.191 7.71 55.2 11.46
5/11/2021 12:15:00 AM 10.43 50.774 0.191 7.71 66.44 11.45
5/11/2021 12:30:00 AM 10.41 50.738 0.191 7.71 58.26 11.44
5/11/2021 12:45:00 AM 10.38 50.684 0.191 7.7 58.12 11.44
5/11/2021 1:00:00 AM 10.36 50.648 0.191 7.7 58.07 11.43
5/11/2021 1:15:00 AM 10.35 50.63 0.191 7.7 51.48 11.42
5/11/2021 1:30:00 AM 10.32 50.576 0.191 7.7 60.9 11.41
5/11/2021 1:45:00 AM 10.3 50.54 0.192 7.7 58.95 11.4
5/11/2021 2:00:00 AM 10.28 50.504 0.192 7.7 58.38 11.4
5/11/2021 2:15:00 AM 10.26 50.468 0.192 7.7 53.25 11.39
5/11/2021 2:30:00 AM 10.23 50.414 0.192 7.7 56.11 11.38
5/11/2021 2:45:00 AM 10.21 50.378 0.191 7.7 61.24 11.37
5/11/2021 3:00:00 AM 10.18 50.324 0.191 7.7 56.2 11.38
5/11/2021 3:15:00 AM 10.15 50.27 0.191 7.69 55.28 11.36
5/11/2021 3:30:00 AM 10.12 50.216 0.19 7.7 45 11.37
5/11/2021 3:45:00 AM 10.09 50.162 0.19 7.69 51.11 11.37
5/11/2021 4:00:00 AM 10.05 50.09 0.189 7.7 59.63 11.37
5/11/2021 4:15:00 AM 10.02 50.036 0.189 7.69 58.22 11.37
5/11/2021 4:30:00 AM 9.98 49.964 0.189 7.69 64.05 11.37
5/11/2021 4:45:00 AM 9.94 49.892 0.189 7.69 66.53 11.39
5/11/2021 5:00:00 AM 9.9 49.82 0.189 7.68 67.22 11.4
5/11/2021 5:15:00 AM 9.85 49.73 0.189 7.69 55.47 11.41
5/11/2021 5:30:00 AM 9.81 49.658 0.189 7.69 68.92 11.43
5/11/2021 5:45:00 AM 9.76 49.568 0.188 7.7 53.07 11.44
5/11/2021 6:00:00 AM 9.72 49.496 0.188 7.7 47.67 11.45
5/11/2021 6:15:00 AM 9.67 49.406 0.188 7.68 53.47 11.46
5/11/2021 6:30:00 AM 9.63 49.334 0.188 7.68 55.03 11.46
5/11/2021 6:45:00 AM 9.59 49.262 0.188 7.68 55.56 11.48
5/11/2021 7:00:00 AM 9.56 49.208 0.188 7.68 46.2 11.49
5/11/2021 7:15:00 AM 9.53 49.154 0.187 7.68 50.31 11.49
5/11/2021 7:30:00 AM 9.51 49.118 0.187 7.68 57.57 11.5
5/11/2021 7:45:00 AM 9.5 49.1 0.187 7.68 76.41 11.51
5/11/2021 8:00:00 AM 9.49 49.082 0.187 7.68 64.14 11.52
5/11/2021 8:15:00 AM 9.48 49.064 0.187 7.68 79.46 11.53
5/11/2021 8:30:00 AM 9.49 49.082 0.186 7.68 55.2 11.54
5/11/2021 8:45:00 AM 9.51 49.118 0.186 7.68 58.2 11.55
5/11/2021 9:00:00 AM 9.53 49.154 0.186 7.68 50.87 11.55
5/11/2021 9:15:00 AM 9.55 49.19 0.186 7.67 56.93 11.56
5/11/2021 9:30:00 AM 9.58 49.244 0.186 7.69 50.33 11.57
5/11/2021 9:45:00 AM 9.59 49.262 0.185 7.68 51.12 11.58
5/11/2021 10:00:00 AM 9.62 49.316 0.185 7.68 46.13 11.58
5/11/2021 10:15:00 AM 9.65 49.37 0.185 7.68 56.51 11.58
5/11/2021 10:30:00 AM 9.65 49.37 0.185 7.68 53.74 11.58
5/11/2021 10:45:00 AM 9.63 49.334 0.185 7.67 52.78 11.58
5/11/2021 11:00:00 AM 9.66 49.388 0.185 7.68 64.7 11.58
5/11/2021 11:15:00 AM 9.71 49.478 0.184 7.68 70.27 11.58
5/11/2021 11:30:00 AM 9.77 49.586 0.184 7.68 53.27 11.57
5/11/2021 11:45:00 AM 9.78 49.604 0.183 7.68 63.71 11.57
5/11/2021 12:00:00 PM 9.78 49.604 0.183 7.69 53.15 11.58
5/11/2021 12:15:00 PM 9.82 49.676 0.183 7.68 55.53 11.57
5/11/2021 12:30:00 PM 9.89 49.802 0.183 7.68 51.94 11.57
5/11/2021 12:45:00 PM 9.96 49.928 0.183 7.68 60.36 11.59
5/11/2021 1:00:00 PM 9.98 49.964 0.183 7.69 47.02 11.58
5/11/2021 1:15:00 PM 10.02 50.036 0.183 7.69 58.9 11.6
5/11/2021 1:30:00 PM 10.01 50.018 0.183 7.68 58.31 11.59
5/11/2021 1:45:00 PM 9.98 49.964 0.183 7.69 51.03 11.6
5/11/2021 2:00:00 PM 10.01 50.018 0.183 7.69 59.62 11.61
5/11/2021 2:15:00 PM 10.07 50.126 0.183 7.69 50.21 11.63
5/11/2021 2:30:00 PM 10.09 50.162 0.183 7.7 48.25 11.64
5/11/2021 2:45:00 PM 10.11 50.198 0.183 7.68 49.34 11.64
5/11/2021 3:00:00 PM 10.11 50.198 0.183 7.71 49.57 11.66
5/11/2021 3:15:00 PM 10.11 50.198 0.183 7.7 46.86 11.66
5/11/2021 3:30:00 PM 10.14 50.252 0.183 7.69 45.82 11.67
5/11/2021 3:45:00 PM 10.16 50.288 0.183 7.7 51.24 11.67
5/11/2021 4:00:00 PM 10.17 50.306 0.183 7.71 47 11.67
5/11/2021 4:15:00 PM 10.17 50.306 0.183 7.71 47.72 11.68
5/11/2021 4:30:00 PM 10.17 50.306 0.184 7.7 45.35 11.68
5/11/2021 4:45:00 PM 10.21 50.378 0.183 7.71 40.24 11.67
5/11/2021 5:00:00 PM 10.23 50.414 0.184 7.7 40.16 11.67
5/11/2021 5:15:00 PM 10.26 50.468 0.184 7.73 42.62 11.66
5/11/2021 5:30:00 PM 10.3 50.54 0.184 7.72 44.42 11.65
5/11/2021 5:45:00 PM 10.31 50.558 0.184 7.71 39.79 11.65
5/11/2021 6:00:00 PM 10.32 50.576 0.185 7.72 44.26 11.64
5/11/2021 6:15:00 PM 10.34 50.612 0.186 7.71 41.25 11.63
5/11/2021 6:30:00 PM 10.35 50.63 0.186 7.73 36.44 11.62
5/11/2021 6:45:00 PM 10.35 50.63 0.187 7.72 38.07 11.62
5/11/2021 7:00:00 PM 10.34 50.612 0.187 7.72 35.37 11.61
5/11/2021 7:15:00 PM 10.35 50.63 0.188 7.73 41.53 11.59
5/11/2021 7:30:00 PM 10.36 50.648 0.189 7.73 40.69 11.6
5/11/2021 7:45:00 PM 10.36 50.648 0.189 7.73 37.31 11.59
5/11/2021 8:00:00 PM 10.36 50.648 0.19 7.73 34.93 11.58
5/11/2021 8:15:00 PM 10.37 50.666 0.191 7.73 37.75 11.57
5/11/2021 8:30:00 PM 10.37 50.666 0.191 7.73 37.88 11.57
5/11/2021 8:45:00 PM 10.38 50.684 0.192 7.74 37.11 11.56
5/11/2021 9:00:00 PM 10.4 50.72 0.193 7.74 35.14 11.55
5/11/2021 9:15:00 PM 10.41 50.738 0.194 7.74 33.95 11.55
5/11/2021 9:30:00 PM 10.43 50.774 0.194 7.73 34.06 11.54
5/11/2021 9:45:00 PM 10.43 50.774 0.195 7.75 34.84 11.54
5/11/2021 10:00:00 PM 10.43 50.774 0.196 7.75 33.39 11.52
5/11/2021 10:15:00 PM 10.43 50.774 0.197 7.74 30.57 11.52
5/11/2021 10:30:00 PM 10.42 50.756 0.199 7.74 33.77 11.5
5/11/2021 10:45:00 PM 10.4 50.72 0.2 7.73 32.67 11.5
5/11/2021 11:00:00 PM 10.39 50.702 0.201 7.75 33.13 11.5
5/11/2021 11:15:00 PM 10.37 50.666 0.202 7.75 34.67 11.48
5/11/2021 11:30:00 PM 10.36 50.648 0.203 7.75 32.15 11.49
5/11/2021 11:45:00 PM 10.34 50.612 0.203 7.76 31 11.48
5/12/2021 12:00:00 AM 10.32 50.576 0.203 7.76 31.89 11.47
5/12/2021 12:15:00 AM 10.3 50.54 0.202 7.76 34.5 11.46
5/12/2021 12:30:00 AM 10.29 50.522 0.2 7.76 31.61 11.45
5/12/2021 12:45:00 AM 10.27 50.486 0.198 7.77 31.82 11.44
5/12/2021 1:00:00 AM 10.26 50.468 0.196 7.76 30.77 11.43
5/12/2021 1:15:00 AM 10.25 50.45 0.193 7.76 30.22 11.42
5/12/2021 1:30:00 AM 10.23 50.414 0.191 7.77 28.94 11.41
5/12/2021 1:45:00 AM 10.23 50.414 0.19 7.77 33.42 11.4
5/12/2021 2:00:00 AM 10.21 50.378 0.188 7.77 32.07 11.39
5/12/2021 2:15:00 AM 10.21 50.378 0.187 7.76 29.43 11.38
5/12/2021 2:30:00 AM 10.2 50.36 0.186 7.76 33.81 11.36
5/12/2021 2:45:00 AM 10.18 50.324 0.185 7.77 29.84 11.36
5/12/2021 3:00:00 AM 10.17 50.306 0.184 7.76 28.2 11.33
5/12/2021 3:15:00 AM 10.16 50.288 0.184 7.75 29.35 11.33
5/12/2021 3:30:00 AM 10.14 50.252 0.183 7.78 30.94 11.32
5/12/2021 3:45:00 AM 10.13 50.234 0.183 7.76 29.36 11.31
5/12/2021 4:00:00 AM 10.11 50.198 0.182 7.75 33.64 11.29
5/12/2021 4:15:00 AM 10.1 50.18 0.182 7.76 28.52 11.3
5/12/2021 4:30:00 AM 10.08 50.144 0.182 7.75 28.04 11.28
5/12/2021 4:45:00 AM 10.06 50.108 0.182 7.75 29 11.28
5/12/2021 5:00:00 AM 10.03 50.054 0.182 7.76 27.39 11.27
5/12/2021 5:15:00 AM 10.01 50.018 0.182 7.75 29.25 11.28
5/12/2021 5:30:00 AM 9.97 49.946 0.182 7.75 28.51 11.27
5/12/2021 5:45:00 AM 9.93 49.874 0.182 7.75 29.98 11.26
5/12/2021 6:00:00 AM 9.89 49.802 0.182 7.75 27.75 11.27
5/12/2021 6:15:00 AM 9.85 49.73 0.182 7.75 28.82 11.27
5/12/2021 6:30:00 AM 9.82 49.676 0.182 7.73 30.09 11.28
5/12/2021 6:45:00 AM 9.78 49.604 0.181 7.73 28.45 11.29
5/12/2021 7:00:00 AM 9.75 49.55 0.181 7.74 34.25 11.3
5/12/2021 7:15:00 AM 9.72 49.496 0.181 7.75 26.45 11.3
5/12/2021 7:30:00 AM 9.69 49.442 0.182 7.74 26.23 11.32
5/12/2021 7:45:00 AM 9.68 49.424 0.181 7.74 28.11 11.33
5/12/2021 8:00:00 AM 9.67 49.406 0.182 7.75 27.44 11.35
5/12/2021 8:15:00 AM 9.67 49.406 0.181 7.73 30.04 11.35
5/12/2021 8:30:00 AM 9.69 49.442 0.181 7.75 23.88 11.37
5/12/2021 8:45:00 AM 9.71 49.478 0.181 7.75 26.31 11.37
5/12/2021 9:00:00 AM 9.75 49.55 0.181 7.74 25.93 11.39
5/12/2021 9:15:00 AM 9.79 49.622 0.181 7.75 25.58 11.39
5/12/2021 9:30:00 AM 9.83 49.694 0.181 7.74 25.43 11.41
5/12/2021 9:45:00 AM 9.87 49.766 0.181 7.75 25.85 11.43
5/12/2021 10:00:00 AM 9.93 49.874 0.182 7.75 26.52 11.44
5/12/2021 10:15:00 AM 9.98 49.964 0.182 7.76 21.34 11.48
5/12/2021 10:30:00 AM 10.04 50.072 0.182 7.74 22.42 11.5
5/12/2021 10:45:00 AM 10.07 50.126 0.182 7.76 24.56 11.51
5/12/2021 11:00:00 AM 10.12 50.216 0.182 7.75 24.18 11.54
5/12/2021 11:15:00 AM 10.17 50.306 0.182 7.76 22.42 11.55
5/12/2021 11:30:00 AM 10.26 50.468 0.182 7.75 24.53 11.55
5/12/2021 11:45:00 AM 10.3 50.54 0.182 7.76 22.28 11.54
5/12/2021 12:00:00 PM 10.39 50.702 0.182 7.77 24.16 11.54
5/12/2021 12:15:00 PM 10.49 50.882 0.182 7.77 24.37 11.56
5/12/2021 12:30:00 PM 10.49 50.882 0.182 7.76 24.75 11.55
5/12/2021 12:45:00 PM 10.47 50.846 0.182 7.77 23.87 11.55
5/12/2021 1:00:00 PM 10.5 50.9 0.182 7.77 24.59 11.55
5/12/2021 1:15:00 PM 10.55 50.99 0.182 7.78 24.01 11.57
5/12/2021 1:30:00 PM 10.57 51.026 0.182 7.77 23.91 11.57
5/12/2021 1:45:00 PM 10.56 51.008 0.182 7.78 25.78 11.58
5/12/2021 2:00:00 PM 10.56 51.008 0.182 7.78 25.94 11.6
5/12/2021 2:15:00 PM 10.58 51.044 0.182 7.78 24.05 11.61
5/12/2021 2:30:00 PM 10.66 51.188 0.182 7.79 18.53 11.63
5/12/2021 2:45:00 PM 10.73 51.314 0.182 7.79 23.17 11.64
5/12/2021 3:00:00 PM 10.79 51.422 0.183 7.79 23.97 11.63
5/12/2021 3:15:00 PM 10.84 51.512 0.183 7.79 33.08 11.63
5/12/2021 3:30:00 PM 10.87 51.566 0.183 7.8 26.13 11.63
5/12/2021 3:45:00 PM 10.9 51.62 0.183 7.78 24.4 11.62
5/12/2021 4:00:00 PM 10.94 51.692 0.184 7.81 27.08 11.62
5/12/2021 4:15:00 PM 10.99 51.782 0.184 7.79 28.46 11.63
5/12/2021 4:30:00 PM 10.99 51.782 0.184 7.81 24.7 11.63
5/12/2021 4:45:00 PM 10.98 51.764 0.185 7.82 22.16 11.63
5/12/2021 5:00:00 PM 10.99 51.782 0.185 7.81 22.24 11.62
5/12/2021 5:15:00 PM 11.01 51.818 0.185 7.82 23.39 11.63
5/12/2021 5:30:00 PM 11.05 51.89 0.186 7.83 26.84 11.63
5/12/2021 5:45:00 PM 11.07 51.926 0.187 7.81 22.22 11.63
5/12/2021 6:00:00 PM 11.09 51.962 0.187 7.82 25.77 11.63
5/12/2021 6:15:00 PM 11.12 52.016 0.188 7.83 22.53 11.61
5/12/2021 6:30:00 PM 11.14 52.052 0.188 7.83 25.12 11.61
5/12/2021 6:45:00 PM 11.16 52.088 0.189 7.83 23.18 11.62
5/12/2021 7:00:00 PM 11.17 52.106 0.189 7.83 19.68 11.61
5/12/2021 7:15:00 PM 11.19 52.142 0.19 7.83 21.8 11.6
5/12/2021 7:30:00 PM 11.19 52.142 0.19 7.83 23.12 11.6
5/12/2021 7:45:00 PM 11.19 52.142 0.191 7.83 21 11.58
5/12/2021 8:00:00 PM 11.2 52.16 0.191 7.85 23.82 11.56
5/12/2021 8:15:00 PM 11.19 52.142 0.192 7.84 20.88 11.56
5/12/2021 8:30:00 PM 11.18 52.124 0.193 7.83 22.94 11.54
5/12/2021 8:45:00 PM 11.16 52.088 0.193 7.84 23.18 11.53
5/12/2021 9:00:00 PM 11.14 52.052 0.194 7.84 25.77 11.51
5/12/2021 9:15:00 PM 11.13 52.034 0.194 7.84 22.71 11.5
5/12/2021 9:30:00 PM 11.13 52.034 0.194 7.84 22.59 11.49
5/12/2021 9:45:00 PM 11.1 51.98 0.195 7.84 28.64 11.47
5/12/2021 10:00:00 PM 11.08 51.944 0.195 7.84 23.54 11.45
5/12/2021 10:15:00 PM 11.05 51.89 0.196 7.83 29.56 11.43
5/12/2021 10:30:00 PM 11.02 51.836 0.196 7.84 23.82 11.42
5/12/2021 10:45:00 PM 11 51.8 0.197 7.84 21.95 11.41
5/12/2021 11:00:00 PM 10.99 51.782 0.197 7.84 21.4 11.4
5/12/2021 11:15:00 PM 10.98 51.764 0.197 7.83 25.37 11.38
5/12/2021 11:30:00 PM 10.97 51.746 0.198 7.84 22.47 11.37
5/12/2021 11:45:00 PM 10.97 51.746 0.198 7.84 25.23 11.36
5/13/2021 12:00:00 AM 10.97 51.746 0.198 7.84 21.86 11.34
5/13/2021 12:15:00 AM 10.99 51.782 0.199 7.85 27.86 11.34
5/13/2021 12:30:00 AM 10.99 51.782 0.199 7.85 22.52 11.32
5/13/2021 12:45:00 AM 11.01 51.818 0.199 7.85 21.61 11.31
5/13/2021 1:00:00 AM 11.02 51.836 0.199 7.85 21.94 11.3
5/13/2021 1:15:00 AM 11.02 51.836 0.2 7.84 21.86 11.28
5/13/2021 1:30:00 AM 11.03 51.854 0.2 7.84 21.92 11.25
5/13/2021 1:45:00 AM 11.03 51.854 0.201 7.84 21.22 11.26
5/13/2021 2:00:00 AM 11.02 51.836 0.201 7.85 24.4 11.25
5/13/2021 2:15:00 AM 11 51.8 0.201 7.84 22.52 11.24
5/13/2021 2:30:00 AM 10.98 51.764 0.201 7.85 19.88 11.22
5/13/2021 2:45:00 AM 10.97 51.746 0.201 7.85 21.59 11.22
5/13/2021 3:00:00 AM 10.95 51.71 0.202 7.84 28.1 11.2
5/13/2021 3:15:00 AM 10.92 51.656 0.202 7.84 22.86 11.18
5/13/2021 3:30:00 AM 10.89 51.602 0.202 7.85 32.01 11.18
5/13/2021 3:45:00 AM 10.87 51.566 0.202 7.84 21.07 11.17
5/13/2021 4:00:00 AM 10.84 51.512 0.202 7.83 20.12 11.16
5/13/2021 4:15:00 AM 10.81 51.458 0.202 7.82 22.52 11.14
5/13/2021 4:30:00 AM 10.78 51.404 0.202 7.83 20.88 11.12
5/13/2021 4:45:00 AM 10.75 51.35 0.202 7.83 21.57 11.11
5/13/2021 5:00:00 AM 10.72 51.296 0.202 7.82 21.23 11.1
5/13/2021 5:15:00 AM 10.69 51.242 0.202 7.82 21.32 11.09
5/13/2021 5:30:00 AM 10.66 51.188 0.202 7.81 20.46 11.07
5/13/2021 5:45:00 AM 10.63 51.134 0.202 7.8 27.69 11.07
5/13/2021 6:00:00 AM 10.6 51.08 0.202 7.81 20.03 11.06
5/13/2021 6:15:00 AM 10.57 51.026 0.202 7.8 24.2 11.05
5/13/2021 6:30:00 AM 10.53 50.954 0.202 7.8 20.04 11.05
5/13/2021 6:45:00 AM 10.5 50.9 0.202 7.81 21.26 11.05
5/13/2021 7:00:00 AM 10.48 50.864 0.203 7.8 19.98 11.06
5/13/2021 7:15:00 AM 10.45 50.81 0.203 7.8 19.67 11.06
5/13/2021 7:30:00 AM 10.44 50.792 0.203 7.8 19.54 11.07
5/13/2021 7:45:00 AM 10.43 50.774 0.202 7.8 20.32 11.09
5/13/2021 8:00:00 AM 10.43 50.774 0.202 7.8 18.44 11.11
5/13/2021 8:15:00 AM 10.43 50.774 0.203 7.8 19.13 11.12
5/13/2021 8:30:00 AM 10.45 50.81 0.203 7.81 19.05 11.14
5/13/2021 8:45:00 AM 10.48 50.864 0.203 7.82 21.94 11.17
5/13/2021 9:00:00 AM 10.52 50.936 0.203 7.8 18.77 11.19
5/13/2021 9:15:00 AM 10.58 51.044 0.203 7.81 18.11 11.22
5/13/2021 9:30:00 AM 10.64 51.152 0.203 7.82 19.35 11.26
5/13/2021 9:45:00 AM 10.7 51.26 0.203 7.82 18.14 11.29
5/13/2021 10:00:00 AM 10.75 51.35 0.202 7.83 18.55 11.3
5/13/2021 10:15:00 AM 10.81 51.458 0.202 7.81 19.14 11.34
5/13/2021 10:30:00 AM 10.88 51.584 0.202 7.83 19.67 11.34
5/13/2021 10:45:00 AM 10.95 51.71 0.202 7.84 18.67 11.36
5/13/2021 11:00:00 AM 11.02 51.836 0.203 7.85 19.19 11.37
5/13/2021 11:15:00 AM 11.1 51.98 0.203 7.84 19.81 11.39
5/13/2021 11:30:00 AM 11.18 52.124 0.203 7.85 17.85 11.41
5/13/2021 11:45:00 AM 11.22 52.196 0.203 7.84 17.89 11.44
5/13/2021 12:00:00 PM 11.26 52.268 0.203 7.85 18.74 11.45
5/13/2021 12:15:00 PM 11.29 52.322 0.203 7.85 18.35 11.47
5/13/2021 12:30:00 PM 11.31 52.358 0.203 7.85 19.64 11.48
5/13/2021 12:45:00 PM 11.33 52.394 0.202 7.85 17.77 11.5
5/13/2021 1:00:00 PM 11.38 52.484 0.202 7.86 17.32 11.51
5/13/2021 1:15:00 PM 11.42 52.556 0.202 7.86 16.82 11.51
5/13/2021 1:30:00 PM 11.42 52.556 0.202 7.87 19.73 11.51
5/13/2021 1:45:00 PM 11.41 52.538 0.202 7.85 18.01 11.53
5/13/2021 2:00:00 PM 11.44 52.592 0.203 7.87 17.98 11.53
5/13/2021 2:15:00 PM 11.51 52.718 0.203 7.87 17.28 11.54
5/13/2021 2:30:00 PM 11.53 52.754 0.203 7.88 16.8 11.55
5/13/2021 2:45:00 PM 11.53 52.754 0.203 7.87 16.26 11.57
5/13/2021 3:00:00 PM 11.52 52.736 0.203 7.87 17.73 11.57
5/13/2021 3:15:00 PM 11.52 52.736 0.203 7.88 17 11.57
5/13/2021 3:30:00 PM 11.52 52.736 0.203 7.88 20.41 11.58
5/13/2021 3:45:00 PM 11.55 52.79 0.203 7.88 16.99 11.59
5/13/2021 4:00:00 PM 11.57 52.826 0.203 7.88 17.78 11.6
5/13/2021 4:15:00 PM 11.59 52.862 0.203 7.9 18.08 11.61
5/13/2021 4:30:00 PM 11.56 52.808 0.204 7.89 17.61 11.61
5/13/2021 4:45:00 PM 11.54 52.772 0.204 7.89 16.93 11.61
5/13/2021 5:00:00 PM 11.5 52.7 0.204 7.91 16.58 11.6
5/13/2021 5:15:00 PM 11.47 52.646 0.204 7.9 17.9 11.61
5/13/2021 5:30:00 PM 11.5 52.7 0.204 7.89 17.39 11.61
5/13/2021 5:45:00 PM 11.53 52.754 0.204 7.9 18.7 11.61
5/13/2021 6:00:00 PM 11.58 52.844 0.204 7.9 17.03 11.62
5/13/2021 6:15:00 PM 11.61 52.898 0.205 7.91 17.68 11.63
5/13/2021 6:30:00 PM 11.64 52.952 0.205 7.92 19.29 11.63
5/13/2021 6:45:00 PM 11.65 52.97 0.205 7.92 16.83 11.63
5/13/2021 7:00:00 PM 11.65 52.97 0.205 7.91 16.15 11.62
5/13/2021 7:15:00 PM 11.66 52.988 0.205 7.93 17.83 11.62
5/13/2021 7:30:00 PM 11.68 53.024 0.206 7.93 16.16 11.61
5/13/2021 7:45:00 PM 11.68 53.024 0.206 7.93 15.95 11.59
5/13/2021 8:00:00 PM 11.69 53.042 0.206 7.93 17.66 11.58
5/13/2021 8:15:00 PM 11.7 53.06 0.206 7.93 16.29 11.56
5/13/2021 8:30:00 PM 11.7 53.06 0.207 7.93 18.85 11.54
5/13/2021 8:45:00 PM 11.7 53.06 0.207 7.92 17.12 11.52
5/13/2021 9:00:00 PM 11.69 53.042 0.207 7.92 17.26 11.5
5/13/2021 9:15:00 PM 11.66 52.988 0.207 7.91 17.18 11.47
5/13/2021 9:30:00 PM 11.63 52.934 0.208 7.91 16.94 11.44
5/13/2021 9:45:00 PM 11.61 52.898 0.208 7.9 21.31 11.43
5/13/2021 10:00:00 PM 11.58 52.844 0.208 7.91 17.67 11.41
5/13/2021 10:15:00 PM 11.55 52.79 0.209 7.91 16.85 11.39
5/13/2021 10:30:00 PM 11.53 52.754 0.209 7.91 17.34 11.37
5/13/2021 10:45:00 PM 11.51 52.718 0.209 7.89 17.93 11.35
5/13/2021 11:00:00 PM 11.5 52.7 0.209 7.9 19.95 11.35
5/13/2021 11:15:00 PM 11.49 52.682 0.209 7.9 16.55 11.33
5/13/2021 11:30:00 PM 11.48 52.664 0.21 7.9 16.83 11.31
5/13/2021 11:45:00 PM 11.47 52.646 0.21 7.89 17.14 11.29
5/14/2021 12:00:00 AM 11.47 52.646 0.21 7.9 17.7 11.29
5/14/2021 12:15:00 AM 11.45 52.61 0.211 7.9 17.19 11.27
5/14/2021 12:30:00 AM 11.44 52.592 0.211 7.89 18.95 11.26
5/14/2021 12:45:00 AM 11.43 52.574 0.211 7.89 18.06 11.24
5/14/2021 1:00:00 AM 11.42 52.556 0.211 7.89 17.59 11.23
5/14/2021 1:15:00 AM 11.4 52.52 0.211 7.89 18.09 11.21
5/14/2021 1:30:00 AM 11.39 52.502 0.212 7.88 16.92 11.21
5/14/2021 1:45:00 AM 11.38 52.484 0.212 7.88 17.5 11.19
5/14/2021 2:00:00 AM 11.38 52.484 0.212 7.88 17.11 11.18
5/14/2021 2:15:00 AM 11.38 52.484 0.213 7.89 17.69 11.17
5/14/2021 2:30:00 AM 11.38 52.484 0.213 7.89 17.74 11.16
5/14/2021 2:45:00 AM 11.38 52.484 0.213 7.88 17.29 11.15
5/14/2021 3:00:00 AM 11.38 52.484 0.213 7.88 17.67 11.13
5/14/2021 3:15:00 AM 11.38 52.484 0.214 7.88 17.24 11.12
5/14/2021 3:30:00 AM 11.37 52.466 0.214 7.89 16.62 11.09
5/14/2021 3:45:00 AM 11.36 52.448 0.214 7.89 17.76 11.08
5/14/2021 4:00:00 AM 11.35 52.43 0.214 7.88 17.48 11.05
5/14/2021 4:15:00 AM 11.35 52.43 0.215 7.88 16.03 11.04
5/14/2021 4:30:00 AM 11.33 52.394 0.215 7.87 18.39 11.03
5/14/2021 4:45:00 AM 11.32 52.376 0.215 7.87 18.07 11
5/14/2021 5:00:00 AM 11.3 52.34 0.216 7.88 16.91 10.97
5/14/2021 5:15:00 AM 11.28 52.304 0.216 7.87 17.01 10.97
5/14/2021 5:30:00 AM 11.25 52.25 0.216 7.86 18.93 10.95
5/14/2021 5:45:00 AM 11.23 52.214 0.216 7.86 17.32 10.93
5/14/2021 6:00:00 AM 11.2 52.16 0.216 7.85 18.96 10.91
5/14/2021 6:15:00 AM 11.18 52.124 0.216 7.85 16.61 10.91
5/14/2021 6:30:00 AM 11.16 52.088 0.216 7.84 16.7 10.88
5/14/2021 6:45:00 AM 11.14 52.052 0.216 7.84 14.13 10.89
5/14/2021 7:00:00 AM 11.13 52.034 0.216 7.84 17.39 10.88
5/14/2021 7:15:00 AM 11.14 52.052 0.216 7.84 16.16 10.89
5/14/2021 7:30:00 AM 11.14 52.052 0.217 7.84 16.63 10.89
5/14/2021 7:45:00 AM 11.16 52.088 0.217 7.85 15.56 10.91
5/14/2021 8:00:00 AM 11.19 52.142 0.217 7.84 15.58 10.93
5/14/2021 8:15:00 AM 11.22 52.196 0.217 7.85 16.54 10.94
5/14/2021 8:30:00 AM 11.26 52.268 0.217 7.86 16.39 10.98
5/14/2021 8:45:00 AM 11.31 52.358 0.217 7.85 15.32 11
5/14/2021 9:00:00 AM 11.38 52.484 0.217 7.86 14.91 11.03
5/14/2021 9:15:00 AM 11.45 52.61 0.217 7.87 17.91 11.06
5/14/2021 9:30:00 AM 11.54 52.772 0.217 7.87 16.37 11.08
5/14/2021 9:45:00 AM 11.62 52.916 0.217 7.88 14.76 11.09
5/14/2021 10:00:00 AM 11.7 53.06 0.217 7.89 15.25 11.12
5/14/2021 10:15:00 AM 11.78 53.204 0.217 7.89 16.14 11.15
5/14/2021 10:30:00 AM 11.86 53.348 0.217 7.89 16.26 11.2
5/14/2021 10:45:00 AM 11.95 53.51 0.217 7.9 15.26 11.23
5/14/2021 11:00:00 AM 12.03 53.654 0.217 7.91 16.08 11.23
5/14/2021 11:15:00 AM 12.12 53.816 0.217 7.92 14.71 11.24
5/14/2021 11:30:00 AM 12.21 53.978 0.217 7.92 14.89 11.27
5/14/2021 11:45:00 AM 12.31 54.158 0.217 7.92 15.28 11.31
5/14/2021 12:00:00 PM 12.4 54.32 0.217 7.93 15.2 11.33
5/14/2021 12:15:00 PM 12.5 54.5 0.217 7.95 13.55 11.36
5/14/2021 12:30:00 PM 12.49 54.482 0.218 7.94 14.22 11.36
5/14/2021 12:45:00 PM 12.42 54.356 0.218 7.94 26.05 11.36
5/14/2021 1:00:00 PM 12.33 54.194 0.218 7.94 15.6 11.36
5/14/2021 1:15:00 PM 12.25 54.05 0.218 7.93 14.79 11.34
5/14/2021 1:30:00 PM 12.2 53.96 0.218 7.93 13.73 11.35
5/14/2021 1:45:00 PM 12.16 53.888 0.217 7.93 14.31 11.34
5/14/2021 2:00:00 PM 12.15 53.87 0.218 7.94 15.14 11.34
5/14/2021 2:15:00 PM 12.14 53.852 0.218 7.93 14.74 11.34
5/14/2021 2:30:00 PM 12.15 53.87 0.218 7.93 14.92 11.37
5/14/2021 2:45:00 PM 12.18 53.924 0.218 7.94 14.49 11.41
5/14/2021 3:00:00 PM 12.26 54.068 0.218 7.95 13.98 11.45
5/14/2021 3:15:00 PM 12.33 54.194 0.218 7.94 15.24 11.46
5/14/2021 3:30:00 PM 12.42 54.356 0.218 7.97 14.54 11.49
5/14/2021 3:45:00 PM 12.48 54.464 0.218 7.98 16.45 11.51
5/14/2021 4:00:00 PM 12.51 54.518 0.218 7.98 13.29 11.52
5/14/2021 4:15:00 PM 12.49 54.482 0.218 7.99 14.58 11.53
5/14/2021 4:30:00 PM 12.48 54.464 0.218 7.99 15.88 11.54
5/14/2021 4:45:00 PM 12.49 54.482 0.218 7.99 14.54 11.55
5/14/2021 5:00:00 PM 12.5 54.5 0.219 7.99 14.96 11.55
5/14/2021 5:15:00 PM 12.47 54.446 0.219 8 14.05 11.57
5/14/2021 5:30:00 PM 12.44 54.392 0.219 8 14.19 11.56
5/14/2021 5:45:00 PM 12.44 54.392 0.219 8 15.58 11.55
5/14/2021 6:00:00 PM 12.51 54.518 0.219 8.01 12.67 11.57
5/14/2021 6:15:00 PM 12.6 54.68 0.219 8.02 14.14 11.6
5/14/2021 6:30:00 PM 12.68 54.824 0.22 8.01 13.58 11.62
5/14/2021 6:45:00 PM 12.75 54.95 0.22 8.02 14.21 11.63
5/14/2021 7:00:00 PM 12.81 55.058 0.219 8.03 15.34 11.6
5/14/2021 7:15:00 PM 12.86 55.148 0.22 8.04 14.99 11.58
5/14/2021 7:30:00 PM 12.88 55.184 0.22 8.04 14.27 11.56
5/14/2021 7:45:00 PM 12.9 55.22 0.22 8.04 14.79 11.53
5/14/2021 8:00:00 PM 12.9 55.22 0.22 8.04 16.1 11.51
5/14/2021 8:15:00 PM 12.88 55.184 0.22 8.04 14.56 11.49
5/14/2021 8:30:00 PM 12.85 55.13 0.22 8.03 14.44 11.47
5/14/2021 8:45:00 PM 12.81 55.058 0.22 8.02 16.36 11.44
5/14/2021 9:00:00 PM 12.76 54.968 0.22 8.02 16.24 11.42
5/14/2021 9:15:00 PM 12.72 54.896 0.22 8.02 15.2 11.4
5/14/2021 9:30:00 PM 12.68 54.824 0.22 8.01 15.12 11.37
5/14/2021 9:45:00 PM 12.65 54.77 0.221 8 17.78 11.36
5/14/2021 10:00:00 PM 12.62 54.716 0.221 8 15.06 11.34
5/14/2021 10:15:00 PM 12.6 54.68 0.221 8 14.63 11.32
5/14/2021 10:30:00 PM 12.58 54.644 0.221 7.99 15.56 11.29
5/14/2021 10:45:00 PM 12.57 54.626 0.221 7.99 15.14 11.27
5/14/2021 11:00:00 PM 12.57 54.626 0.221 7.99 15.65 11.24
5/14/2021 11:15:00 PM 12.57 54.626 0.222 7.98 15.64 11.22
5/14/2021 11:30:00 PM 12.56 54.608 0.222 7.98 15.19 11.19
5/14/2021 11:45:00 PM 12.57 54.626 0.222 7.97 15.58 11.17
5/15/2021 12:00:00 AM 12.57 54.626 0.222 7.97 15.35 11.14
5/15/2021 12:15:00 AM 12.57 54.626 0.222 7.96 15.58 11.12
5/15/2021 12:30:00 AM 12.58 54.644 0.222 7.96 15.56 11.09
5/15/2021 12:45:00 AM 12.59 54.662 0.218 7.96 20.19 11.07
5/15/2021 1:00:00 AM 12.59 54.662 0.222 7.96 16.46 11.05
5/15/2021 1:15:00 AM 12.59 54.662 0.223 7.96 16.01 11.02
5/15/2021 1:30:00 AM 12.58 54.644 0.223 7.96 17.15 11.01
5/15/2021 1:45:00 AM 12.57 54.626 0.223 7.96 15.35 10.98
5/15/2021 2:00:00 AM 12.56 54.608 0.223 7.96 19.38 10.97
5/15/2021 2:15:00 AM 12.53 54.554 0.223 7.95 16.91 10.97
5/15/2021 2:30:00 AM 12.52 54.536 0.224 7.95 15.52 10.95
5/15/2021 2:45:00 AM 12.49 54.482 0.224 7.96 15.7 10.94
5/15/2021 3:00:00 AM 12.48 54.464 0.225 7.95 14.69 10.93
5/15/2021 3:15:00 AM 12.45 54.41 0.225 7.95 16.23 10.91
5/15/2021 3:30:00 AM 12.42 54.356 0.226 7.95 15 10.91
5/15/2021 3:45:00 AM 12.4 54.32 0.227 7.94 17.03 10.88
5/15/2021 4:00:00 AM 12.37 54.266 0.227 7.94 16.64 10.87
5/15/2021 4:15:00 AM 12.34 54.212 0.228 7.94 15.65 10.85
5/15/2021 4:30:00 AM 12.31 54.158 0.228 7.94 16.27 10.85
5/15/2021 4:45:00 AM 12.28 54.104 0.228 7.93 16.76 10.81
5/15/2021 5:00:00 AM 12.25 54.05 0.229 7.93 15.66 10.8
5/15/2021 5:15:00 AM 12.22 53.996 0.229 7.92 16.2 10.78
5/15/2021 5:30:00 AM 12.19 53.942 0.229 7.93 17.75 10.76
5/15/2021 5:45:00 AM 12.16 53.888 0.23 7.91 18.26 10.73
5/15/2021 6:00:00 AM 12.14 53.852 0.23 7.91 16.89 10.71
5/15/2021 6:15:00 AM 12.12 53.816 0.23 7.91 15.97 10.7
5/15/2021 6:30:00 AM 12.1 53.78 0.23 7.91 15.55 10.69
5/15/2021 6:45:00 AM 12.1 53.78 0.23 7.9 16.92 10.68
5/15/2021 7:00:00 AM 12.08 53.744 0.23 7.9 15.41 10.68
5/15/2021 7:15:00 AM 12.1 53.78 0.231 7.9 14.56 10.68
5/15/2021 7:30:00 AM 12.1 53.78 0.231 7.91 17.1 10.69
5/15/2021 7:45:00 AM 12.12 53.816 0.231 7.91 15.71 10.7
5/15/2021 8:00:00 AM 12.14 53.852 0.231 7.91 15.22 10.72
5/15/2021 8:15:00 AM 12.18 53.924 0.231 7.91 22.98 10.75
5/15/2021 8:30:00 AM 12.22 53.996 0.231 7.91 14.69 10.78
5/15/2021 8:45:00 AM 12.28 54.104 0.232 7.91 15.96 10.81
5/15/2021 9:00:00 AM 12.35 54.23 0.231 7.92 15.22 10.84
5/15/2021 9:15:00 AM 12.43 54.374 0.231 7.93 15.17 10.84
5/15/2021 9:30:00 AM 12.5 54.5 0.231 7.93 16.17 10.86
5/15/2021 9:45:00 AM 12.59 54.662 0.232 7.94 17.97 10.89
5/15/2021 10:00:00 AM 12.68 54.824 0.231 7.95 16.53 10.95
5/15/2021 10:15:00 AM 12.78 55.004 0.232 7.95 16.24 10.99
5/15/2021 10:30:00 AM 12.89 55.202 0.232 7.96 14.9 11.01
5/15/2021 10:45:00 AM 12.99 55.382 0.232 7.96 15.88 11.02
5/15/2021 11:00:00 AM 13.1 55.58 0.232 7.97 15.04 11.06
5/15/2021 11:15:00 AM 13.2 55.76 0.232 7.98 13.05 11.11
5/15/2021 11:30:00 AM 13.31 55.958 0.232 7.99 14.39 11.12
5/15/2021 11:45:00 AM 13.37 56.066 0.232 8 14.98 11.13
5/15/2021 12:00:00 PM 13.46 56.228 0.232 8 14.47 11.13
5/15/2021 12:15:00 PM 13.58 56.444 0.232 8.01 14.98 11.18
5/15/2021 12:30:00 PM 13.69 56.642 0.232 8.02 15.34 11.2
5/15/2021 12:45:00 PM 13.75 56.75 0.232 8.01 15.82 11.23
5/15/2021 1:00:00 PM 13.78 56.804 0.232 8.03 14.25 11.24
5/15/2021 1:15:00 PM 13.87 56.966 0.232 8.04 15.17 11.27
5/15/2021 1:30:00 PM 13.94 57.092 0.233 8.05 15.61 11.28
5/15/2021 1:45:00 PM 13.96 57.128 0.233 8.05 15.55 11.29
5/15/2021 2:00:00 PM 13.93 57.074 0.233 8.05 15.74 11.3
5/15/2021 2:15:00 PM 13.9 57.02 0.233 8.06 15.85 11.3
5/15/2021 2:30:00 PM 13.91 57.038 0.233 8.06 15.11 11.32
5/15/2021 2:45:00 PM 13.94 57.092 0.233 8.07 15.61 11.36
5/15/2021 3:00:00 PM 13.95 57.11 0.233 8.07 14.23 11.37
5/15/2021 3:15:00 PM 13.97 57.146 0.233 8.08 14.85 11.4
5/15/2021 3:30:00 PM 13.95 57.11 0.233 8.08 14.75 11.4
5/15/2021 3:45:00 PM 13.96 57.128 0.233 8.08 13.18 11.42
5/15/2021 4:00:00 PM 13.98 57.164 0.233 8.09 15.03 11.44
5/15/2021 4:15:00 PM 14.02 57.236 0.233 8.1 14.61 11.47
5/15/2021 4:30:00 PM 14.09 57.362 0.233 8.11 15.7 11.48
5/15/2021 4:45:00 PM 14.13 57.434 0.233 8.11 13.48 11.48
5/15/2021 5:00:00 PM 14.19 57.542 0.233 8.12 14.9 11.5
5/15/2021 5:15:00 PM 14.19 57.542 0.233 8.12 14.14 11.5
5/15/2021 5:30:00 PM 14.19 57.542 0.233 8.14 16.22 11.5
5/15/2021 5:45:00 PM 14.18 57.524 0.233 8.12 26.67 11.5
5/15/2021 6:00:00 PM 14.17 57.506 0.233 8.13 16.9 11.5
5/15/2021 6:15:00 PM 14.14 57.452 0.234 8.13 15.67 11.48
5/15/2021 6:30:00 PM 14.11 57.398 0.234 8.13 16.56 11.48
5/15/2021 6:45:00 PM 14.08 57.344 0.234 8.14 18 11.47
5/15/2021 7:00:00 PM 14.05 57.29 0.234 8.13 15.46 11.45
5/15/2021 7:15:00 PM 14.01 57.218 0.234 8.13 15.53 11.44
5/15/2021 7:30:00 PM 13.99 57.182 0.234 8.13 17.09 11.42
5/15/2021 7:45:00 PM 13.97 57.146 0.234 8.12 14.86 11.41
5/15/2021 8:00:00 PM 13.96 57.128 0.235 8.12 15.95 11.39
5/15/2021 8:15:00 PM 13.94 57.092 0.235 8.11 15.97 11.36
5/15/2021 8:30:00 PM 13.92 57.056 0.235 8.1 15.18 11.33
5/15/2021 8:45:00 PM 13.89 57.002 0.235 8.1 15.24 11.31
5/15/2021 9:00:00 PM 13.87 56.966 0.235 8.1 15.8 11.28
5/15/2021 9:15:00 PM 13.85 56.93 0.235 8.09 15.68 11.26
5/15/2021 9:30:00 PM 13.83 56.894 0.235 8.08 15.23 11.23
5/15/2021 9:45:00 PM 13.82 56.876 0.235 8.08 15.7 11.21
5/15/2021 10:00:00 PM 13.8 56.84 0.235 8.08 18.36 11.18
5/15/2021 10:15:00 PM 13.79 56.822 0.235 8.08 15.54 11.15
5/15/2021 10:30:00 PM 13.79 56.822 0.236 8.09 16.21 11.13
5/15/2021 10:45:00 PM 13.78 56.804 0.236 8.08 16.03 11.11
5/15/2021 11:00:00 PM 13.76 56.768 0.236 8.07 17.85 11.08
5/15/2021 11:15:00 PM 13.75 56.75 0.236 8.07 16.34 11.07
5/15/2021 11:30:00 PM 13.72 56.696 0.236 8.07 15.84 11.04
5/15/2021 11:45:00 PM 13.7 56.66 0.236 8.07 16.99 11.02
5/16/2021 12:00:00 AM 13.68 56.624 0.236 8.07 18.29 10.99
5/16/2021 12:15:00 AM 13.65 56.57 0.236 8.07 15.27 10.97
5/16/2021 12:30:00 AM 13.63 56.534 0.236 8.06 16.47 10.94
5/16/2021 12:45:00 AM 13.6 56.48 0.236 8.06 16.07 10.92
5/16/2021 1:00:00 AM 13.59 56.462 0.236 8.06 15.63 10.89
5/16/2021 1:15:00 AM 13.56 56.408 0.236 8.05 16.3 10.88
5/16/2021 1:30:00 AM 13.54 56.372 0.236 8.05 16.31 10.84
5/16/2021 1:45:00 AM 13.52 56.336 0.236 8.05 18.6 10.83
5/16/2021 2:00:00 AM 13.5 56.3 0.236 8.05 21.38 10.8
5/16/2021 2:15:00 AM 13.48 56.264 0.236 8.04 16.12 10.79
5/16/2021 2:30:00 AM 13.46 56.228 0.236 8.04 17.42 10.76
5/16/2021 2:45:00 AM 13.45 56.21 0.236 8.04 15.29 10.75
5/16/2021 3:00:00 AM 13.43 56.174 0.236 8.04 16.65 10.73
5/16/2021 3:15:00 AM 13.41 56.138 0.236 8.03 17.1 10.7
5/16/2021 3:30:00 AM 13.38 56.084 0.236 8.03 16.58 10.68
5/16/2021 3:45:00 AM 13.36 56.048 0.237 8.03 17.42 10.66
5/16/2021 4:00:00 AM 13.34 56.012 0.237 8.02 17.1 10.65
5/16/2021 4:15:00 AM 13.3 55.94 0.237 8.01 16.86 10.62
5/16/2021 4:30:00 AM 13.28 55.904 0.237 8.02 17.09 10.62
5/16/2021 4:45:00 AM 13.24 55.832 0.237 8.01 16.23 10.6
5/16/2021 5:00:00 AM 13.21 55.778 0.238 8 16.57 10.59
5/16/2021 5:15:00 AM 13.17 55.706 0.238 8.01 15.81 10.57
5/16/2021 5:30:00 AM 13.14 55.652 0.238 7.99 16.69 10.56
5/16/2021 5:45:00 AM 13.1 55.58 0.238 7.99 17.1 10.53
5/16/2021 6:00:00 AM 13.07 55.526 0.239 7.98 16.42 10.52
5/16/2021 6:15:00 AM 13.04 55.472 0.239 7.98 15.19 10.51
5/16/2021 6:30:00 AM 13.01 55.418 0.239 7.97 16.52 10.5
5/16/2021 6:45:00 AM 13 55.4 0.239 7.97 15.57 10.5
5/16/2021 7:00:00 AM 12.99 55.382 0.24 7.97 14.24 10.52
5/16/2021 7:15:00 AM 12.99 55.382 0.24 7.96 15.6 10.52
5/16/2021 7:30:00 AM 12.99 55.382 0.24 7.97 15.16 10.55
5/16/2021 7:45:00 AM 13 55.4 0.24 7.98 15.53 10.57
5/16/2021 8:00:00 AM 13 55.4 0.24 7.97 14.04 10.58
5/16/2021 8:15:00 AM 13 55.4 0.24 7.97 16.1 10.59
5/16/2021 8:30:00 AM 13.01 55.418 0.24 7.97 15.04 10.61
5/16/2021 8:45:00 AM 13.02 55.436 0.24 7.98 15.47 10.62
5/16/2021 9:00:00 AM 13.03 55.454 0.241 7.98 16.1 10.65
5/16/2021 9:15:00 AM 13.04 55.472 0.241 7.99 13.71 10.67
5/16/2021 9:30:00 AM 13.06 55.508 0.241 7.98 13.92 10.7
5/16/2021 9:45:00 AM 13.08 55.544 0.241 8 15.17 10.72
5/16/2021 10:00:00 AM 13.13 55.634 0.241 8 15.89 10.74
5/16/2021 10:15:00 AM 13.19 55.742 0.241 8.01 14.54 10.77
5/16/2021 10:30:00 AM 13.27 55.886 0.241 8.02 15.14 10.81
5/16/2021 10:45:00 AM 13.35 56.03 0.241 8.03 14.48 10.86
5/16/2021 11:00:00 AM 13.43 56.174 0.241 8.03 14.38 10.9
5/16/2021 11:15:00 AM 13.49 56.282 0.242 8.03 15.22 10.94
5/16/2021 11:30:00 AM 13.55 56.39 0.242 8.05 15.76 10.96
5/16/2021 11:45:00 AM 13.61 56.498 0.242 8.06 16.59 11
5/16/2021 12:00:00 PM 13.69 56.642 0.242 8.07 16.23 11.04
5/16/2021 12:15:00 PM 13.76 56.768 0.242 8.08 22.17 11.06
5/16/2021 12:30:00 PM 13.85 56.93 0.242 8.1 17.22 11.12
5/16/2021 12:45:00 PM 13.95 57.11 0.242 8.1 15.08 11.17
5/16/2021 1:00:00 PM 14.02 57.236 0.242 8.11 15.26 11.2
5/16/2021 1:15:00 PM 14.09 57.362 0.242 8.13 14.59 11.24
5/16/2021 1:30:00 PM 14.2 57.56 0.242 8.14 12.91 11.27
5/16/2021 1:45:00 PM 14.3 57.74 0.242 8.14 14.65 11.31
5/16/2021 2:00:00 PM 14.35 57.83 0.242 8.16 14.89 11.33
5/16/2021 2:15:00 PM 14.4 57.92 0.242 8.16 14.27 11.35
5/16/2021 2:30:00 PM 14.44 57.992 0.242 8.17 23.19 11.38
5/16/2021 2:45:00 PM 14.49 58.082 0.242 8.18 14.53 11.39
5/16/2021 3:00:00 PM 14.5 58.1 0.243 8.18 14.39 11.41
5/16/2021 3:15:00 PM 14.49 58.082 0.243 8.2 14.84 11.42
5/16/2021 3:30:00 PM 14.5 58.1 0.243 8.19 14.21 11.44
5/16/2021 3:45:00 PM 14.57 58.226 0.243 8.21 14.73 11.47
5/16/2021 4:00:00 PM 14.63 58.334 0.243 8.21 14.71 11.49
5/16/2021 4:15:00 PM 14.66 58.388 0.243 8.22 14.46 11.52
5/16/2021 4:30:00 PM 14.71 58.478 0.243 8.22 15.08 11.54
5/16/2021 4:45:00 PM 14.76 58.568 0.243 8.23 14.64 11.56
5/16/2021 5:00:00 PM 14.82 58.676 0.243 8.25 13.99 11.59
5/16/2021 5:15:00 PM 14.82 58.676 0.243 8.26 13.59 11.59
5/16/2021 5:30:00 PM 14.79 58.622 0.243 8.26 14.53 11.59
5/16/2021 5:45:00 PM 14.78 58.604 0.243 8.25 14.85 11.59
5/16/2021 6:00:00 PM 14.78 58.604 0.243 8.26 14.56 11.61
5/16/2021 6:15:00 PM 14.76 58.568 0.243 8.26 14.76 11.59
5/16/2021 6:30:00 PM 14.73 58.514 0.243 8.26 14.14 11.58
5/16/2021 6:45:00 PM 14.7 58.46 0.243 8.26 14.69 11.57
5/16/2021 7:00:00 PM 14.68 58.424 0.243 8.26 14.12 11.55
5/16/2021 7:15:00 PM 14.64 58.352 0.244 8.25 13.37 11.53
5/16/2021 7:30:00 PM 14.62 58.316 0.244 8.25 14.67 11.52
5/16/2021 7:45:00 PM 14.57 58.226 0.244 8.24 14.12 11.51
5/16/2021 8:00:00 PM 14.52 58.136 0.244 8.24 15.08 11.48
5/16/2021 8:15:00 PM 14.46 58.028 0.244 8.23 14.67 11.43
5/16/2021 8:30:00 PM 14.38 57.884 0.244 8.22 14.96 11.39
5/16/2021 8:45:00 PM 14.3 57.74 0.245 8.22 15.62 11.36
5/16/2021 9:00:00 PM 14.22 57.596 0.245 8.2 14.65 11.32
5/16/2021 9:15:00 PM 14.15 57.47 0.245 8.19 14.42 11.29
5/16/2021 9:30:00 PM 14.08 57.344 0.245 8.19 14.75 11.27
5/16/2021 9:45:00 PM 14.02 57.236 0.245 8.17 14.52 11.23
5/16/2021 10:00:00 PM 13.96 57.128 0.245 8.16 17.76 11.2
5/16/2021 10:15:00 PM 13.91 57.038 0.245 8.16 12.88 11.17
5/16/2021 10:30:00 PM 13.86 56.948 0.245 8.14 15.45 11.15
5/16/2021 10:45:00 PM 13.81 56.858 0.245 8.14 15.9 11.12
5/16/2021 11:00:00 PM 13.76 56.768 0.245 8.15 14 11.1
5/16/2021 11:15:00 PM 13.71 56.678 0.245 8.13 14.96 11.07
5/16/2021 11:30:00 PM 13.66 56.588 0.246 8.13 14.95 11.04
5/16/2021 11:45:00 PM 13.62 56.516 0.246 8.12 15.37 11.03
5/17/2021 12:00:00 AM 13.58 56.444 0.246 8.11 15.77 11.01
5/17/2021 12:15:00 AM 13.53 56.354 0.246 8.11 16.45 10.99
5/17/2021 12:30:00 AM 13.49 56.282 0.246 8.1 15.21 10.96
5/17/2021 12:45:00 AM 13.45 56.21 0.246 8.11 17.64 10.95
5/17/2021 1:00:00 AM 13.41 56.138 0.246 8.1 15.73 10.92
5/17/2021 1:15:00 AM 13.39 56.102 0.246 8.1 14.72 10.9
5/17/2021 1:30:00 AM 13.37 56.066 0.246 8.09 15.08 10.87
5/17/2021 1:45:00 AM 13.36 56.048 0.246 8.08 16.94 10.83
5/17/2021 2:00:00 AM 13.35 56.03 0.247 8.09 14.5 10.83
5/17/2021 2:15:00 AM 13.35 56.03 0.247 8.09 15 10.81
5/17/2021 2:30:00 AM 13.35 56.03 0.247 8.08 14.91 10.79
5/17/2021 2:45:00 AM 13.36 56.048 0.247 8.09 13.75 10.77
5/17/2021 3:00:00 AM 13.37 56.066 0.247 8.09 14.21 10.75
5/17/2021 3:15:00 AM 13.38 56.084 0.248 8.08 13.87 10.72
5/17/2021 3:30:00 AM 13.4 56.12 0.248 8.09 14.65 10.71
5/17/2021 3:45:00 AM 13.4 56.12 0.248 8.08 15.44 10.68
5/17/2021 4:00:00 AM 13.41 56.138 0.248 8.08 13.23 10.65
5/17/2021 4:15:00 AM 13.41 56.138 0.248 8.07 13.94 10.64
5/17/2021 4:30:00 AM 13.41 56.138 0.248 8.06 15.09 10.61
5/17/2021 4:45:00 AM 13.4 56.12 0.248 8.07 16.04 10.58
5/17/2021 5:00:00 AM 13.4 56.12 0.249 8.07 13.99 10.57
5/17/2021 5:15:00 AM 13.39 56.102 0.249 8.06 14.63 10.54
5/17/2021 5:30:00 AM 13.39 56.102 0.249 8.06 14.03 10.52
5/17/2021 5:45:00 AM 13.37 56.066 0.25 8.06 15.97 10.51
5/17/2021 6:00:00 AM 13.36 56.048 0.25 8.05 13.89 10.49
5/17/2021 6:15:00 AM 13.34 56.012 0.25 8.05 14.91 10.48
5/17/2021 6:30:00 AM 13.32 55.976 0.251 8.05 13.41 10.46
5/17/2021 6:45:00 AM 13.31 55.958 0.251 8.05 14.69 10.47
5/17/2021 7:00:00 AM 13.3 55.94 0.251 8.05 14.71 10.47
5/17/2021 7:15:00 AM 13.3 55.94 0.251 8.05 14.5 10.49
5/17/2021 7:30:00 AM 13.3 55.94 0.252 8.05 15.26 10.51
5/17/2021 7:45:00 AM 13.33 55.994 0.252 8.07 15.07 10.54
5/17/2021 8:00:00 AM 13.36 56.048 0.252 8.07 14.33 10.57
5/17/2021 8:15:00 AM 13.4 56.12 0.253 8.07 13.11 10.59
5/17/2021 8:30:00 AM 13.45 56.21 0.253 8.08 14.82 10.65
5/17/2021 8:45:00 AM 13.51 56.318 0.253 8.08 15.01 10.68
5/17/2021 9:00:00 AM 13.57 56.426 0.253 8.1 14.63 10.73
5/17/2021 9:15:00 AM 13.65 56.57 0.253 8.1 14.45 10.78
5/17/2021 9:30:00 AM 13.74 56.732 0.253 8.11 14.74 10.83
5/17/2021 9:45:00 AM 13.84 56.912 0.254 8.13 14.75 10.89
5/17/2021 10:00:00 AM 13.95 57.11 0.254 8.14 14.57 10.94
5/17/2021 10:15:00 AM 14.07 57.326 0.254 8.15 13.87 10.98
5/17/2021 10:30:00 AM 14.19 57.542 0.254 8.18 14.62 11.04
5/17/2021 10:45:00 AM 14.32 57.776 0.255 8.19 14.32 11.09
5/17/2021 11:00:00 AM 14.44 57.992 0.255 8.2 12.88 11.14
5/17/2021 11:15:00 AM 14.56 58.208 0.255 8.21 14.98 11.18
5/17/2021 11:30:00 AM 14.68 58.424 0.255 8.21 15.53 11.22
5/17/2021 11:45:00 AM 14.81 58.658 0.255 8.23 13.24 11.25
5/17/2021 12:00:00 PM 14.94 58.892 0.256 8.23 14.89 11.27
5/17/2021 12:15:00 PM 14.99 58.982 0.256 8.24 15.16 11.3
5/17/2021 12:30:00 PM 15 59 0.256 8.24 12.98 11.32
5/17/2021 12:45:00 PM 15.05 59.09 0.256 8.26 16.44 11.34
5/17/2021 1:00:00 PM 15.06 59.108 0.256 8.26 16.32 11.35
5/17/2021 1:15:00 PM 15.17 59.306 0.256 8.27 14.95 11.39
5/17/2021 1:30:00 PM 15.29 59.522 0.256 8.28 14.38 11.42
5/17/2021 1:45:00 PM 15.32 59.576 0.256 8.29 14.28 11.43
5/17/2021 2:00:00 PM 15.41 59.738 0.256 8.29 14.58 11.45
5/17/2021 2:15:00 PM 15.58 60.044 0.256 8.3 17.6 11.48
5/17/2021 2:30:00 PM 15.79 60.422 0.256 8.31 14.32 11.53
5/17/2021 2:45:00 PM 15.86 60.548 0.256 8.33 14.65 11.54
5/17/2021 3:00:00 PM 15.87 60.566 0.257 8.33 14.33 11.55
5/17/2021 3:15:00 PM 15.84 60.512 0.257 8.32 14.89 11.52
5/17/2021 3:30:00 PM 15.85 60.53 0.257 8.34 14.54 11.52
5/17/2021 3:45:00 PM 15.92 60.656 0.257 8.33 14.5 11.55
5/17/2021 4:00:00 PM 15.99 60.782 0.257 8.35 18.2 11.56
5/17/2021 4:15:00 PM 16.09 60.962 0.258 8.36 14.27 11.6
5/17/2021 4:30:00 PM 16.12 61.016 0.258 8.37 13.49 11.63
5/17/2021 4:45:00 PM 16.13 61.034 0.258 8.38 13.7 11.64
5/17/2021 5:00:00 PM 16.1 60.98 0.258 8.38 14.88 11.64
5/17/2021 5:15:00 PM 16.02 60.836 0.258 8.38 16.93 11.6
5/17/2021 5:30:00 PM 16.04 60.872 0.258 8.38 13.18 11.59
5/17/2021 5:45:00 PM 16.1 60.98 0.259 8.38 13.85 11.59
5/17/2021 6:00:00 PM 16.17 61.106 0.259 8.39 14.73 11.61
5/17/2021 6:15:00 PM 16.23 61.214 0.259 8.41 14.43 11.64
5/17/2021 6:30:00 PM 16.25 61.25 0.259 8.42 16.66 11.64
5/17/2021 6:45:00 PM 16.25 61.25 0.259 8.42 12.49 11.62
5/17/2021 7:00:00 PM 16.22 61.196 0.259 8.42 13.85 11.59
5/17/2021 7:15:00 PM 16.18 61.124 0.26 8.42 12.23 11.58
5/17/2021 7:30:00 PM 16.12 61.016 0.26 8.41 14.36 11.54
5/17/2021 7:45:00 PM 16.05 60.89 0.26 8.4 12.85 11.5
5/17/2021 8:00:00 PM 15.97 60.746 0.26 8.38 13.7 11.45
5/17/2021 8:15:00 PM 15.89 60.602 0.26 8.38 13.63 11.4
5/17/2021 8:30:00 PM 15.82 60.476 0.261 8.36 14.02 11.34
5/17/2021 8:45:00 PM 15.75 60.35 0.261 8.35 14.73 11.3
5/17/2021 9:00:00 PM 15.68 60.224 0.261 8.34 14.19 11.25
5/17/2021 9:15:00 PM 15.63 60.134 0.261 8.32 14.53 11.19
5/17/2021 9:30:00 PM 15.59 60.062 0.261 8.31 14.87 11.13
5/17/2021 9:45:00 PM 15.54 59.972 0.261 8.29 14.68 11.09
5/17/2021 10:00:00 PM 15.51 59.918 0.262 8.27 15.23 11.02
5/17/2021 10:15:00 PM 15.47 59.846 0.262 8.27 17.53 10.97
5/17/2021 10:30:00 PM 15.45 59.81 0.262 8.25 14.6 10.92
5/17/2021 10:45:00 PM 15.41 59.738 0.262 8.24 14.59 10.88
5/17/2021 11:00:00 PM 15.38 59.684 0.262 8.24 16.33 10.83
5/17/2021 11:15:00 PM 15.35 59.63 0.262 8.23 14.83 10.81
5/17/2021 11:30:00 PM 15.32 59.576 0.262 8.22 15.65 10.77
5/17/2021 11:45:00 PM 15.28 59.504 0.262 8.21 33.92 10.74
5/18/2021 12:00:00 AM 15.25 59.45 0.262 8.22 14.71 10.73
5/18/2021 12:15:00 AM 15.21 59.378 0.262 8.21 14.17 10.7
5/18/2021 12:30:00 AM 15.16 59.288 0.262 8.2 16.61 10.69
5/18/2021 12:45:00 AM 15.12 59.216 0.262 8.21 18.13 10.67
5/18/2021 1:00:00 AM 15.07 59.126 0.263 8.2 15.04 10.65
5/18/2021 1:15:00 AM 15.03 59.054 0.263 8.2 16.03 10.62
5/18/2021 1:30:00 AM 14.99 58.982 0.263 8.19 16.54 10.58
5/18/2021 1:45:00 AM 14.95 58.91 0.263 8.19 13.79 10.56
5/18/2021 2:00:00 AM 14.92 58.856 0.263 8.19 15.05 10.53
5/18/2021 2:15:00 AM 14.89 58.802 0.263 8.18 15.95 10.5
5/18/2021 2:30:00 AM 14.86 58.748 0.263 8.17 18.91 10.48
5/18/2021 2:45:00 AM 14.84 58.712 0.263 8.17 19.04 10.45
5/18/2021 3:00:00 AM 14.82 58.676 0.263 8.16 54.79 10.42
5/18/2021 3:15:00 AM 14.79 58.622 0.263 8.16 16.87 10.4
5/18/2021 3:30:00 AM 14.76 58.568 0.263 8.16 19.09 10.37
5/18/2021 3:45:00 AM 14.75 58.55 0.263 8.15 14.41 10.35
5/18/2021 4:00:00 AM 14.73 58.514 0.263 8.15 15.63 10.31
5/18/2021 4:15:00 AM 14.7 58.46 0.263 8.14 13.14 10.29
5/18/2021 4:30:00 AM 14.68 58.424 0.263 8.13 15.69 10.26
5/18/2021 4:45:00 AM 14.65 58.37 0.263 8.13 15.05 10.24
5/18/2021 5:00:00 AM 14.63 58.334 0.263 8.13 14.59 10.22
5/18/2021 5:15:00 AM 14.6 58.28 0.263 8.12 13.53 10.2
5/18/2021 5:30:00 AM 14.58 58.244 0.263 8.11 19.16 10.16
5/18/2021 5:45:00 AM 14.55 58.19 0.264 8.11 19.71 10.13
5/18/2021 6:00:00 AM 14.51 58.118 0.264 8.09 20.9 10.13
5/18/2021 6:15:00 AM 14.49 58.082 0.264 8.09 16.02 10.13
5/18/2021 6:30:00 AM 14.46 58.028 0.264 8.08 15.49 10.12
5/18/2021 6:45:00 AM 14.44 57.992 0.264 8.08 14.42 10.13
5/18/2021 7:00:00 AM 14.42 57.956 0.264 8.09 18.19 10.13
5/18/2021 7:15:00 AM 14.41 57.938 0.264 8.09 14.6 10.17
5/18/2021 7:30:00 AM 14.42 57.956 0.264 8.09 14.03 10.2
5/18/2021 7:45:00 AM 14.44 57.992 0.264 8.09 13.7 10.24
5/18/2021 8:00:00 AM 14.47 58.046 0.264 8.11 13.65 10.29
5/18/2021 8:15:00 AM 14.52 58.136 0.264 8.11 13.89 10.35
5/18/2021 8:30:00 AM 14.57 58.226 0.264 8.13 13.27 10.42
5/18/2021 8:45:00 AM 14.65 58.37 0.264 8.13 13.32 10.47
5/18/2021 9:00:00 AM 14.73 58.514 0.264 8.16 13.59 10.54
5/18/2021 9:15:00 AM 14.82 58.676 0.264 8.18 13.88 10.57
5/18/2021 9:30:00 AM 14.93 58.874 0.264 8.2 13.69 10.67
5/18/2021 9:45:00 AM 15.05 59.09 0.264 8.21 13.53 10.74
5/18/2021 10:00:00 AM 15.18 59.324 0.264 8.23 14.3 10.8
5/18/2021 10:15:00 AM 15.33 59.594 0.264 8.23 13.06 10.87
5/18/2021 10:30:00 AM 15.49 59.882 0.264 8.26 13.22 10.91
5/18/2021 10:45:00 AM 15.64 60.152 0.264 8.29 12.61 11.01
5/18/2021 11:00:00 AM 15.79 60.422 0.264 8.3 13.26 11.05
5/18/2021 11:15:00 AM 15.94 60.692 0.264 8.32 15.74 11.09
5/18/2021 11:30:00 AM 16.08 60.944 0.264 8.35 12.74 11.16
5/18/2021 11:45:00 AM 16.23 61.214 0.265 8.36 13.17 11.22
5/18/2021 12:00:00 PM 16.37 61.466 0.265 8.37 12.94 11.25
5/18/2021 12:15:00 PM 16.51 61.718 0.265 8.38 12.97 11.3
5/18/2021 12:30:00 PM 16.65 61.97 0.265 8.4 13.28 11.34
5/18/2021 12:45:00 PM 16.79 62.222 0.265 8.41 12.82 11.39
5/18/2021 1:00:00 PM 16.92 62.456 0.266 8.43 12.63 11.43
5/18/2021 1:15:00 PM 17.05 62.69 0.266 8.44 13.48 11.46
5/18/2021 1:30:00 PM 17.18 62.924 0.266 8.45 13.91 11.48
5/18/2021 1:45:00 PM 17.29 63.122 0.267 8.47 14.01 11.51
5/18/2021 2:00:00 PM 17.39 63.302 0.267 8.47 13.98 11.48
5/18/2021 2:15:00 PM 17.49 63.482 0.267 8.49 182.92 11.58
5/18/2021 2:30:00 PM 17.61 63.698 0.267 8.5 12.7 11.63
5/18/2021 2:45:00 PM 17.72 63.896 0.268 8.52 14.29 11.65
5/18/2021 3:00:00 PM 17.78 64.004 0.268 8.53 14.9 11.67
5/18/2021 3:15:00 PM 17.84 64.112 0.268 8.53 14.5 11.69
5/18/2021 3:30:00 PM 17.89 64.202 0.268 8.54 13.59 11.69
5/18/2021 3:45:00 PM 17.93 64.274 0.269 8.55 13.96 11.73
5/18/2021 4:00:00 PM 17.97 64.346 0.269 8.56 14.42 11.71
5/18/2021 4:15:00 PM 18.03 64.454 0.269 8.56 17.14 11.74
5/18/2021 4:30:00 PM 18.06 64.508 0.269 8.57 17.7 11.71
5/18/2021 4:45:00 PM 18.11 64.598 0.269 8.58 16.89 11.75
5/18/2021 5:00:00 PM 18.16 64.688 0.269 8.59 15.11 11.79
5/18/2021 5:15:00 PM 18.2 64.76 0.27 8.6 13.02 11.79
5/18/2021 5:30:00 PM 18.21 64.778 0.27 8.6 13.59 11.78
5/18/2021 5:45:00 PM 18.23 64.814 0.27 8.61 14.83 11.79
5/18/2021 6:00:00 PM 18.23 64.814 0.27 8.61 16.7 11.78
5/18/2021 6:15:00 PM 18.22 64.796 0.271 8.62 17.94 11.73
5/18/2021 6:30:00 PM 18.2 64.76 0.271 8.62 18.39 11.74
5/18/2021 6:45:00 PM 18.18 64.724 0.271 8.62 16.53 11.73
5/18/2021 7:00:00 PM 18.14 64.652 0.271 8.62 14.47 11.69
5/18/2021 7:15:00 PM 18.1 64.58 0.272 8.62 20.91 11.66
5/18/2021 7:30:00 PM 18.07 64.526 0.272 8.61 31.62 11.57
5/18/2021 7:45:00 PM 18.02 64.436 0.272 8.61 15.84 11.57
5/18/2021 8:00:00 PM 17.98 64.364 0.272 8.6 16.05 11.51
5/18/2021 8:15:00 PM 17.93 64.274 0.273 8.58 15.14 11.43
5/18/2021 8:30:00 PM 17.89 64.202 0.273 8.57 14.78 11.35
5/18/2021 8:45:00 PM 17.84 64.112 0.273 8.56 21.59 11.28
5/18/2021 9:00:00 PM 17.79 64.022 0.273 8.55 23.46 11.22
5/18/2021 9:15:00 PM 17.74 63.932 0.274 8.53 17.42 11.14
5/18/2021 9:30:00 PM 17.69 63.842 0.274 8.52 16.13 11.07
5/18/2021 9:45:00 PM 17.64 63.752 0.274 8.5 17.06 10.99
5/18/2021 10:00:00 PM 17.58 63.644 0.274 8.48 16.51 10.89
5/18/2021 10:15:00 PM 17.53 63.554 0.275 8.46 24.07 10.86
5/18/2021 10:30:00 PM 17.48 63.464 0.275 8.45 18.57 10.8
5/18/2021 10:45:00 PM 17.42 63.356 0.275 8.43 14.19 10.73
5/18/2021 11:00:00 PM 17.37 63.266 0.275 8.42 15.94 10.68
5/18/2021 11:15:00 PM 17.33 63.194 0.275 8.41 15.08 10.64
5/18/2021 11:30:00 PM 17.28 63.104 0.275 8.4 15.8 10.6
5/18/2021 11:45:00 PM 17.23 63.014 0.276 8.39 15.07 10.55
5/19/2021 12:00:00 AM 17.19 62.942 0.276 8.39 14.31 10.51
5/19/2021 12:15:00 AM 17.15 62.87 0.276 8.38 15.64 10.47
5/19/2021 12:30:00 AM 17.1 62.78 0.276 8.37 17.98 10.43
5/19/2021 12:45:00 AM 17.06 62.708 0.276 8.37 15.82 10.39
5/19/2021 1:00:00 AM 17.02 62.636 0.276 8.35 15.23 10.36
5/19/2021 1:15:00 AM 16.98 62.564 0.276 8.23 14.88 10.33
5/19/2021 1:30:00 AM 16.94 62.492 0.276 8.34 15.17 10.29
5/19/2021 1:45:00 AM 16.89 62.402 0.276 8.34 15.48 10.27
5/19/2021 2:00:00 AM 16.85 62.33 0.277 8.33 16.82 10.23
5/19/2021 2:15:00 AM 16.81 62.258 0.277 8.32 18.9 10.19
5/19/2021 2:30:00 AM 16.78 62.204 0.277 8.32 18.86 10.15
5/19/2021 2:45:00 AM 16.74 62.132 0.277 8.31 23.11 10.12
5/19/2021 3:00:00 AM 16.71 62.078 0.277 8.3 15.21 10.08
5/19/2021 3:15:00 AM 16.67 62.006 0.277 8.3 16.35 10.05
5/19/2021 3:30:00 AM 16.64 61.952 0.278 8.29 15.38 10.02
5/19/2021 3:45:00 AM 16.61 61.898 0.278 8.28 14.76 9.99
5/19/2021 4:00:00 AM 16.58 61.844 0.278 8.28 14.4 9.95
5/19/2021 4:15:00 AM 16.56 61.808 0.278 8.27 15.63 9.92
5/19/2021 4:30:00 AM 16.53 61.754 0.278 8.27 14.69 9.89
5/19/2021 4:45:00 AM 16.5 61.7 0.279 8.25 16.16 9.85
5/19/2021 5:00:00 AM 16.47 61.646 0.279 8.26 14.49 9.84
5/19/2021 5:15:00 AM 16.45 61.61 0.279 8.25 15.35 9.8
5/19/2021 5:30:00 AM 16.42 61.556 0.279 8.24 15.63 9.78
5/19/2021 5:45:00 AM 16.39 61.502 0.279 8.24 16.24 9.75
5/19/2021 6:00:00 AM 16.36 61.448 0.279 8.22 16.02 9.73
5/19/2021 6:15:00 AM 16.33 61.394 0.28 8.23 17.7 9.7
5/19/2021 6:30:00 AM 16.32 61.376 0.28 8.22 15.59 9.71
5/19/2021 6:45:00 AM 16.3 61.34 0.28 8.22 15.06 9.71
5/19/2021 7:00:00 AM 16.28 61.304 0.28 8.23 15.15 9.72
5/19/2021 7:15:00 AM 16.27 61.286 0.28 8.23 15.28 9.76
5/19/2021 7:30:00 AM 16.27 61.286 0.28 8.23 15.93 9.79
5/19/2021 7:45:00 AM 16.29 61.322 0.281 8.24 14.23 9.85
5/19/2021 8:00:00 AM 16.33 61.394 0.281 8.25 15.4 9.91
5/19/2021 8:15:00 AM 16.37 61.466 0.281 8.27 17.37 9.98
5/19/2021 8:30:00 AM 16.42 61.556 0.281 8.29 15.01 10.06
5/19/2021 8:45:00 AM 16.49 61.682 0.281 8.31 13.78 10.16
5/19/2021 9:00:00 AM 16.56 61.808 0.281 8.33 14.78 10.25
5/19/2021 9:15:00 AM 16.65 61.97 0.281 8.34 14.4 10.33
5/19/2021 9:30:00 AM 16.74 62.132 0.282 8.37 15.27 10.42
5/19/2021 9:45:00 AM 16.85 62.33 0.282 8.39 14.76 10.51
5/19/2021 10:00:00 AM 16.97 62.546 0.282 8.41 14.82 10.6
5/19/2021 10:15:00 AM 17.11 62.798 0.282 8.43 14.75 10.69
5/19/2021 10:30:00 AM 17.24 63.032 0.282 8.44 24.39 10.76
5/19/2021 10:45:00 AM 17.39 63.302 0.282 8.46 27.96 10.86
5/19/2021 11:00:00 AM 17.53 63.554 0.282 8.44 44.19 10.9
5/19/2021 11:15:00 AM 17.67 63.806 0.282 8.49 18.49 11
5/19/2021 11:30:00 AM 17.82 64.076 0.282 8.5 15.93 11.06
5/19/2021 11:45:00 AM 17.97 64.346 0.283 8.53 18.6 11.14
5/19/2021 12:00:00 PM 18.1 64.58 0.283 8.54 17.42 11.18
5/19/2021 12:15:00 PM 18.24 64.832 0.283 8.56 17.56 11.24
5/19/2021 12:30:00 PM 18.38 65.084 0.283 8.57 16.62 11.29
5/19/2021 12:45:00 PM 18.51 65.318 0.283 8.58 17.01 11.38
5/19/2021 1:00:00 PM 18.63 65.534 0.283 8.59 16.83 11.42
5/19/2021 1:15:00 PM 18.75 65.75 0.283 8.6 15.75 11.49
5/19/2021 1:30:00 PM 18.87 65.966 0.284 8.62 15.98 11.54
5/19/2021 1:45:00 PM 18.98 66.164 0.284 8.62 15.98 11.56
5/19/2021 2:00:00 PM 19.09 66.362 0.284 8.64 16.75 11.63
5/19/2021 2:15:00 PM 19.21 66.578 0.284 8.65 16.63 11.66
5/19/2021 2:30:00 PM 19.29 66.722 0.285 8.65 15.61 11.68
5/19/2021 2:45:00 PM 19.39 66.902 0.285 8.65 16.13 11.71
5/19/2021 3:00:00 PM 19.47 67.046 0.285 8.67 16.25 11.75
5/19/2021 3:15:00 PM 19.55 67.19 0.285 8.67 20.42 11.76
5/19/2021 3:30:00 PM 19.59 67.262 0.286 8.68 16.93 11.78
5/19/2021 3:45:00 PM 19.65 67.37 0.286 8.68 16.78 11.82
5/19/2021 4:00:00 PM 19.68 67.424 0.286 8.7 17.3 11.84
5/19/2021 4:15:00 PM 19.7 67.46 0.286 8.7 15.68 11.87
5/19/2021 4:30:00 PM 19.7 67.46 0.286 8.71 16.32 11.87
5/19/2021 4:45:00 PM 19.71 67.478 0.287 8.72 15.74 11.88
5/19/2021 5:00:00 PM 19.69 67.442 0.287 8.72 16.54 11.89
5/19/2021 5:15:00 PM 19.7 67.46 0.287 8.71 16.35 11.88
5/19/2021 5:30:00 PM 19.69 67.442 0.287 8.73 16.77 11.88
5/19/2021 5:45:00 PM 19.65 67.37 0.288 8.72 15.4 11.85
5/19/2021 6:00:00 PM 19.66 67.388 0.288 8.74 16.2 11.88
5/19/2021 6:15:00 PM 19.64 67.352 0.288 8.73 31.51 11.84
5/19/2021 6:30:00 PM 19.6 67.28 0.289 8.73 15.64 11.81
5/19/2021 6:45:00 PM 19.56 67.208 0.289 8.73 15.32 11.76
5/19/2021 7:00:00 PM 19.52 67.136 0.289 8.73 15.95 11.71
5/19/2021 7:15:00 PM 19.47 67.046 0.29 8.72 16.32 11.66
5/19/2021 7:30:00 PM 19.42 66.956 0.29 8.71 15.71 11.59
5/19/2021 7:45:00 PM 19.37 66.866 0.291 8.68 16.53 11.51
5/19/2021 8:00:00 PM 19.32 66.776 0.291 8.68 15.82 11.43
5/19/2021 8:15:00 PM 19.27 66.686 0.291 8.68 26.72 11.36
5/19/2021 8:30:00 PM 19.22 66.596 0.292 8.67 15.98 11.28
5/19/2021 8:45:00 PM 19.17 66.506 0.292 8.64 16.17 11.19
5/19/2021 9:00:00 PM 19.12 66.416 0.292 8.64 15.81 11.1
5/19/2021 9:15:00 PM 19.08 66.344 0.292 8.62 16.47 11
5/19/2021 9:30:00 PM 19.03 66.254 0.293 8.59 15.52 10.92
5/19/2021 9:45:00 PM 18.97 66.146 0.293 8.59 15.18 10.82
5/19/2021 10:00:00 PM 18.92 66.056 0.293 8.57 15.09 10.75
5/19/2021 10:15:00 PM 18.87 65.966 0.293 8.56 15.48 10.67
5/19/2021 10:30:00 PM 18.82 65.876 0.294 8.54 15.83 10.6
5/19/2021 10:45:00 PM 18.77 65.786 0.294 8.53 15.38 10.54
5/19/2021 11:00:00 PM 18.72 65.696 0.294 8.52 15.76 10.45
5/19/2021 11:15:00 PM 18.67 65.606 0.294 8.5 15.75 10.4
5/19/2021 11:30:00 PM 18.63 65.534 0.294 8.47 16.03 10.35
5/19/2021 11:45:00 PM 18.58 65.444 0.295 8.47 16.01 10.29
5/20/2021 12:00:00 AM 18.54 65.372 0.295 8.47 15.43 10.24
5/20/2021 12:15:00 AM 18.5 65.3 0.295 8.45 15.66 10.2
5/20/2021 12:30:00 AM 18.46 65.228 0.295 8.44 15.59 10.13
5/20/2021 12:45:00 AM 18.42 65.156 0.295 8.42 16.44 10.1
5/20/2021 1:00:00 AM 18.38 65.084 0.295 8.42 16.63 10.05
5/20/2021 1:15:00 AM 18.34 65.012 0.296 8.41 16.43 10
5/20/2021 1:30:00 AM 18.3 64.94 0.296 8.4 14.24 9.98
5/20/2021 1:45:00 AM 18.27 64.886 0.296 8.4 14.46 9.95
5/20/2021 2:00:00 AM 18.24 64.832 0.296 8.37 14.17 9.89
5/20/2021 2:15:00 AM 18.2 64.76 0.296 8.38 14.28 9.86
5/20/2021 2:30:00 AM 18.17 64.706 0.296 8.37 18.26 9.82
5/20/2021 2:45:00 AM 18.14 64.652 0.296 8.36 18.97 9.79
5/20/2021 3:00:00 AM 18.1 64.58 0.296 8.34 19.41 9.71
5/20/2021 3:15:00 AM 18.07 64.526 0.296 8.33 19.21 9.69
5/20/2021 3:30:00 AM 18.04 64.472 0.297 8.31 19.06 9.66
5/20/2021 3:45:00 AM 18.02 64.436 0.297 8.32 19.44 9.6
5/20/2021 4:00:00 AM 17.99 64.382 0.297 8.3 19.24 9.58
5/20/2021 4:15:00 AM 17.97 64.346 0.297 8.3 17.25 9.56
5/20/2021 4:30:00 AM 17.95 64.31 0.297 8.29 17.48 9.51
5/20/2021 4:45:00 AM 17.93 64.274 0.297 8.29 16.98 9.49
5/20/2021 5:00:00 AM 17.91 64.238 0.145 8.28 16.72 9.43
5/20/2021 5:15:00 AM 17.89 64.202 0.211 8.27 17.97 9.43
5/20/2021 5:30:00 AM 17.86 64.148 0.234 8.26 15.74 9.4
5/20/2021 5:45:00 AM 17.84 64.112 0.246 8.25 25.5 9.38
5/20/2021 6:00:00 AM 17.81 64.058 0.259 8.25 24.28 9.36
5/20/2021 6:15:00 AM 17.79 64.022 0.265 8.24 22.91 9.34
5/20/2021 6:30:00 AM 17.78 64.004 0.298 8.24 17.71 9.3
5/20/2021 6:45:00 AM 17.78 64.004 0.298 8.24 21.67 9.32
5/20/2021 7:00:00 AM 17.77 63.986 0.298 8.25 14.64 9.33
5/20/2021 7:15:00 AM 17.77 63.986 0.298 8.25 14.46 9.36
5/20/2021 7:30:00 AM 17.77 63.986 0.298 8.24 20.06 9.4
5/20/2021 7:45:00 AM 17.79 64.022 0.298 8.26 18.95 9.47
5/20/2021 8:00:00 AM 17.83 64.094 0.298 8.28 16.43 9.56
5/20/2021 8:15:00 AM 17.84 64.112 0.298 8.3 14.34 9.63
5/20/2021 8:30:00 AM 17.87 64.166 0.298 8.31 14.62 9.73
5/20/2021 8:45:00 AM 17.9 64.22 0.298 8.34 14.22 9.85
5/20/2021 9:00:00 AM 17.93 64.274 0.297 8.36 18.66 9.93
5/20/2021 9:15:00 AM 17.99 64.382 0.297 8.37 14.76 10.05
5/20/2021 9:30:00 AM 18.04 64.472 0.297 8.4 14.3 10.15
5/20/2021 9:45:00 AM 18.1 64.58 0.297 8.41 14.07 10.23
5/20/2021 10:00:00 AM 18.22 64.796 0.297 8.45 14.48 10.36
5/20/2021 10:15:00 AM 18.34 65.012 0.297 8.48 14.08 10.49
5/20/2021 10:30:00 AM 18.47 65.246 0.297 8.49 14.69 10.57
5/20/2021 10:45:00 AM 18.6 65.48 0.297 8.51 14.35 10.69
5/20/2021 11:00:00 AM 18.74 65.732 0.297 8.52 14.38 10.74
5/20/2021 11:15:00 AM 18.85 65.93 0.296 8.56 14.05 10.87
5/20/2021 11:30:00 AM 19 66.2 0.296 8.58 14.11 11
5/20/2021 11:45:00 AM 19.15 66.47 0.296 8.59 14.29 11.09
5/20/2021 12:00:00 PM 19.21 66.578 0.296 8.6 14.68 11.16
5/20/2021 12:15:00 PM 19.34 66.812 0.296 8.62 14.35 11.23
5/20/2021 12:30:00 PM 19.49 67.082 0.295 8.64 14.64 11.34
5/20/2021 12:45:00 PM 19.6 67.28 0.295 8.66 14.93 11.4
5/20/2021 1:00:00 PM 19.77 67.586 0.295 8.67 14.26 11.46
5/20/2021 1:15:00 PM 19.91 67.838 0.295 8.68 14.2 11.56
5/20/2021 1:30:00 PM 20.02 68.036 0.295 8.68 19.41 11.59
5/20/2021 1:45:00 PM 20.12 68.216 0.294 8.71 15.29 11.66
5/20/2021 2:00:00 PM 20.18 68.324 0.294 8.71 15.48 11.69
5/20/2021 2:15:00 PM 20.26 68.468 0.294 8.73 14.95 11.76
5/20/2021 2:30:00 PM 20.31 68.558 0.294 8.73 14.86 11.78
5/20/2021 2:45:00 PM 20.38 68.684 0.294 8.74 14.67 11.82
5/20/2021 3:00:00 PM 20.45 68.81 0.294 8.73 14.86 11.87
5/20/2021 3:15:00 PM 20.52 68.936 0.294 8.74 14.83 11.89
5/20/2021 3:30:00 PM 20.52 68.936 0.294 8.76 14.75 11.92
5/20/2021 3:45:00 PM 20.5 68.9 0.295 8.74 15.09 11.9
5/20/2021 4:00:00 PM 20.5 68.9 0.295 8.76 15.21 11.89
5/20/2021 4:15:00 PM 20.44 68.792 0.295 8.77 15.01 11.9
5/20/2021 4:30:00 PM 20.47 68.846 0.295 8.77 14.86 11.91
5/20/2021 4:45:00 PM 20.51 68.918 0.295 8.77 14.9 11.98
5/20/2021 5:00:00 PM 20.55 68.99 0.295 8.78 14.68 11.97
5/20/2021 5:15:00 PM 20.6 69.08 0.295 8.8 14.75 12.02
5/20/2021 5:30:00 PM 20.61 69.098 0.295 8.81 14.22 12.01
5/20/2021 5:45:00 PM 20.63 69.134 0.295 8.81 14.47 12.02
5/20/2021 6:00:00 PM 20.63 69.134 0.295 8.81 14.49 12.01
5/20/2021 6:15:00 PM 20.63 69.134 0.295 8.82 14.54 11.97
5/20/2021 6:30:00 PM 20.63 69.134 0.295 8.81 14.3 11.97
5/20/2021 6:45:00 PM 20.62 69.116 0.295 8.81 14.48 11.92
5/20/2021 7:00:00 PM 20.59 69.062 0.295 8.82 14.13 11.9
5/20/2021 7:15:00 PM 20.56 69.008 0.295 8.82 14.31 11.86
5/20/2021 7:30:00 PM 20.52 68.936 0.295 8.82 14.1 11.8
5/20/2021 7:45:00 PM 20.47 68.846 0.296 8.81 14.13 11.72
5/20/2021 8:00:00 PM 20.43 68.774 0.296 8.8 14.48 11.63
5/20/2021 8:15:00 PM 20.39 68.702 0.296 8.8 14.29 11.56
5/20/2021 8:30:00 PM 20.34 68.612 0.296 8.79 14.46 11.45
5/20/2021 8:45:00 PM 20.29 68.522 0.296 8.78 14.25 11.37
5/20/2021 9:00:00 PM 20.24 68.432 0.296 8.76 14.23 11.26
5/20/2021 9:15:00 PM 20.19 68.342 0.297 8.75 14.28 11.15
5/20/2021 9:30:00 PM 20.14 68.252 0.297 8.73 14.09 11.03
5/20/2021 9:45:00 PM 20.09 68.162 0.297 8.71 12.19 10.94
5/20/2021 10:00:00 PM 20.03 68.054 0.297 8.71 11.72 10.84
5/20/2021 10:15:00 PM 19.97 67.946 0.297 8.69 12.01 10.75
5/20/2021 10:30:00 PM 19.92 67.856 0.297 8.68 11.85 10.67
5/20/2021 10:45:00 PM 19.86 67.748 0.297 8.66 11.86 10.57
5/20/2021 11:00:00 PM 19.8 67.64 0.298 8.64 12.04 10.51
5/20/2021 11:15:00 PM 19.75 67.55 0.298 8.64 11.78 10.42
5/20/2021 11:30:00 PM 19.7 67.46 0.298 8.62 11.64 10.33
5/20/2021 11:45:00 PM 19.65 67.37 0.298 8.61 11.85 10.3
5/21/2021 12:00:00 AM 19.61 67.298 0.298 8.59 11.73 10.21
5/21/2021 12:15:00 AM 19.57 67.226 0.299 8.58 11.85 10.16
5/21/2021 12:30:00 AM 19.53 67.154 0.299 8.57 11.69 10.1
5/21/2021 12:45:00 AM 19.48 67.064 0.299 8.56 11.67 10.05
5/21/2021 1:00:00 AM 19.45 67.01 0.299 8.53 13.6 9.99
5/21/2021 1:15:00 AM 19.41 66.938 0.299 8.54 14.56 9.93
5/21/2021 1:30:00 AM 19.37 66.866 0.299 8.53 15.03 9.9
5/21/2021 1:45:00 AM 19.33 66.794 0.3 8.52 15.01 9.84
5/21/2021 2:00:00 AM 19.29 66.722 0.3 8.51 15.75 9.81
5/21/2021 2:15:00 AM 19.25 66.65 0.3 8.48 15.39 9.76
5/21/2021 2:30:00 AM 19.21 66.578 0.3 8.49 15.99 9.71
5/21/2021 2:45:00 AM 19.17 66.506 0.3 8.47 15.91 9.68
5/21/2021 3:00:00 AM 19.14 66.452 0.3 8.46 15.94 9.64
5/21/2021 3:15:00 AM 19.1 66.38 0.3 8.46 15.97 9.58
5/21/2021 3:30:00 AM 19.07 66.326 0.3 8.44 15.89 9.53
5/21/2021 3:45:00 AM 19.04 66.272 0.301 8.41 16.07 9.51
5/21/2021 4:00:00 AM 19 66.2 0.301 8.41 17.53 9.45
5/21/2021 4:15:00 AM 18.98 66.164 0.301 8.4 17.21 9.42
5/21/2021 4:30:00 AM 18.94 66.092 0.301 8.38 15.97 9.37
5/21/2021 4:45:00 AM 18.92 66.056 0.301 8.38 16.15 9.35
5/21/2021 5:00:00 AM 18.9 66.02 0.301 8.37 15.09 9.29
5/21/2021 5:15:00 AM 18.87 65.966 0.301 8.35 15.27 9.25
5/21/2021 5:30:00 AM 18.84 65.912 0.302 8.33 15.06 9.21
5/21/2021 5:45:00 AM 18.82 65.876 0.302 8.32 14.59 9.17
5/21/2021 6:00:00 AM 18.8 65.84 0.302 8.32 14.21 9.16
5/21/2021 6:15:00 AM 18.77 65.786 0.302 8.3 14.85 9.12
5/21/2021 6:30:00 AM 18.76 65.768 0.302 8.3 14.33 9.12
5/21/2021 6:45:00 AM 18.75 65.75 0.302 8.29 14.49 9.12
5/21/2021 7:00:00 AM 18.75 65.75 0.302 8.29 14.5 9.13
5/21/2021 7:15:00 AM 18.76 65.768 0.303 8.27 30.57 9.15
5/21/2021 7:30:00 AM 18.79 65.82201 0.303 8.3 15.51 9.21
5/21/2021 7:45:00 AM 18.81 65.858 0.303 8.31 15.73 9.27
5/21/2021 8:00:00 AM 18.86 65.948 0.303 8.33 15.81 9.35
5/21/2021 8:15:00 AM 18.91 66.038 0.303 8.34 16.2 9.47
5/21/2021 8:30:00 AM 18.98 66.164 0.303 8.37 16.01 9.56
5/21/2021 8:45:00 AM 19.05 66.29 0.303 8.38 15.91 9.71
5/21/2021 9:00:00 AM 19.14 66.452 0.303 8.41 15.91 9.81
5/21/2021 9:15:00 AM 19.23 66.614 0.303 8.44 53.78 9.93
5/21/2021 9:30:00 AM 19.32 66.776 0.303 8.45 16.36 10.04
5/21/2021 9:45:00 AM 19.42 66.956 0.304 8.48 16.73 10.16
5/21/2021 10:00:00 AM 19.54 67.172 0.304 8.51 16.43 10.29
5/21/2021 10:15:00 AM 19.67 67.406 0.304 8.53 28.7 10.4
5/21/2021 10:30:00 AM 19.81 67.658 0.304 8.56 44.63 10.55
5/21/2021 10:45:00 AM 19.95 67.91 0.304 8.59 18.75 10.67
5/21/2021 11:00:00 AM 20.1 68.18 0.304 8.59 40.86 10.79
5/21/2021 11:15:00 AM 20.25 68.45 0.304 8.62 18.9 10.88
5/21/2021 11:30:00 AM 20.4 68.72 0.304 8.65 18.89 11.03
5/21/2021 11:45:00 AM 20.54 68.972 0.304 8.65 21.54 11.11
5/21/2021 12:00:00 PM 20.7 69.26 0.304 8.68 18.53 11.23
5/21/2021 12:15:00 PM 20.84 69.512 0.304 8.7 19.09 11.34
5/21/2021 12:30:00 PM 20.97 69.746 0.304 8.72 21.76 11.42
5/21/2021 12:45:00 PM 21.1 69.98 0.304 8.73 19.72 11.48
5/21/2021 1:00:00 PM 21.2 70.16 0.304 8.74 19.42 11.55
5/21/2021 1:15:00 PM 21.31 70.358 0.304 8.75 19.53 11.61
5/21/2021 1:30:00 PM 21.44 70.592 0.304 8.75 19.42 11.69
5/21/2021 1:45:00 PM 21.55 70.79 0.304 8.77 16.35 11.76
5/21/2021 2:00:00 PM 21.66 70.988 0.304 8.77 16.54 11.83
5/21/2021 2:15:00 PM 21.78 71.204 0.304 8.78 16.92 11.9
5/21/2021 2:30:00 PM 21.85 71.33 0.304 8.8 16.5 11.94
5/21/2021 2:45:00 PM 21.93 71.474 0.304 8.79 16.96 11.97
5/21/2021 3:00:00 PM 22 71.6 0.304 8.81 16.26 12.02
5/21/2021 3:15:00 PM 22.04 71.672 0.304 8.82 16.28 12.03
5/21/2021 3:30:00 PM 22.13 71.834 0.304 8.83 16.38 12.1
5/21/2021 3:45:00 PM 22.22 71.996 0.304 8.83 16.38 12.15
5/21/2021 4:00:00 PM 22.29 72.122 0.304 8.84 16.26 12.16
5/21/2021 4:15:00 PM 22.33 72.194 0.304 8.84 16.26 12.16
5/21/2021 4:30:00 PM 22.34 72.212 0.304 8.85 16.21 12.2
5/21/2021 4:45:00 PM 22.36 72.248 0.304 8.86 16.69 12.23
5/21/2021 5:00:00 PM 22.34 72.212 0.304 8.86 16.38 12.21
5/21/2021 5:15:00 PM 22.3 72.14 0.304 8.86 16.37 12.15
5/21/2021 5:30:00 PM 22.25 72.05 0.304 8.86 16.38 12.11
5/21/2021 5:45:00 PM 22.22 71.996 0.304 8.84 17.37 12.04
5/21/2021 6:00:00 PM 22.23 72.014 0.304 8.86 16.43 12.05
5/21/2021 6:15:00 PM 22.23 72.014 0.304 8.87 16.64 12.01
5/21/2021 6:30:00 PM 22.21 71.978 0.304 8.87 16.51 12
5/21/2021 6:45:00 PM 22.19 71.942 0.304 8.87 16.55 11.95
5/21/2021 7:00:00 PM 22.17 71.906 0.304 8.87 16.75 11.92
5/21/2021 7:15:00 PM 22.13 71.834 0.304 8.87 16.85 11.92
5/21/2021 7:30:00 PM 22.07 71.726 0.305 8.87 17.36 11.83
5/21/2021 7:45:00 PM 22 71.6 0.305 8.85 17.12 11.74
5/21/2021 8:00:00 PM 21.93 71.474 0.305 8.85 17.46 11.62
5/21/2021 8:15:00 PM 21.87 71.366 0.305 8.85 17.44 11.52
5/21/2021 8:30:00 PM 21.81 71.258 0.305 8.84 17.73 11.42
5/21/2021 8:45:00 PM 21.74 71.132 0.306 8.82 17.8 11.29
5/21/2021 9:00:00 PM 21.67 71.006 0.306 8.81 18.01 11.14
5/21/2021 9:15:00 PM 21.6 70.88 0.306 8.79 18.36 11.04
5/21/2021 9:30:00 PM 21.54 70.772 0.306 8.77 17.31 10.9
5/21/2021 9:45:00 PM 21.48 70.664 0.307 8.77 16.13 10.82
5/21/2021 10:00:00 PM 21.41 70.538 0.307 8.76 15.38 10.72
5/21/2021 10:15:00 PM 21.35 70.43 0.307 8.74 15.44 10.62
5/21/2021 10:30:00 PM 21.28 70.304 0.307 8.73 15.58 10.52
5/21/2021 10:45:00 PM 21.21 70.17799 0.308 8.72 15.54 10.44
5/21/2021 11:00:00 PM 21.15 70.07 0.308 8.7 15.56 10.33
5/21/2021 11:15:00 PM 21.08 69.944 0.308 8.69 15.7 10.24
5/21/2021 11:30:00 PM 21.01 69.818 0.308 8.67 15.93 10.15
5/21/2021 11:45:00 PM 20.94 69.692 0.308 8.66 15.66 10.06
5/22/2021 12:00:00 AM 20.87 69.566 0.308 8.65 16.02 10.01
5/22/2021 12:15:00 AM 20.8 69.44 0.309 8.62 16.06 9.92
5/22/2021 12:30:00 AM 20.74 69.332 0.309 8.62 15.47 9.84
5/22/2021 12:45:00 AM 20.68 69.224 0.309 8.6 16.5 9.79
5/22/2021 1:00:00 AM 20.63 69.134 0.309 8.59 17.22 9.73
5/22/2021 1:15:00 AM 20.57 69.026 0.309 8.58 16.9 9.67
5/22/2021 1:30:00 AM 20.52 68.936 0.309 8.55 16.9 9.59
5/22/2021 1:45:00 AM 20.47 68.846 0.309 8.55 16.92 9.53
5/22/2021 2:00:00 AM 20.42 68.756 0.309 8.54 16.93 9.51
5/22/2021 2:15:00 AM 20.38 68.684 0.31 8.52 16.49 9.43
5/22/2021 2:30:00 AM 20.35 68.63 0.31 8.52 16.78 9.4
5/22/2021 2:45:00 AM 20.32 68.576 0.31 8.51 16.97 9.35
5/22/2021 3:00:00 AM 20.28 68.504 0.31 8.5 16.68 9.32
5/22/2021 3:15:00 AM 20.26 68.468 0.31 8.49 16.7 9.23
5/22/2021 3:30:00 AM 20.24 68.432 0.31 8.47 16.74 9.21
5/22/2021 3:45:00 AM 20.21 68.378 0.31 8.46 16.88 9.16
5/22/2021 4:00:00 AM 20.18 68.324 0.31 8.45 17.1 9.12
5/22/2021 4:15:00 AM 20.17 68.306 0.31 8.43 17.22 9.08
5/22/2021 4:30:00 AM 20.15 68.27 0.31 8.42 17.18 9.02
5/22/2021 4:45:00 AM 20.13 68.234 0.31 8.41 18.63 8.98
5/22/2021 5:00:00 AM 20.1 68.18 0.311 8.39 17.71 8.94
5/22/2021 5:15:00 AM 20.09 68.162 0.311 8.38 17.85 8.88
5/22/2021 5:30:00 AM 20.07 68.126 0.311 8.37 17.97 8.83
5/22/2021 5:45:00 AM 20.06 68.108 0.311 8.35 17.05 8.81
5/22/2021 6:00:00 AM 20.03 68.054 0.311 8.35 17.36 8.79
5/22/2021 6:15:00 AM 20.02 68.036 0.311 8.33 18.92 8.74
5/22/2021 6:30:00 AM 20.02 68.036 0.311 8.32 17.07 8.74
5/22/2021 6:45:00 AM 20 68 0.312 8.31 17.12 8.7
5/22/2021 7:00:00 AM 20.01 68.018 0.312 8.31 17.12 8.71
5/22/2021 7:15:00 AM 20 68 0.312 8.3 17.6 8.73
5/22/2021 7:30:00 AM 20.01 68.018 0.312 8.31 19.32 8.78
5/22/2021 7:45:00 AM 20.02 68.036 0.312 8.3 16.53 8.84
5/22/2021 8:00:00 AM 20.07 68.126 0.312 8.32 16.59 8.91
5/22/2021 8:15:00 AM 20.11 68.198 0.312 8.33 16.3 9.01
5/22/2021 8:30:00 AM 20.14 68.252 0.312 8.35 16.27 9.09
5/22/2021 8:45:00 AM 20.16 68.288 0.312 8.37 16.49 9.2
5/22/2021 9:00:00 AM 20.22 68.396 0.312 8.4 16.55 9.38
5/22/2021 9:15:00 AM 20.31 68.558 0.312 8.42 16.47 9.45
5/22/2021 9:30:00 AM 20.38 68.684 0.312 8.44 16.53 9.56
5/22/2021 9:45:00 AM 20.46 68.828 0.313 8.46 16.86 9.72
5/22/2021 10:00:00 AM 20.56 69.008 0.313 8.49 16.66 9.83
5/22/2021 10:15:00 AM 20.62 69.116 0.313 8.51 16.77 9.93
5/22/2021 10:30:00 AM 20.68 69.224 0.313 8.52 16.83 10.08
5/22/2021 10:45:00 AM 20.77 69.386 0.313 8.55 16.75 10.21
5/22/2021 11:00:00 AM 20.85 69.53 0.313 8.58 16.77 10.33
5/22/2021 11:15:00 AM 20.93 69.674 0.313 8.6 16.72 10.45
5/22/2021 11:30:00 AM 21.01 69.818 0.313 8.61 19.21 10.54
5/22/2021 11:45:00 AM 21.08 69.944 0.313 8.63 15.91 10.61
5/22/2021 12:00:00 PM 21.17 70.106 0.313 8.65 15.11 10.77
5/22/2021 12:15:00 PM 21.26 70.268 0.313 8.68 15.15 10.89
5/22/2021 12:30:00 PM 21.32 70.376 0.313 8.69 15.4 10.98
5/22/2021 12:45:00 PM 21.41 70.538 0.313 8.71 14.83 11.04
5/22/2021 1:00:00 PM 21.46 70.628 0.313 8.73 15 11.09
5/22/2021 1:15:00 PM 21.56 70.808 0.313 8.73 14.99 11.25
5/22/2021 1:30:00 PM 21.64 70.952 0.313 8.75 14.95 11.3
5/22/2021 1:45:00 PM 21.66 70.988 0.313 8.76 15.31 11.38
5/22/2021 2:00:00 PM 21.71 71.078 0.313 8.77 15.22 11.42
5/22/2021 2:15:00 PM 21.78 71.204 0.313 8.76 15.26 11.5
5/22/2021 2:30:00 PM 21.83 71.294 0.313 8.79 15.28 11.54
5/22/2021 2:45:00 PM 21.87 71.366 0.313 8.79 15.26 11.61
5/22/2021 3:00:00 PM 21.91 71.438 0.313 8.81 15.78 11.63
5/22/2021 3:15:00 PM 21.89 71.402 0.313 8.81 15.23 11.7
5/22/2021 3:30:00 PM 21.89 71.402 0.313 8.82 15.1 11.73
5/22/2021 3:45:00 PM 21.93 71.474 0.313 8.83 15.3 11.79
5/22/2021 4:00:00 PM 21.97 71.546 0.313 8.82 14.84 11.79
5/22/2021 4:15:00 PM 21.96 71.528 0.313 8.82 15.1 11.75
5/22/2021 4:30:00 PM 21.94 71.492 0.313 8.84 15.06 11.83
5/22/2021 4:45:00 PM 21.96 71.528 0.313 8.84 15.44 11.83
5/22/2021 5:00:00 PM 21.97 71.546 0.313 8.83 15.6 11.82
5/22/2021 5:15:00 PM 21.96 71.528 0.313 8.85 15.72 11.85
5/22/2021 5:30:00 PM 21.92 71.456 0.313 8.85 15.19 11.86
5/22/2021 5:45:00 PM 21.88 71.384 0.313 8.84 15.2 11.86
5/22/2021 6:00:00 PM 21.85 71.33 0.314 8.85 15.12 11.82
5/22/2021 6:15:00 PM 21.82 71.276 0.314 8.85 15.13 11.77
5/22/2021 6:30:00 PM 21.76 71.168 0.314 8.84 15.17 11.74
5/22/2021 6:45:00 PM 21.7 71.06 0.314 8.84 15.22 11.66
5/22/2021 7:00:00 PM 21.66 70.988 0.314 8.84 15.31 11.63
5/22/2021 7:15:00 PM 21.62 70.916 0.314 8.82 15.51 11.52
5/22/2021 7:30:00 PM 21.57 70.826 0.315 8.82 17.11 11.47
5/22/2021 7:45:00 PM 21.53 70.754 0.315 8.81 15.42 11.39
5/22/2021 8:00:00 PM 21.47 70.646 0.315 8.8 15.41 11.25
5/22/2021 8:15:00 PM 21.41 70.538 0.315 8.8 15.28 11.16
5/22/2021 8:30:00 PM 21.35 70.43 0.316 8.78 16.03 11.06
5/22/2021 8:45:00 PM 21.29 70.32201 0.316 8.76 15.86 10.94
5/22/2021 9:00:00 PM 21.23 70.214 0.316 8.75 15.81 10.84
5/22/2021 9:15:00 PM 21.17 70.106 0.317 8.74 16.31 10.71
5/22/2021 9:30:00 PM 21.11 69.998 0.317 8.72 16.13 10.59
5/22/2021 9:45:00 PM 21.05 69.89 0.317 8.7 16 10.52
5/22/2021 10:00:00 PM 21 69.8 0.318 8.69 16.05 10.4
5/22/2021 10:15:00 PM 20.95 69.71 0.318 8.68 16.31 10.33
5/22/2021 10:30:00 PM 20.9 69.62 0.318 8.67 16.02 10.22
5/22/2021 10:45:00 PM 20.86 69.548 0.319 8.65 15.85 10.15
5/22/2021 11:00:00 PM 20.81 69.458 0.319 8.64 15.92 10.06
5/22/2021 11:15:00 PM 20.77 69.386 0.319 8.63 16.2 9.97
5/22/2021 11:30:00 PM 20.73 69.314 0.319 8.62 15.92 9.91
5/22/2021 11:45:00 PM 20.69 69.242 0.319 8.6 16.25 9.85
5/23/2021 12:00:00 AM 20.66 69.188 0.32 8.61 16.13 9.83
5/23/2021 12:15:00 AM 20.62 69.116 0.32 8.59 16.34 9.76
5/23/2021 12:30:00 AM 20.58 69.044 0.32 8.58 16.46 9.7
5/23/2021 12:45:00 AM 20.55 68.99 0.32 8.57 16.25 9.66
5/23/2021 1:00:00 AM 20.51 68.918 0.32 8.56 16.05 9.6
5/23/2021 1:15:00 AM 20.47 68.846 0.321 8.55 16.44 9.56
5/23/2021 1:30:00 AM 20.43 68.774 0.321 8.54 16.68 9.49
5/23/2021 1:45:00 AM 20.39 68.702 0.321 8.53 16.54 9.43
5/23/2021 2:00:00 AM 20.35 68.63 0.321 8.52 16.72 9.39
5/23/2021 2:15:00 AM 20.31 68.558 0.321 8.52 16.89 9.38
5/23/2021 2:30:00 AM 20.28 68.504 0.322 8.5 16.67 9.3
5/23/2021 2:45:00 AM 20.24 68.432 0.322 8.5 16.69 9.27
5/23/2021 3:00:00 AM 20.2 68.36 0.322 8.48 18.88 9.19
5/23/2021 3:15:00 AM 20.16 68.288 0.322 8.48 17.61 9.17
5/23/2021 3:30:00 AM 20.13 68.234 0.323 8.46 17.78 9.14
5/23/2021 3:45:00 AM 20.09 68.162 0.323 8.45 17.63 9.08
5/23/2021 4:00:00 AM 20.04 68.07201 0.323 8.44 17.43 9.05
5/23/2021 4:15:00 AM 20.01 68.018 0.324 8.43 17.36 9.01
5/23/2021 4:30:00 AM 19.97 67.946 0.324 8.42 17.27 8.97
5/23/2021 4:45:00 AM 19.94 67.892 0.324 8.41 17.37 8.92
5/23/2021 5:00:00 AM 19.91 67.838 0.324 8.39 18.11 8.87
5/23/2021 5:15:00 AM 19.87 67.766 0.324 8.38 18.55 8.83
5/23/2021 5:30:00 AM 19.84 67.712 0.324 8.36 56.71 8.79
5/23/2021 5:45:00 AM 19.81 67.658 0.325 8.35 19.3 8.77
5/23/2021 6:00:00 AM 19.79 67.622 0.325 8.34 22.1 8.69
5/23/2021 6:15:00 AM 19.76 67.568 0.325 8.31 22.25 8.7
5/23/2021 6:30:00 AM 19.73 67.514 0.325 8.31 22.04 8.64
5/23/2021 6:45:00 AM 19.72 67.496 0.325 8.31 21.98 8.65
5/23/2021 7:00:00 AM 19.71 67.478 0.325 8.29 22.29 8.65
5/23/2021 7:15:00 AM 19.71 67.478 0.325 8.29 21.6 8.69
5/23/2021 7:30:00 AM 19.71 67.478 0.325 8.29 21.6 8.71
5/23/2021 7:45:00 AM 19.74 67.532 0.325 8.3 21.61 8.8
5/23/2021 8:00:00 AM 19.79 67.622 0.325 8.32 21.22 8.9
5/23/2021 8:15:00 AM 19.84 67.712 0.325 8.33 21.34 8.98
5/23/2021 8:30:00 AM 19.89 67.802 0.325 8.35 20.97 9.08
5/23/2021 8:45:00 AM 19.97 67.946 0.325 8.36 21.13 9.22
5/23/2021 9:00:00 AM 20.06 68.108 0.325 8.39 21.1 9.37
5/23/2021 9:15:00 AM 20.14 68.252 0.325 8.42 21.53 9.52
5/23/2021 9:30:00 AM 20.23 68.414 0.325 8.43 21.12 9.59
5/23/2021 9:45:00 AM 20.35 68.63 0.325 8.46 20.84 9.72
5/23/2021 10:00:00 AM 20.47 68.846 0.325 8.46 35.27 9.82
5/23/2021 10:15:00 AM 20.63 69.134 0.325 8.5 21.13 9.96
5/23/2021 10:30:00 AM 20.74 69.332 0.325 8.51 20.85 10.08
5/23/2021 10:45:00 AM 20.91 69.638 0.325 8.55 20.77 10.23
5/23/2021 11:00:00 AM 21.06 69.908 0.325 8.58 20.69 10.37
5/23/2021 11:15:00 AM 21.12 70.016 0.325 8.59 20.5 10.36
5/23/2021 11:30:00 AM 21.14 70.052 0.324 8.6 20.8 10.41
5/23/2021 11:45:00 AM 21.18 70.124 0.324 8.61 21.83 10.49
5/23/2021 12:00:00 PM 21.3 70.34 0.324 8.63 21.05 10.58
5/23/2021 12:15:00 PM 21.42 70.556 0.324 8.64 20.47 10.66
5/23/2021 12:30:00 PM 21.6 70.88 0.324 8.64 21.33 10.75
5/23/2021 12:45:00 PM 21.78 71.204 0.324 8.67 22.68 10.85
5/23/2021 1:00:00 PM 21.82 71.276 0.325 8.67 22.76 10.76
5/23/2021 1:15:00 PM 21.91 71.438 0.324 8.68 24.52 10.9
5/23/2021 1:30:00 PM 21.97 71.546 0.325 8.7 21.93 10.96
5/23/2021 1:45:00 PM 22.06 71.708 0.325 8.71 24.42 10.97
5/23/2021 2:00:00 PM 22.08 71.744 0.325 8.7 22.6 10.99
5/23/2021 2:15:00 PM 22.17 71.906 0.325 8.72 20.92 11.07
5/23/2021 2:30:00 PM 22.21 71.978 0.325 8.73 20.58 11.07
5/23/2021 2:45:00 PM 22.19 71.942 0.325 8.73 20.61 11.04
5/23/2021 3:00:00 PM 22.16 71.888 0.325 8.74 20.41 11.07
5/23/2021 3:15:00 PM 22.17 71.906 0.325 8.73 20.8 11.13
5/23/2021 3:30:00 PM 22.19 71.942 0.325 8.75 20.39 11.11
5/23/2021 3:45:00 PM 22.12 71.816 0.325 8.73 21.48 11
5/23/2021 4:00:00 PM 22.12 71.816 0.325 8.74 20.74 11.02
5/23/2021 4:15:00 PM 22.13 71.834 0.325 8.73 20.65 10.98
5/23/2021 4:30:00 PM 22.08 71.744 0.325 8.73 20.53 10.9
5/23/2021 4:45:00 PM 22.04 71.672 0.325 8.72 20.81 10.99
5/23/2021 5:00:00 PM 22 71.6 0.325 8.74 21 10.98
5/23/2021 5:15:00 PM 21.92 71.456 0.326 8.73 20.63 10.9
5/23/2021 5:30:00 PM 21.84 71.312 0.326 8.72 22.89 10.81
5/23/2021 5:45:00 PM 21.76 71.168 0.326 8.71 20.23 10.75
5/23/2021 6:00:00 PM 21.68 71.024 0.326 8.69 20.69 10.63
5/23/2021 6:15:00 PM 21.59 70.862 0.327 8.67 20 10.58
5/23/2021 6:30:00 PM 21.51 70.718 0.327 8.67 20.31 10.51
5/23/2021 6:45:00 PM 21.45 70.61 0.327 8.66 20.25 10.45
5/23/2021 7:00:00 PM 21.38 70.484 0.328 8.66 19.94 10.43
5/23/2021 7:15:00 PM 21.3 70.34 0.328 8.64 19.87 10.35
5/23/2021 7:30:00 PM 21.21 70.17799 0.328 8.63 19.99 10.28
5/23/2021 7:45:00 PM 21.13 70.034 0.329 8.62 20.19 10.2
5/23/2021 8:00:00 PM 21.06 69.908 0.329 8.6 19.82 10.11
5/23/2021 8:15:00 PM 20.99 69.782 0.329 8.59 19.69 10.07
5/23/2021 8:30:00 PM 20.92 69.656 0.33 8.59 19.51 9.99
5/23/2021 8:45:00 PM 20.85 69.53 0.33 8.57 21.61 9.91
5/23/2021 9:00:00 PM 20.79 69.422 0.33 8.56 20.27 9.88
5/23/2021 9:15:00 PM 20.73 69.314 0.33 8.54 19.86 9.76
5/23/2021 9:30:00 PM 20.66 69.188 0.331 8.54 20.2 9.7
5/23/2021 9:45:00 PM 20.59 69.062 0.331 8.52 19.61 9.65
5/23/2021 10:00:00 PM 20.52 68.936 0.331 8.51 20.42 9.59
5/23/2021 10:15:00 PM 20.45 68.81 0.331 8.5 20.03 9.52
5/23/2021 10:30:00 PM 20.39 68.702 0.332 8.48 20.45 9.47
5/23/2021 10:45:00 PM 20.33 68.594 0.332 8.46 19.83 9.41
5/23/2021 11:00:00 PM 20.27 68.486 0.332 8.47 20.28 9.39
5/23/2021 11:15:00 PM 20.22 68.396 0.332 8.46 20.07 9.35
5/23/2021 11:30:00 PM 20.16 68.288 0.332 8.44 20.23 9.29
5/23/2021 11:45:00 PM 20.1 68.18 0.333 8.44 20 9.27
5/24/2021 12:00:00 AM 20.04 68.07201 0.333 8.43 20.25 9.24
5/24/2021 12:15:00 AM 19.97 67.946 0.333 8.42 19.92 9.21
5/24/2021 12:30:00 AM 19.92 67.856 0.333 8.41 20.58 9.17
5/24/2021 12:45:00 AM 19.85 67.73 0.333 8.4 20.58 9.12
5/24/2021 1:00:00 AM 19.79 67.622 0.333 8.39 20.35 9.08
5/24/2021 1:15:00 AM 19.73 67.514 0.334 8.4 20.49 9.09
5/24/2021 1:30:00 AM 19.66 67.388 0.334 8.38 20.32 9.05
5/24/2021 1:45:00 AM 19.6 67.28 0.334 8.38 20.3 9.02
5/24/2021 2:00:00 AM 19.54 67.172 0.334 8.37 20.26 9
5/24/2021 2:15:00 AM 19.47 67.046 0.334 8.36 20.38 8.97
5/24/2021 2:30:00 AM 19.4 66.92 0.335 8.36 20.96 8.99
5/24/2021 2:45:00 AM 19.33 66.794 0.335 8.34 20.63 8.95
5/24/2021 3:00:00 AM 19.27 66.686 0.335 8.35 20.76 8.9
5/24/2021 3:15:00 AM 19.2 66.56 0.335 8.34 20.67 8.9
5/24/2021 3:30:00 AM 19.14 66.452 0.335 8.33 20.78 8.88
5/24/2021 3:45:00 AM 19.07 66.326 0.336 8.33 21.48 8.84
5/24/2021 4:00:00 AM 19.01 66.218 0.336 8.32 21.28 8.83
5/24/2021 4:15:00 AM 18.95 66.11 0.336 8.32 21.06 8.82
5/24/2021 4:30:00 AM 18.89 66.002 0.336 8.29 21.2 8.8
5/24/2021 4:45:00 AM 18.84 65.912 0.337 8.29 21.14 8.78
5/24/2021 5:00:00 AM 18.79 65.82201 0.337 8.28 21.72 8.72
5/24/2021 5:15:00 AM 18.75 65.75 0.337 8.27 21.75 8.72
5/24/2021 5:30:00 AM 18.71 65.67799 0.338 8.27 21.21 8.69
5/24/2021 5:45:00 AM 18.67 65.606 0.338 8.26 21.35 8.68
5/24/2021 6:00:00 AM 18.62 65.516 0.338 8.25 21.09 8.66
5/24/2021 6:15:00 AM 18.58 65.444 0.338 8.24 21.37 8.66
5/24/2021 6:30:00 AM 18.55 65.39 0.339 8.22 21.28 8.65
5/24/2021 6:45:00 AM 18.53 65.354 0.339 8.22 21.29 8.67
5/24/2021 7:00:00 AM 18.51 65.318 0.339 8.22 21.11 8.66
5/24/2021 7:15:00 AM 18.49 65.282 0.339 8.22 21.02 8.68
5/24/2021 7:30:00 AM 18.48 65.264 0.339 8.22 20.94 8.75
5/24/2021 7:45:00 AM 18.48 65.264 0.339 8.22 20.97 8.83
5/24/2021 8:00:00 AM 18.49 65.282 0.34 8.24 21.26 8.91
5/24/2021 8:15:00 AM 18.51 65.318 0.34 8.25 21.26 9.02
5/24/2021 8:30:00 AM 18.53 65.354 0.34 8.24 21.36 9.1
5/24/2021 8:45:00 AM 18.6 65.48 0.34 8.27 21.2 9.22
5/24/2021 9:00:00 AM 18.67 65.606 0.34 8.3 21.51 9.34
5/24/2021 9:15:00 AM 18.71 65.67799 0.34 8.32 21.37 9.48
5/24/2021 9:30:00 AM 18.8 65.84 0.34 8.33 21.15 9.58
5/24/2021 9:45:00 AM 18.89 66.002 0.34 8.36 21.49 9.74
5/24/2021 10:00:00 AM 18.97 66.146 0.34 8.38 21.52 9.86
5/24/2021 10:15:00 AM 19.1 66.38 0.34 8.41 21.41 9.99
5/24/2021 10:30:00 AM 19.24 66.632 0.34 8.43 21.33 10.17
5/24/2021 10:45:00 AM 19.29 66.722 0.34 8.45 21.37 10.25
5/24/2021 11:00:00 AM 19.36 66.848 0.34 8.47 21.33 10.33
5/24/2021 11:15:00 AM 19.46 67.028 0.34 8.49 21 10.45
5/24/2021 11:30:00 AM 19.55 67.19 0.34 8.51 21.32 10.54
5/24/2021 11:45:00 AM 19.61 67.298 0.34 8.53 21.3 10.64
5/24/2021 12:00:00 PM 19.7 67.46 0.34 8.54 21.25 10.66
5/24/2021 12:15:00 PM 19.79 67.622 0.34 8.56 21.01 10.8
5/24/2021 12:30:00 PM 19.94 67.892 0.34 8.57 20.89 10.94
5/24/2021 12:45:00 PM 20.07 68.126 0.339 8.6 20.89 11.03
5/24/2021 1:00:00 PM 20.17 68.306 0.339 8.61 20.86 11.09
5/24/2021 1:15:00 PM 20.22 68.396 0.339 8.63 20.88 11.18
5/24/2021 1:30:00 PM 20.34 68.612 0.339 8.64 20.58 11.22
5/24/2021 1:45:00 PM 20.45 68.81 0.339 8.65 21.04 11.31
5/24/2021 2:00:00 PM 20.54 68.972 0.339 8.66 20.55 11.35
5/24/2021 2:15:00 PM 20.61 69.098 0.339 8.67 20.57 11.41
5/24/2021 2:30:00 PM 20.67 69.206 0.339 8.69 20.44 11.48
5/24/2021 2:45:00 PM 20.73 69.314 0.341 8.7 20.5 11.51
5/24/2021 3:00:00 PM 20.85 69.53 0.341 8.7 20.41 11.57
5/24/2021 3:15:00 PM 20.9 69.62 0.341 8.71 20.52 11.62
5/24/2021 3:30:00 PM 20.98 69.764 0.341 8.72 20.87 11.62
5/24/2021 3:45:00 PM 21.06 69.908 0.341 8.73 23.91 11.62
5/24/2021 4:00:00 PM 21.03 69.854 0.341 8.74 23.25 11.63
5/24/2021 4:15:00 PM 21.05 69.89 0.341 8.74 22.29 11.66
5/24/2021 4:30:00 PM 21.05 69.89 0.341 8.74 21.82 11.62
5/24/2021 4:45:00 PM 21.05 69.89 0.341 8.74 21.64 11.69
5/24/2021 5:00:00 PM 21.08 69.944 0.341 8.75 21.71 11.66
5/24/2021 5:15:00 PM 21.07 69.926 0.341 8.76 22.15 11.68
5/24/2021 5:30:00 PM 21.05 69.89 0.341 8.76 21.54 11.66
5/24/2021 5:45:00 PM 21.01 69.818 0.341 8.75 22.32 11.61
5/24/2021 6:00:00 PM 21.02 69.836 0.341 8.76 21.87 11.59
5/24/2021 6:15:00 PM 21.04 69.872 0.341 8.76 21.71 11.61
5/24/2021 6:30:00 PM 21.06 69.908 0.341 8.76 21.55 11.63
5/24/2021 6:45:00 PM 21.03 69.854 0.341 8.78 21.89 11.59
5/24/2021 7:00:00 PM 20.97 69.746 0.341 8.78 21.59 11.56
5/24/2021 7:15:00 PM 20.89 69.602 0.341 8.77 21.74 11.48
5/24/2021 7:30:00 PM 20.81 69.458 0.342 8.76 22.91 11.38
5/24/2021 7:45:00 PM 20.73 69.314 0.342 8.76 21.73 11.36
5/24/2021 8:00:00 PM 20.65 69.17 0.342 8.75 21.5 11.26
5/24/2021 8:15:00 PM 20.57 69.026 0.342 8.74 22.24 11.15
5/24/2021 8:30:00 PM 20.5 68.9 0.342 8.73 21.79 11.07
5/24/2021 8:45:00 PM 20.45 68.81 0.342 8.71 21.74 10.98
5/24/2021 9:00:00 PM 20.39 68.702 0.341 8.71 21.54 10.9
5/24/2021 9:15:00 PM 20.35 68.63 0.341 8.71 21.81 10.83
5/24/2021 9:30:00 PM 20.29 68.522 0.341 8.69 21.87 10.72
5/24/2021 9:45:00 PM 20.24 68.432 0.341 8.68 22.35 10.61
5/24/2021 10:00:00 PM 20.18 68.324 0.342 8.66 21.83 10.54
5/24/2021 10:15:00 PM 20.11 68.198 0.342 8.66 21.78 10.44
5/24/2021 10:30:00 PM 20.04 68.07201 0.342 8.65 21.79 10.37
5/24/2021 10:45:00 PM 19.96 67.92799 0.342 8.64 21.5 10.31
5/24/2021 11:00:00 PM 19.89 67.802 0.342 8.63 21.94 10.23
5/24/2021 11:15:00 PM 19.81 67.658 0.342 8.62 21.96 10.17
5/24/2021 11:30:00 PM 19.73 67.514 0.342 8.6 22.26 10.09
5/24/2021 11:45:00 PM 19.66 67.388 0.342 8.61 22.01 10.02
5/25/2021 12:00:00 AM 19.6 67.28 0.342 8.6 22.3 9.95
5/25/2021 12:15:00 AM 19.54 67.172 0.342 8.59 22.24 9.91
5/25/2021 12:30:00 AM 19.48 67.064 0.342 8.58 22.02 9.86
5/25/2021 12:45:00 AM 19.43 66.974 0.342 8.58 22.02 9.82
5/25/2021 1:00:00 AM 19.38 66.884 0.343 8.57 21.84 9.76
5/25/2021 1:15:00 AM 19.33 66.794 0.343 8.57 22.23 9.74
5/25/2021 1:30:00 AM 19.29 66.722 0.343 8.57 22.08 9.69
5/25/2021 1:45:00 AM 19.24 66.632 0.343 8.56 22.18 9.66
5/25/2021 2:00:00 AM 19.2 66.56 0.343 8.55 21.79 9.63
5/25/2021 2:15:00 AM 19.15 66.47 0.343 8.55 22.57 9.6
5/25/2021 2:30:00 AM 19.11 66.398 0.343 8.54 22.87 9.57
5/25/2021 2:45:00 AM 19.07 66.326 0.344 8.53 22.1 9.51
5/25/2021 3:00:00 AM 19.02 66.236 0.344 8.53 22.48 9.47
5/25/2021 3:15:00 AM 18.98 66.164 0.344 8.52 22.31 9.42
5/25/2021 3:30:00 AM 18.94 66.092 0.344 8.52 22.85 9.42
5/25/2021 3:45:00 AM 18.89 66.002 0.344 8.52 22.23 9.37
5/25/2021 4:00:00 AM 18.85 65.93 0.344 8.51 22.33 9.36
5/25/2021 4:15:00 AM 18.81 65.858 0.344 8.51 22.59 9.36
5/25/2021 4:30:00 AM 18.78 65.804 0.344 8.5 22.27 9.3
5/25/2021 4:45:00 AM 18.74 65.732 0.345 8.48 22.81 9.24
5/25/2021 5:00:00 AM 18.7 65.66 0.345 8.49 22.4 9.25
5/25/2021 5:15:00 AM 18.67 65.606 0.345 8.48 22.34 9.2
5/25/2021 5:30:00 AM 18.64 65.552 0.346 8.47 22.55 9.17
5/25/2021 5:45:00 AM 18.61 65.498 0.346 8.47 22.86 9.15
5/25/2021 6:00:00 AM 18.57 65.426 0.346 8.44 21.72 9.11
5/25/2021 6:15:00 AM 18.55 65.39 0.347 8.44 22.88 9.06
5/25/2021 6:30:00 AM 18.52 65.336 0.347 8.44 21.91 9.05
5/25/2021 6:45:00 AM 18.5 65.3 0.347 8.43 21.61 9.03
5/25/2021 7:00:00 AM 18.48 65.264 0.347 8.43 21.69 9.03
5/25/2021 7:15:00 AM 18.47 65.246 0.348 8.42 21.67 9.04
5/25/2021 7:30:00 AM 18.46 65.228 0.348 8.41 21.91 9.06
5/25/2021 7:45:00 AM 18.46 65.228 0.348 8.42 21.41 9.07
5/25/2021 8:00:00 AM 18.46 65.228 0.348 8.42 21.47 9.12
5/25/2021 8:15:00 AM 18.48 65.264 0.348 8.43 21.48 9.18
5/25/2021 8:30:00 AM 18.5 65.3 0.348 8.43 21.78 9.22
5/25/2021 8:45:00 AM 18.52 65.336 0.348 8.44 21.89 9.32
5/25/2021 9:00:00 AM 18.57 65.426 0.348 8.45 21.52 9.43
5/25/2021 9:15:00 AM 18.61 65.498 0.348 8.47 22.01 9.53
5/25/2021 9:30:00 AM 18.69 65.642 0.348 8.47 21.65 9.64
5/25/2021 9:45:00 AM 18.8 65.84 0.348 8.49 21.75 9.71
5/25/2021 10:00:00 AM 18.88 65.984 0.348 8.5 21.71 9.82
5/25/2021 10:15:00 AM 18.98 66.164 0.348 8.52 21.63 9.93
5/25/2021 10:30:00 AM 19.08 66.344 0.348 8.53 21.64 10
5/25/2021 10:45:00 AM 19.24 66.632 0.348 8.54 21.78 10.09
5/25/2021 11:00:00 AM 19.38 66.884 0.348 8.55 22.31 10.17
5/25/2021 11:15:00 AM 19.54 67.172 0.349 8.56 21.8 10.27
5/25/2021 11:30:00 AM 19.67 67.406 0.349 8.57 22.29 10.34
5/25/2021 11:45:00 AM 19.85 67.73 0.349 8.59 20.88 10.46
5/25/2021 12:00:00 PM 20.02 68.036 0.349 8.6 20.96 10.55
5/25/2021 12:15:00 PM 20.17 68.306 0.35 8.6 21.51 10.52
5/25/2021 12:30:00 PM 20.31 68.558 0.35 8.62 21.1 10.7
5/25/2021 12:45:00 PM 20.46 68.828 0.35 8.63 21.12 10.73
5/25/2021 1:00:00 PM 20.64 69.152 0.35 8.63 20.73 10.78
5/25/2021 1:15:00 PM 20.85 69.53 0.35 8.65 20.86 10.88
5/25/2021 1:30:00 PM 20.97 69.746 0.35 8.66 20.6 10.92
5/25/2021 1:45:00 PM 21.15 70.07 0.35 8.66 20.21 11
5/25/2021 2:00:00 PM 21.35 70.43 0.35 8.67 20.13 11.03
5/25/2021 2:15:00 PM 21.45 70.61 0.35 8.67 20.44 11.01
5/25/2021 2:30:00 PM 21.54 70.772 0.35 8.68 20.9 11.1
5/25/2021 2:45:00 PM 21.7 71.06 0.35 8.69 20.86 11.15
5/25/2021 3:00:00 PM 21.86 71.348 0.35 8.7 20.96 11.16
5/25/2021 3:15:00 PM 21.96 71.528 0.35 8.7 20.53 11.16
5/25/2021 3:30:00 PM 22.07 71.726 0.35 8.7 20.59 11.17
5/25/2021 3:45:00 PM 22.17 71.906 0.35 8.71 20.69 11.19
5/25/2021 4:00:00 PM 22.28 72.104 0.35 8.7 21.08 11.21
5/25/2021 4:15:00 PM 22.4 72.32 0.35 8.71 20.57 11.25
5/25/2021 4:30:00 PM 22.46 72.42799 0.35 8.71 20.57 11.23
5/25/2021 4:45:00 PM 22.54 72.57201 0.35 8.72 19.88 11.22
5/25/2021 5:00:00 PM 22.58 72.644 0.35 8.71 19.96 11.21
5/25/2021 5:15:00 PM 22.62 72.716 0.35 8.72 19.9 11.23
5/25/2021 5:30:00 PM 22.64 72.752 0.35 8.72 19.86 11.2
5/25/2021 5:45:00 PM 22.64 72.752 0.351 8.72 19.72 11.17
5/25/2021 6:00:00 PM 22.62 72.716 0.351 8.71 19.74 11.11
5/25/2021 6:15:00 PM 22.62 72.716 0.351 8.72 19.85 11.14
5/25/2021 6:30:00 PM 22.59 72.662 0.351 8.71 19.78 11.08
5/25/2021 6:45:00 PM 22.56 72.608 0.351 8.71 19.95 11.08
5/25/2021 7:00:00 PM 22.53 72.554 0.351 8.7 20.1 10.98
5/25/2021 7:15:00 PM 22.48 72.464 0.351 8.69 19.81 10.97
5/25/2021 7:30:00 PM 22.43 72.374 0.351 8.69 20.34 10.88
5/25/2021 7:45:00 PM 22.38 72.284 0.352 8.69 20.11 10.83
5/25/2021 8:00:00 PM 22.32 72.176 0.352 8.67 20.26 10.68
5/25/2021 8:15:00 PM 22.26 72.068 0.352 8.65 20.05 10.62
5/25/2021 8:30:00 PM 22.21 71.978 0.352 8.65 20.18 10.52
5/25/2021 8:45:00 PM 22.15 71.87 0.352 8.63 20.58 10.4
5/25/2021 9:00:00 PM 22.09 71.762 0.353 8.62 20.61 10.31
5/25/2021 9:15:00 PM 22.02 71.636 0.353 8.61 20.46 10.25
5/25/2021 9:30:00 PM 21.95 71.51 0.353 8.59 21.05 10.12
5/25/2021 9:45:00 PM 21.88 71.384 0.353 8.58 20.87 10.04
5/25/2021 10:00:00 PM 21.8 71.24 0.354 8.55 20.69 9.93
5/25/2021 10:15:00 PM 21.74 71.132 0.354 8.55 20.81 9.86
5/25/2021 10:30:00 PM 21.67 71.006 0.354 8.54 290.72 9.79
5/25/2021 10:45:00 PM 21.61 70.898 0.354 8.52 22.59 9.69
5/25/2021 11:00:00 PM 21.54 70.772 0.354 8.51 22.49 9.65
5/25/2021 11:15:00 PM 21.49 70.682 0.354 8.5 22.11 9.54
5/25/2021 11:30:00 PM 21.42 70.556 0.355 8.49 21.8 9.48
5/25/2021 11:45:00 PM 21.35 70.43 0.355 8.48 21.93 9.45
5/26/2021 12:00:00 AM 21.28 70.304 0.355 8.47 21.6 9.38
5/26/2021 12:15:00 AM 21.21 70.17799 0.355 8.45 22.03 9.31
5/26/2021 12:30:00 AM 21.14 70.052 0.355 8.45 21.88 9.26
5/26/2021 12:45:00 AM 21.07 69.926 0.356 8.44 21.76 9.21
5/26/2021 1:00:00 AM 21 69.8 0.356 8.43 22.29 9.21
5/26/2021 1:15:00 AM 20.94 69.692 0.356 8.41 21.96 9.16
5/26/2021 1:30:00 AM 20.88 69.584 0.356 8.42 22.06 9.1
5/26/2021 1:45:00 AM 20.82 69.476 0.356 8.41 21.96 9.08
5/26/2021 2:00:00 AM 20.76 69.368 0.356 8.4 22.01 9.06
5/26/2021 2:15:00 AM 20.7 69.26 0.356 8.41 21.65 9.02
5/26/2021 2:30:00 AM 20.63 69.134 0.356 8.4 22.1 9.01
5/26/2021 2:45:00 AM 20.57 69.026 0.357 8.39 21.92 8.96
5/26/2021 3:00:00 AM 20.51 68.918 0.357 8.39 21.96 8.94
5/26/2021 3:15:00 AM 20.45 68.81 0.357 8.38 22.03 8.88
5/26/2021 3:30:00 AM 20.4 68.72 0.357 8.37 22.63 8.87
5/26/2021 3:45:00 AM 20.35 68.63 0.357 8.36 22.33 8.82
5/26/2021 4:00:00 AM 20.29 68.522 0.357 8.36 22.32 8.81
5/26/2021 4:15:00 AM 20.24 68.432 0.357 8.35 22.06 8.81
5/26/2021 4:30:00 AM 20.19 68.342 0.358 8.35 22.29 8.76
5/26/2021 4:45:00 AM 20.14 68.252 0.358 8.35 22.3 8.74
5/26/2021 5:00:00 AM 20.1 68.18 0.358 8.34 22.21 8.7
5/26/2021 5:15:00 AM 20.06 68.108 0.358 8.34 22.09 8.68
5/26/2021 5:30:00 AM 20.02 68.036 0.358 8.32 22.16 8.65
5/26/2021 5:45:00 AM 19.98 67.964 0.358 8.32 22.23 8.61
5/26/2021 6:00:00 AM 19.95 67.91 0.359 8.31 22.03 8.57
5/26/2021 6:15:00 AM 19.93 67.874 0.359 8.3 22.9 8.57
5/26/2021 6:30:00 AM 19.91 67.838 0.359 8.31 22 8.57
5/26/2021 6:45:00 AM 19.89 67.802 0.359 8.3 22.18 8.56
5/26/2021 7:00:00 AM 19.88 67.784 0.359 8.3 22.19 8.56
5/26/2021 7:15:00 AM 19.88 67.784 0.36 8.3 22.05 8.57
5/26/2021 7:30:00 AM 19.87 67.766 0.36 8.29 21.96 8.62
5/26/2021 7:45:00 AM 19.91 67.838 0.36 8.3 22.17 8.69
5/26/2021 8:00:00 AM 19.96 67.92799 0.36 8.31 22.24 8.71
5/26/2021 8:15:00 AM 20.01 68.018 0.36 8.32 22.06 8.78
5/26/2021 8:30:00 AM 20.05 68.09 0.361 8.31 21.97 8.84
5/26/2021 8:45:00 AM 20.1 68.18 0.361 8.33 22.09 8.9
5/26/2021 9:00:00 AM 20.17 68.306 0.361 8.34 21.92 8.96
5/26/2021 9:15:00 AM 20.3 68.54 0.361 8.36 22.27 9.1
5/26/2021 9:30:00 AM 20.44 68.792 0.361 8.37 21.95 9.17
5/26/2021 9:45:00 AM 20.54 68.972 0.361 8.37 21.97 9.21
5/26/2021 10:00:00 AM 20.65 69.17 0.361 8.39 21.99 9.3
5/26/2021 10:15:00 AM 20.76 69.368 0.362 8.4 22.02 9.37
5/26/2021 10:30:00 AM 20.85 69.53 0.362 8.41 21.97 9.45
5/26/2021 10:45:00 AM 21.03 69.854 0.362 8.41 22.65 9.51
5/26/2021 11:00:00 AM 21.21 70.17799 0.362 8.42 22.43 9.58
5/26/2021 11:15:00 AM 21.4 70.52 0.362 8.44 22.32 9.68
5/26/2021 11:30:00 AM 21.59 70.862 0.362 8.45 22.84 9.74
5/26/2021 11:45:00 AM 21.79 71.222 0.362 8.46 22.3 9.82
5/26/2021 12:00:00 PM 21.99 71.582 0.363 8.47 22.1 9.89
5/26/2021 12:15:00 PM 22.21 71.978 0.363 8.47 22.98 9.99
5/26/2021 12:30:00 PM 22.31 72.158 0.363 8.48 22.66 9.99
5/26/2021 12:45:00 PM 22.48 72.464 0.363 8.49 22.94 10.05
5/26/2021 1:00:00 PM 22.63 72.734 0.363 8.49 22.41 10.08
5/26/2021 1:15:00 PM 22.74 72.932 0.363 8.5 22.1 10.06
5/26/2021 1:30:00 PM 22.9 73.22 0.363 8.5 22.62 10.16
5/26/2021 1:45:00 PM 23.09 73.562 0.363 8.51 22.22 10.18
5/26/2021 2:00:00 PM 23.15 73.67 0.363 8.5 22.64 10.14
5/26/2021 2:15:00 PM 23.15 73.67 0.363 8.5 29.21 10.08
5/26/2021 2:30:00 PM 23.3 73.94 0.363 8.51 24.72 10.11
5/26/2021 2:45:00 PM 23.49 74.282 0.363 8.52 23.55 10.18
5/26/2021 3:00:00 PM 23.5 74.3 0.364 8.51 22.62 10.12
5/26/2021 3:15:00 PM 23.54 74.372 0.364 8.52 22.67 10.15
5/26/2021 3:30:00 PM 23.67 74.606 0.364 8.52 22.5 10.18
5/26/2021 3:45:00 PM 23.79 74.82201 0.364 8.51 22.3 10.15
5/26/2021 4:00:00 PM 23.8 74.84 0.364 8.52 20.57 10.18
5/26/2021 4:15:00 PM 23.76 74.768 0.364 8.5 20.33 10.12
5/26/2021 4:30:00 PM 23.76 74.768 0.364 8.52 21.38 10.15
5/26/2021 4:45:00 PM 23.81 74.858 0.364 8.53 20.1 10.16
5/26/2021 5:00:00 PM 23.82 74.876 0.365 8.52 20.54 10.08
5/26/2021 5:15:00 PM 23.77 74.786 0.365 8.5 19.99 10
5/26/2021 5:30:00 PM 23.66 74.588 0.363 8.48 21.65 9.82
5/26/2021 5:45:00 PM 23.61 74.498 0.362 8.47 23.53 9.75
5/26/2021 6:00:00 PM 23.61 74.498 0.363 8.48 21.7 9.77
5/26/2021 6:15:00 PM 23.62 74.516 0.363 8.45 21.82 9.72
5/26/2021 6:30:00 PM 23.61 74.498 0.363 8.45 21.62 9.59
5/26/2021 6:45:00 PM 23.61 74.498 0.363 8.44 21.24 9.56
5/26/2021 7:00:00 PM 23.59 74.462 0.364 8.45 21.02 9.57
5/26/2021 7:15:00 PM 23.55 74.39 0.364 8.44 21.05 9.51
5/26/2021 7:30:00 PM 23.51 74.318 0.364 8.43 21.03 9.46
5/26/2021 7:45:00 PM 23.47 74.246 0.365 8.41 20.96 9.4
5/26/2021 8:00:00 PM 23.43 74.174 0.365 8.41 21.24 9.37
5/26/2021 8:15:00 PM 23.39 74.102 0.366 8.39 21.47 9.23
5/26/2021 8:30:00 PM 23.34 74.012 0.366 8.37 21.45 9.13
5/26/2021 8:45:00 PM 23.27 73.886 0.366 8.35 21.11 9.04
5/26/2021 9:00:00 PM 23.21 73.778 0.366 8.33 21.43 8.95
5/26/2021 9:15:00 PM 23.15 73.67 0.366 8.32 22.04 8.89
5/26/2021 9:30:00 PM 23.1 73.58 0.367 8.31 21.69 8.81
5/26/2021 9:45:00 PM 23.04 73.472 0.367 8.28 21.39 8.77
5/26/2021 10:00:00 PM 22.97 73.346 0.367 8.27 21.82 8.69
5/26/2021 10:15:00 PM 22.89 73.202 0.367 8.27 21.57 8.64
5/26/2021 10:30:00 PM 22.82 73.076 0.368 8.24 21.78 8.55
5/26/2021 10:45:00 PM 22.74 72.932 0.368 8.24 22.89 8.5
5/26/2021 11:00:00 PM 22.66 72.788 0.368 8.21 22.78 8.43
5/26/2021 11:15:00 PM 22.58 72.644 0.368 8.21 23.09 8.38
5/26/2021 11:30:00 PM 22.49 72.482 0.368 8.2 23.03 8.33
5/26/2021 11:45:00 PM 22.42 72.356 0.369 8.19 23.11 8.28
5/27/2021 12:00:00 AM 22.33 72.194 0.369 8.18 22.82 8.23
5/27/2021 12:15:00 AM 22.24 72.032 0.369 8.17 22.77 8.2
5/27/2021 12:30:00 AM 22.16 71.888 0.369 8.15 23.11 8.19
5/27/2021 12:45:00 AM 22.09 71.762 0.369 8.15 31.1 8.11
5/27/2021 1:00:00 AM 22.02 71.636 0.37 8.15 30.45 8.12
5/27/2021 1:15:00 AM 21.95 71.51 0.37 8.14 29.79 8.09
5/27/2021 1:30:00 AM 21.88 71.384 0.37 8.14 30.22 8.09
5/27/2021 1:45:00 AM 21.8 71.24 0.371 8.13 29.97 8.03
5/27/2021 2:00:00 AM 21.74 71.132 0.371 8.12 28.96 8.01
5/27/2021 2:15:00 AM 21.67 71.006 0.371 8.11 29.56 7.97
5/27/2021 2:30:00 AM 21.61 70.898 0.372 8.1 29.23 7.95
5/27/2021 2:45:00 AM 21.55 70.79 0.372 8.1 29.17 7.95
5/27/2021 3:00:00 AM 21.48 70.664 0.372 8.1 29.47 7.93
5/27/2021 3:15:00 AM 21.42 70.556 0.373 8.09 29.46 7.86
5/27/2021 3:30:00 AM 21.36 70.448 0.373 8.08 29.51 7.85
5/27/2021 3:45:00 AM 21.3 70.34 0.373 8.07 29.04 7.84
5/27/2021 4:00:00 AM 21.24 70.232 0.373 8.07 60.82 7.79
5/27/2021 4:15:00 AM 21.18 70.124 0.374 8.07 36.2 7.81
5/27/2021 4:30:00 AM 21.11 69.998 0.374 8.06 36.19 7.77
5/27/2021 4:45:00 AM 21.05 69.89 0.375 8.06 36.45 7.77
5/27/2021 5:00:00 AM 20.99 69.782 0.375 8.05 36.61 7.75
5/27/2021 5:15:00 AM 20.92 69.656 0.375 8.04 36.41 7.71
5/27/2021 5:30:00 AM 20.86 69.548 0.376 8.03 36.49 7.71
5/27/2021 5:45:00 AM 20.81 69.458 0.376 8.03 36.25 7.71
5/27/2021 6:00:00 AM 20.74 69.332 0.376 8.03 36.28 7.7
5/27/2021 6:15:00 AM 20.68 69.224 0.377 8.02 36.36 7.7
5/27/2021 6:30:00 AM 20.64 69.152 0.377 8.02 35.75 7.68
5/27/2021 6:45:00 AM 20.6 69.08 0.378 8.02 35.96 7.7
5/27/2021 7:00:00 AM 20.56 69.008 0.378 8.01 35.77 7.73
5/27/2021 7:15:00 AM 20.53 68.954 0.379 8.02 35.67 7.73
5/27/2021 7:30:00 AM 20.5 68.9 0.379 8.03 35.44 7.8
5/27/2021 7:45:00 AM 20.46 68.828 0.379 8.03 35.55 7.84
5/27/2021 8:00:00 AM 20.44 68.792 0.38 8.03 36.06 7.88
5/27/2021 8:15:00 AM 20.46 68.828 0.38 8.04 36.09 7.96
5/27/2021 8:30:00 AM 20.48 68.864 0.38 8.04 35.4 8.04
5/27/2021 8:45:00 AM 20.52 68.936 0.381 8.05 35.16 8.11
5/27/2021 9:00:00 AM 20.59 69.062 0.381 8.07 34.69 8.23
5/27/2021 9:15:00 AM 20.65 69.17 0.381 8.08 35 8.33
5/27/2021 9:30:00 AM 20.73 69.314 0.382 8.09 34.66 8.41
5/27/2021 9:45:00 AM 20.82 69.476 0.382 8.1 34.93 8.49
5/27/2021 10:00:00 AM 20.93 69.674 0.382 8.11 34.76 8.57
5/27/2021 10:15:00 AM 21.04 69.872 0.382 8.12 34.53 8.68
5/27/2021 10:30:00 AM 21.14 70.052 0.383 8.14 34.86 8.76
5/27/2021 10:45:00 AM 21.28 70.304 0.383 8.16 34.51 8.9
5/27/2021 11:00:00 AM 21.4 70.52 0.383 8.16 34.57 8.97
5/27/2021 11:15:00 AM 21.55 70.79 0.383 8.19 35.2 9.1
5/27/2021 11:30:00 AM 21.71 71.078 0.383 8.19 34.93 9.2
5/27/2021 11:45:00 AM 21.88 71.384 0.383 8.22 34.97 9.28
5/27/2021 12:00:00 PM 22.04 71.672 0.383 8.24 35.05 9.41
5/27/2021 12:15:00 PM 22.18 71.924 0.383 8.24 34.69 9.46
5/27/2021 12:30:00 PM 22.31 72.158 0.383 8.25 34.85 9.53
5/27/2021 12:45:00 PM 22.4 72.32 0.383 8.27 37.8 9.58
5/27/2021 1:00:00 PM 22.51 72.518 0.383 8.27 23.01 9.6
5/27/2021 1:15:00 PM 22.63 72.734 0.383 8.28 21.47 9.7
5/27/2021 1:30:00 PM 22.79 73.022 0.383 8.29 21.98 9.74
5/27/2021 1:45:00 PM 22.89 73.202 0.383 8.31 21.74 9.81
5/27/2021 2:00:00 PM 23.04 73.472 0.382 8.32 21.69 9.9
5/27/2021 2:15:00 PM 23.14 73.652 0.382 8.32 21.16 9.9
5/27/2021 2:30:00 PM 23.28 73.904 0.382 8.33 21.1 9.96
5/27/2021 2:45:00 PM 23.36 74.048 0.382 8.35 21.09 9.99
5/27/2021 3:00:00 PM 23.45 74.21 0.382 8.34 201.08 9.98
5/27/2021 3:15:00 PM 23.52 74.336 0.382 8.37 22.2 10.06
5/27/2021 3:30:00 PM 23.57 74.426 0.381 8.37 21.93 10.06
5/27/2021 3:45:00 PM 23.62 74.516 0.381 8.38 25.33 10.07
5/27/2021 4:00:00 PM 23.59 74.462 0.381 8.39 21.54 10.15
5/27/2021 4:15:00 PM 23.61 74.498 0.381 8.4 21.99 10.16
5/27/2021 4:30:00 PM 23.62 74.516 0.381 8.4 21.15 10.16
5/27/2021 4:45:00 PM 23.62 74.516 0.38 8.4 21.5 10.15
5/27/2021 5:00:00 PM 23.64 74.552 0.38 8.4 21.4 10.15
5/27/2021 5:15:00 PM 23.66 74.588 0.38 8.41 21.93 10.2
5/27/2021 5:30:00 PM 23.64 74.552 0.38 8.41 21.34 10.13
5/27/2021 5:45:00 PM 23.58 74.444 0.38 8.41 21.07 10.16
5/27/2021 6:00:00 PM 23.55 74.39 0.379 8.41 20.96 10.1
5/27/2021 6:15:00 PM 23.5 74.3 0.379 8.43 21.16 10.13
5/27/2021 6:30:00 PM 23.4 74.12 0.379 8.41 47.7 10.07
5/27/2021 6:45:00 PM 23.32 73.976 0.379 8.42 20.07 10.03
5/27/2021 7:00:00 PM 23.21 73.778 0.379 8.42 19.92 10
5/27/2021 7:15:00 PM 23.13 73.634 0.378 8.41 20.06 9.96
5/27/2021 7:30:00 PM 23.02 73.436 0.378 8.41 20.11 9.87
5/27/2021 7:45:00 PM 22.93 73.274 0.378 8.4 20.63 9.82
5/27/2021 8:00:00 PM 22.84 73.112 0.378 8.39 20.1 9.77
5/27/2021 8:15:00 PM 22.75 72.95 0.378 8.38 19.55 9.66
5/27/2021 8:30:00 PM 22.63 72.734 0.378 8.37 20 9.56
5/27/2021 8:45:00 PM 22.54 72.57201 0.378 8.35 20.02 9.52
5/27/2021 9:00:00 PM 22.44 72.392 0.378 8.34 20.62 9.42
5/27/2021 9:15:00 PM 22.35 72.23 0.378 8.32 20.37 9.31
5/27/2021 9:30:00 PM 22.26 72.068 0.378 8.31 20.84 9.22
5/27/2021 9:45:00 PM 22.17 71.906 0.378 8.29 21.21 9.13
5/27/2021 10:00:00 PM 22.08 71.744 0.378 8.28 22.01 9.08
5/27/2021 10:15:00 PM 21.99 71.582 0.378 8.26 20.51 8.99
5/27/2021 10:30:00 PM 21.89 71.402 0.378 8.25 20.44 8.92
5/27/2021 10:45:00 PM 21.81 71.258 0.378 8.24 20.45 8.9
5/27/2021 11:00:00 PM 21.73 71.114 0.378 8.23 20.4 8.81
5/27/2021 11:15:00 PM 21.64 70.952 0.378 8.21 20.96 8.75
5/27/2021 11:30:00 PM 21.55 70.79 0.378 8.21 20.55 8.7
5/27/2021 11:45:00 PM 21.47 70.646 0.378 8.2 21.06 8.68
5/28/2021 12:00:00 AM 21.38 70.484 0.378 8.19 21.17 8.61
5/28/2021 12:15:00 AM 21.29 70.32201 0.378 8.16 20.76 8.58
5/28/2021 12:30:00 AM 21.2 70.16 0.378 8.17 20.84 8.49
5/28/2021 12:45:00 AM 21.11 69.998 0.378 8.16 20.67 8.48
5/28/2021 1:00:00 AM 21.03 69.854 0.378 8.15 20.72 8.46
5/28/2021 1:15:00 AM 20.94 69.692 0.379 8.14 20.85 8.43
5/28/2021 1:30:00 AM 20.86 69.548 0.379 8.14 20.83 8.42
5/28/2021 1:45:00 AM 20.78 69.404 0.379 8.14 20.9 8.36
5/28/2021 2:00:00 AM 20.7 69.26 0.379 8.12 21.27 8.34
5/28/2021 2:15:00 AM 20.61 69.098 0.379 8.12 21.01 8.32
5/28/2021 2:30:00 AM 20.54 68.972 0.379 8.12 21.13 8.32
5/28/2021 2:45:00 AM 20.46 68.828 0.38 8.12 20.74 8.3
5/28/2021 3:00:00 AM 20.39 68.702 0.38 8.12 23.47 8.26
5/28/2021 3:15:00 AM 20.31 68.558 0.38 8.1 21.34 8.26
5/28/2021 3:30:00 AM 20.24 68.432 0.381 8.11 21.08 8.25
5/28/2021 3:45:00 AM 20.18 68.324 0.381 8.11 21.14 8.24
5/28/2021 4:00:00 AM 20.1 68.18 0.381 8.11 21.4 8.23
5/28/2021 4:15:00 AM 20.03 68.054 0.382 8.11 22.93 8.2
5/28/2021 4:30:00 AM 19.96 67.92799 0.382 8.1 21.51 8.2
5/28/2021 4:45:00 AM 19.89 67.802 0.383 8.1 21.85 8.16
5/28/2021 5:00:00 AM 19.82 67.676 0.383 8.1 21.66 8.19
5/28/2021 5:15:00 AM 19.75 67.55 0.383 8.1 21.37 8.17
5/28/2021 5:30:00 AM 19.69 67.442 0.384 8.1 21.38 8.15
5/28/2021 5:45:00 AM 19.63 67.334 0.384 8.09 21.65 8.15
5/28/2021 6:00:00 AM 19.57 67.226 0.385 8.09 21.35 8.12
5/28/2021 6:15:00 AM 19.51 67.118 0.385 8.09 21.67 8.13
5/28/2021 6:30:00 AM 19.46 67.028 0.386 8.09 21.48 8.12
5/28/2021 6:45:00 AM 19.41 66.938 0.386 8.09 21.39 8.12
5/28/2021 7:00:00 AM 19.37 66.866 0.387 8.08 21.07 8.13
5/28/2021 7:15:00 AM 19.32 66.776 0.387 8.09 21.55 8.14
5/28/2021 7:30:00 AM 19.28 66.704 0.388 8.09 21.29 8.16
5/28/2021 7:45:00 AM 19.23 66.614 0.388 8.09 21.87 8.16
5/28/2021 8:00:00 AM 19.19 66.542 0.389 8.09 21.38 8.19
5/28/2021 8:15:00 AM 19.16 66.488 0.389 8.1 21.63 8.22
5/28/2021 8:30:00 AM